Provisional Data: Sugar Run near Sugar Run, PA


Please select a monitoring station.
Please select start date.
Please select start date.

Toggle Unit: C/F Toggle Unit: C/F
Sample Time Temperature (C) Temperature (F) Specific Conductivity (mS/cm) pH   Turbidity (NTU+) DO (mg/L)
10/20/2020 12:00:00 AM 11.69 53.042 0.18 7.27 1.95 9.13
10/20/2020 12:15:00 AM 11.7 53.06 0.18 7.26 1.91 9.13
10/20/2020 12:30:00 AM 11.72 53.096 0.18 7.26 2.07 9.12
10/20/2020 12:45:00 AM 11.74 53.132 0.18 7.27 1.85 9.11
10/20/2020 1:00:00 AM 11.77 53.186 0.18 7.27 1.98 9.08
10/20/2020 1:15:00 AM 11.77 53.186 0.18 7.27 1.91 9.07
10/20/2020 1:30:00 AM 11.8 53.24 0.18 7.26 1.92 9.04
10/20/2020 1:45:00 AM 11.81 53.258 0.18 7.27 1.9 9.03
10/20/2020 2:00:00 AM 11.8 53.24 0.18 7.27 2 9.04
10/20/2020 2:15:00 AM 11.84 53.312 0.18 7.26 2.11 9.02
10/20/2020 2:30:00 AM 11.84 53.312 0.18 7.26 1.91 9
10/20/2020 2:45:00 AM 11.87 53.366 0.18 7.26 2.23 8.98
10/20/2020 3:00:00 AM 11.87 53.366 0.18 7.27 1.93 8.98
10/20/2020 3:15:00 AM 11.89 53.402 0.18 7.26 1.93 8.95
10/20/2020 3:30:00 AM 11.89 53.402 0.18 7.27 1.93 8.94
10/20/2020 3:45:00 AM 11.91 53.438 0.18 7.26 1.94 8.93
10/20/2020 4:00:00 AM 11.94 53.492 0.18 7.26 1.91 8.91
10/20/2020 4:15:00 AM 11.96 53.528 0.18 7.27 1.95 8.93
10/20/2020 4:30:00 AM 11.97 53.546 0.18 7.26 2.04 8.86
10/20/2020 4:45:00 AM 11.97 53.546 0.18 7.25 1.89 8.86
10/20/2020 5:00:00 AM 11.99 53.582 0.18 7.26 1.94 8.87
10/20/2020 5:15:00 AM 11.99 53.582 0.18 7.26 1.91 8.87
10/20/2020 5:30:00 AM 12 53.6 0.18 7.26 1.89 8.84
10/20/2020 5:45:00 AM 12.01 53.618 0.18 7.24 1.91 8.83
10/20/2020 6:00:00 AM 12.03 53.654 0.18 7.24 1.89 8.83
10/20/2020 6:15:00 AM 12.04 53.672 0.18 7.25 2.12 8.8
10/20/2020 6:30:00 AM 12.04 53.672 0.18 7.26 1.99 8.82
10/20/2020 6:45:00 AM 12.06 53.708 0.18 7.26 2.08 8.8
10/20/2020 7:00:00 AM 12.06 53.708 0.18 7.24 2.1 8.81
10/20/2020 7:15:00 AM 12.06 53.708 0.18 7.26 2.68 8.8
10/20/2020 7:30:00 AM 12.06 53.708 0.18 7.24 2.22 8.78
10/20/2020 7:45:00 AM 12.07 53.726 0.18 7.25 2.06 8.79
10/20/2020 8:00:00 AM 12.07 53.726 0.18 7.26 2.02 8.8
10/20/2020 8:15:00 AM 12.09 53.762 0.18 7.24 2.06 8.81
10/20/2020 8:30:00 AM 12.1 53.78 0.18 7.26 1.97 8.86
10/20/2020 8:45:00 AM 12.12 53.816 0.18 7.26 2.01 8.87
10/20/2020 9:00:00 AM 12.13 53.834 0.18 7.25 1.94 8.92
10/20/2020 9:15:00 AM 12.15 53.87 0.18 7.28 1.96 8.98
10/20/2020 9:30:00 AM 12.19 53.942 0.18 7.26 1.97 9.01
10/20/2020 9:45:00 AM 12.21 53.978 0.18 7.27 1.95 9.02
10/20/2020 10:00:00 AM 12.23 54.014 0.18 7.28 1.98 9
10/20/2020 10:15:00 AM 12.26 54.068 0.18 7.27 1.97 9.1
10/20/2020 10:30:00 AM 12.28 54.104 0.18 7.28 2.19 9.12
10/20/2020 10:45:00 AM 12.32 54.176 0.18 7.29 1.95 9.13
10/20/2020 11:00:00 AM 12.36 54.248 0.18 7.29 2.58 9.21
10/20/2020 11:15:00 AM 12.4 54.32 0.18 7.28 2.62 9.18
10/20/2020 11:30:00 AM 12.44 54.392 0.18 7.29 2.73 9.22
10/20/2020 11:45:00 AM 12.49 54.482 0.18 7.3 2.26 9.28
10/20/2020 12:00:00 PM 12.54 54.572 0.18 7.32 1.98 9.52
10/20/2020 12:15:00 PM 12.6 54.68 0.18 7.33 1.96 9.62
10/20/2020 12:30:00 PM 12.67 54.806 0.18 7.34 2.17 9.67
10/20/2020 12:45:00 PM 12.75 54.95 0.18 7.34 3.08 9.77
10/20/2020 1:00:00 PM 12.81 55.058 0.18 7.36 3.48 9.8
10/20/2020 1:15:00 PM 12.87 55.166 0.18 7.36 2.25 9.85
10/20/2020 1:30:00 PM 12.91 55.238 0.18 7.37 2.13 9.88
10/20/2020 1:45:00 PM 12.93 55.274 0.18 7.36 2.33 9.79
10/20/2020 2:00:00 PM 12.96 55.328 0.18 7.35 2.45 9.81
10/20/2020 2:15:00 PM 12.98 55.364 0.18 7.35 2.32 9.78
10/20/2020 2:30:00 PM 13.03 55.454 0.18 7.34 2.03 9.67
10/20/2020 2:45:00 PM 13.09 55.562 0.18 7.33 2.97 9.64
10/20/2020 3:00:00 PM 13.13 55.634 0.18 7.34 3.09 9.64
10/20/2020 3:15:00 PM 13.16 55.688 0.18 7.34 2.09 9.64
10/20/2020 3:30:00 PM 13.14 55.652 0.18 7.35 4.12 9.63
10/20/2020 3:45:00 PM 13.16 55.688 0.18 7.35 2.17 9.69
10/20/2020 4:00:00 PM 13.19 55.742 0.18 7.33 1.98 9.62
10/20/2020 4:15:00 PM 13.23 55.814 0.18 7.31 2.76 9.38
10/20/2020 4:30:00 PM 13.24 55.832 0.18 7.3 2.65 9.3
10/20/2020 4:45:00 PM 13.25 55.85 0.18 7.31 2.02 9.34
10/20/2020 5:00:00 PM 13.28 55.904 0.18 7.31 2.23 9.39
10/20/2020 5:15:00 PM 13.27 55.886 0.18 7.31 2.24 9.42
10/20/2020 5:30:00 PM 13.27 55.886 0.18 7.3 1.98 9.34
10/20/2020 5:45:00 PM 13.26 55.868 0.18 7.3 2.21 9.28
10/20/2020 6:00:00 PM 13.25 55.85 0.18 7.3 2.01 9.2
10/20/2020 6:15:00 PM 13.23 55.814 0.18 7.28 1.9 9.08
10/20/2020 6:30:00 PM 13.21 55.778 0.18 7.27 2 9.03
10/20/2020 6:45:00 PM 13.18 55.724 0.18 7.26 1.93 8.97
10/20/2020 7:00:00 PM 13.14 55.652 0.18 7.28 1.91 8.93
10/20/2020 7:15:00 PM 13.12 55.616 0.18 7.26 1.94 8.89
10/20/2020 7:30:00 PM 13.09 55.562 0.18 7.27 2.08 8.87
10/20/2020 7:45:00 PM 13.08 55.544 0.18 7.26 2.11 8.84
10/20/2020 8:00:00 PM 13.06 55.508 0.18 7.24 1.96 8.81
10/20/2020 8:15:00 PM 13.04 55.472 0.18 7.25 1.94 8.8
10/20/2020 8:30:00 PM 13.02 55.436 0.18 7.26 1.89 8.79
10/20/2020 8:45:00 PM 12.99 55.382 0.18 7.25 1.96 8.76
10/20/2020 9:00:00 PM 12.98 55.364 0.18 7.25 1.9 8.77
10/20/2020 9:15:00 PM 12.97 55.346 0.18 7.25 2.13 8.74
10/20/2020 9:30:00 PM 12.95 55.31 0.18 7.23 1.94 8.73
10/20/2020 9:45:00 PM 12.93 55.274 0.18 7.25 1.96 8.73
10/20/2020 10:00:00 PM 12.92 55.256 0.18 7.25 2.03 8.73
10/20/2020 10:15:00 PM 12.9 55.22 0.18 7.25 2.02 8.72
10/20/2020 10:30:00 PM 12.88 55.184 0.18 7.24 2.13 8.72
10/20/2020 10:45:00 PM 12.87 55.166 0.18 7.24 2.06 8.7
10/20/2020 11:00:00 PM 12.86 55.148 0.18 7.24 1.96 8.67
10/20/2020 11:15:00 PM 12.86 55.148 0.18 7.25 2.01 8.68
10/20/2020 11:30:00 PM 12.84 55.112 0.18 7.25 2.29 8.67
10/20/2020 11:45:00 PM 12.82 55.076 0.18 7.25 2.26 8.67
10/21/2020 12:00:00 AM 12.82 55.076 0.18 7.24 2.12 8.64
10/21/2020 12:15:00 AM 12.81 55.058 0.18 7.24 2 8.65
10/21/2020 12:30:00 AM 12.8 55.04 0.18 7.24 2.11 8.61
10/21/2020 12:45:00 AM 12.8 55.04 0.18 7.24 2.11 8.63
10/21/2020 1:00:00 AM 12.79 55.022 0.181 7.23 2.13 8.6
10/21/2020 1:15:00 AM 12.78 55.004 0.181 7.25 2.04 8.63
10/21/2020 1:30:00 AM 12.77 54.986 0.181 7.24 2.04 8.6
10/21/2020 1:45:00 AM 12.76 54.968 0.181 7.24 1.95 8.6
10/21/2020 2:00:00 AM 12.75 54.95 0.181 7.25 1.95 8.59
10/21/2020 2:15:00 AM 12.75 54.95 0.181 7.25 2.31 8.57
10/21/2020 2:30:00 AM 12.74 54.932 0.181 7.25 2.16 8.56
10/21/2020 2:45:00 AM 12.74 54.932 0.181 7.25 2.18 8.58
10/21/2020 3:00:00 AM 12.73 54.914 0.181 7.25 2 8.55
10/21/2020 3:15:00 AM 12.71 54.878 0.181 7.25 2.04 8.56
10/21/2020 3:30:00 AM 12.71 54.878 0.181 7.25 2.02 8.55
10/21/2020 3:45:00 AM 12.7 54.86 0.181 7.24 2.14 8.53
10/21/2020 4:00:00 AM 12.7 54.86 0.181 7.25 2.13 8.52
10/21/2020 4:15:00 AM 12.69 54.842 0.181 7.25 2.2 8.54
10/21/2020 4:30:00 AM 12.69 54.842 0.181 7.25 2 8.53
10/21/2020 4:45:00 AM 12.68 54.824 0.181 7.24 2.15 8.51
10/21/2020 5:00:00 AM 12.67 54.806 0.181 7.25 1.98 8.51
10/21/2020 5:15:00 AM 12.67 54.806 0.181 7.25 2.2 8.51
10/21/2020 5:30:00 AM 12.66 54.788 0.181 7.25 2.06 8.51
10/21/2020 5:45:00 AM 12.65 54.77 0.181 7.25 2.33 8.49
10/21/2020 6:00:00 AM 12.64 54.752 0.181 7.25 2.01 8.48
10/21/2020 6:15:00 AM 12.63 54.734 0.181 7.25 2.15 8.46
10/21/2020 6:30:00 AM 12.61 54.698 0.181 7.24 2.13 8.43
10/21/2020 6:45:00 AM 12.57 54.626 0.181 7.23 2.07 8.47
10/21/2020 7:00:00 AM 12.54 54.572 0.181 7.24 2.03 8.48
10/21/2020 7:15:00 AM 12.52 54.536 0.181 7.24 2.18 8.47
10/21/2020 7:30:00 AM 12.5 54.5 0.181 7.24 2.07 8.49
10/21/2020 7:45:00 AM 12.49 54.482 0.181 7.24 2.3 8.37
10/21/2020 8:00:00 AM 12.48 54.464 0.181 7.23 2.17 8.44
10/21/2020 8:15:00 AM 12.48 54.464 0.182 7.23 2.23 8.31
10/21/2020 8:30:00 AM 12.47 54.446 0.181 7.24 2.52 8.46
10/21/2020 8:45:00 AM 12.46 54.428 0.181 7.24 2.43 8.47
10/21/2020 9:00:00 AM 12.46 54.428 0.182 7.23 2.29 8.41
10/21/2020 9:15:00 AM 12.49 54.482 0.181 7.25 2.2 8.65
10/21/2020 9:30:00 AM 12.51 54.518 0.181 7.25 3.03 8.64
10/21/2020 9:45:00 AM 12.54 54.572 0.181 7.25 5.05 8.63
10/21/2020 10:00:00 AM 12.59 54.662 0.181 7.26 57.51 8.62
10/21/2020 10:15:00 AM 12.66 54.788 0.181 7.26 3.06 8.8
10/21/2020 10:30:00 AM 12.7 54.86 0.181 7.28 2.67 8.91
10/21/2020 10:45:00 AM 12.74 54.932 0.181 7.28 2 9.12
10/21/2020 11:00:00 AM 12.81 55.058 0.181 7.29 2.41 9.16
10/21/2020 11:15:00 AM 12.9 55.22 0.181 7.32 2.81 9.44
10/21/2020 11:30:00 AM 12.96 55.328 0.181 7.33 2.25 9.44
10/21/2020 11:45:00 AM 13.06 55.508 0.181 7.34 2.52 9.39
10/21/2020 12:00:00 PM 13.2 55.76 0.181 7.37 3.43 9.67
10/21/2020 12:15:00 PM 13.35 56.03 0.181 7.36 3.11 9.74
10/21/2020 12:30:00 PM 13.44 56.192 0.181 7.37 1.99 9.75
10/21/2020 12:45:00 PM 13.6 56.48 0.181 7.37 1.97 9.84
10/21/2020 1:00:00 PM 13.79 56.822 0.181 7.4 2.03 9.83
10/21/2020 1:15:00 PM 13.93 57.074 0.181 7.42 2.55 9.77
10/21/2020 1:30:00 PM 14.1 57.38 0.181 7.42 1.87 9.86
10/21/2020 1:45:00 PM 14.23 57.614 0.181 7.41 1.92 9.77
10/21/2020 2:00:00 PM 14.32 57.776 0.181 7.42 1.96 9.89
10/21/2020 2:15:00 PM 14.57 58.226 0.181 7.42 1.9 9.91
10/21/2020 2:30:00 PM 14.76 58.568 0.181 7.42 2.07 9.89
10/21/2020 2:45:00 PM 14.8 58.64 0.181 7.43 1.87 9.91
10/21/2020 3:00:00 PM 14.75 58.55 0.181 7.41 1.91 9.95
10/21/2020 3:15:00 PM 14.98 58.964 0.181 7.41 1.93 9.83
10/21/2020 3:30:00 PM 15.05 59.09 0.181 7.41 1.86 9.85
10/21/2020 3:45:00 PM 15.04 59.072 0.181 7.41 1.83 9.82
10/21/2020 4:00:00 PM 15.07 59.126 0.181 7.4 1.88 9.84
10/21/2020 4:15:00 PM 15.01 59.018 0.181 7.39 1.94 9.73
10/21/2020 4:30:00 PM 15.02 59.036 0.181 7.35 1.95 9.57
10/21/2020 4:45:00 PM 15.04 59.072 0.181 7.34 1.92 9.43
10/21/2020 5:00:00 PM 15.01 59.018 0.181 7.33 1.89 9.38
10/21/2020 5:15:00 PM 14.98 58.964 0.181 7.32 2.06 9.28
10/21/2020 5:30:00 PM 14.98 58.964 0.181 7.3 6.03 9.11
10/21/2020 5:45:00 PM 14.95 58.91 0.181 7.3 3.66 9.03
10/21/2020 6:00:00 PM 14.94 58.892 0.181 7.3 1.97 8.99
10/21/2020 6:15:00 PM 14.91 58.838 0.181 7.29 2.12 8.98
10/21/2020 6:30:00 PM 14.87 58.766 0.181 7.28 2.12 8.86
10/21/2020 6:45:00 PM 14.82 58.676 0.182 7.27 2.14 8.75
10/21/2020 7:00:00 PM 14.77 58.586 0.182 7.26 2.02 8.65
10/21/2020 7:15:00 PM 14.73 58.514 0.182 7.26 1.99 8.6
10/21/2020 7:30:00 PM 14.69 58.442 0.182 7.25 2.26 8.55
10/21/2020 7:45:00 PM 14.67 58.406 0.182 7.25 2.2 8.51
10/21/2020 8:00:00 PM 14.63 58.334 0.182 7.26 2.11 8.46
10/21/2020 8:15:00 PM 14.61 58.298 0.182 7.25 2.13 8.44
10/21/2020 8:30:00 PM 14.58 58.244 0.182 7.24 2.05 8.39
10/21/2020 8:45:00 PM 14.56 58.208 0.182 7.23 2.13 8.37
10/21/2020 9:00:00 PM 14.53 58.154 0.182 7.24 2.14 8.35
10/21/2020 9:15:00 PM 14.51 58.118 0.182 7.23 2.04 8.33
10/21/2020 9:30:00 PM 14.49 58.082 0.182 7.23 2.11 8.33
10/21/2020 9:45:00 PM 14.48 58.064 0.182 7.22 2.17 8.3
10/21/2020 10:00:00 PM 14.47 58.046 0.182 7.22 2.1 8.26
10/21/2020 10:15:00 PM 14.46 58.028 0.182 7.21 2.19 8.26
10/21/2020 10:30:00 PM 14.45 58.01 0.182 7.21 2.04 8.26
10/21/2020 10:45:00 PM 14.44 57.992 0.182 7.21 2.17 8.22
10/21/2020 11:00:00 PM 14.43 57.974 0.182 7.2 2.29 8.21
10/21/2020 11:15:00 PM 14.41 57.938 0.182 7.2 2.09 8.21
10/21/2020 11:30:00 PM 14.41 57.938 0.182 7.23 2.06 8.17
10/21/2020 11:45:00 PM 14.39 57.902 0.182 7.22 2.23 8.2
10/22/2020 12:00:00 AM 14.36 57.848 0.182 7.21 2.05 8.2
10/22/2020 12:15:00 AM 14.35 57.83 0.182 7.21 2.11 8.18
10/22/2020 12:30:00 AM 14.33 57.794 0.182 7.21 2.08 8.05
10/22/2020 12:45:00 AM 14.32 57.776 0.182 7.21 2.04 8.14
10/22/2020 1:00:00 AM 14.3 57.74 0.182 7.2 2.07 8.07
10/22/2020 1:15:00 AM 14.3 57.74 0.182 7.21 2.04 8.14
10/22/2020 1:30:00 AM 14.29 57.722 0.182 7.21 2.14 8.15
10/22/2020 1:45:00 AM 14.28 57.704 0.182 7.21 2.03 8.09
10/22/2020 2:00:00 AM 14.26 57.668 0.182 7.21 2.12 8.11
10/22/2020 2:15:00 AM 14.25 57.65 0.182 7.21 2.46 8.13
10/22/2020 2:30:00 AM 14.24 57.632 0.182 7.21 2.15 8.09
10/22/2020 2:45:00 AM 14.24 57.632 0.183 7.21 2.16 8.09
10/22/2020 3:00:00 AM 14.23 57.614 0.183 7.21 2.54 8.09
10/22/2020 3:15:00 AM 14.23 57.614 0.183 7.21 2.14 8.05
10/22/2020 3:30:00 AM 14.22 57.596 0.183 7.21 2.2 8.07
10/22/2020 3:45:00 AM 14.21 57.578 0.183 7.21 2.2 8.05
10/22/2020 4:00:00 AM 14.21 57.578 0.183 7.2 2.12 8.04
10/22/2020 4:15:00 AM 14.19 57.542 0.183 7.19 2.12 8.04
10/22/2020 4:30:00 AM 14.19 57.542 0.183 7.2 2.11 8.02
10/22/2020 4:45:00 AM 14.19 57.542 0.183 7.2 2.01 8
10/22/2020 5:00:00 AM 14.18 57.524 0.183 7.2 2.04 8.01
10/22/2020 5:15:00 AM 14.18 57.524 0.183 7.2 2.08 8
10/22/2020 5:30:00 AM 14.17 57.506 0.183 7.19 2.03 7.98
10/22/2020 5:45:00 AM 14.17 57.506 0.183 7.19 2.14 7.95
10/22/2020 6:00:00 AM 14.16 57.488 0.183 7.2 2.47 7.96
10/22/2020 6:15:00 AM 14.16 57.488 0.183 7.19 2.41 7.94
10/22/2020 6:30:00 AM 14.15 57.47 0.183 7.19 2.14 7.95
10/22/2020 6:45:00 AM 14.15 57.47 0.183 7.2 2.28 7.94
10/22/2020 7:00:00 AM 14.14 57.452 0.183 7.2 2.4 7.94
10/22/2020 7:15:00 AM 14.14 57.452 0.183 7.18 2.63 7.92
10/22/2020 7:30:00 AM 14.14 57.452 0.183 7.19 2.21 7.9
10/22/2020 7:45:00 AM 14.13 57.434 0.183 7.19 2.3 7.87
10/22/2020 8:00:00 AM 14.13 57.434 0.183 7.18 2.14 7.85
10/22/2020 8:15:00 AM 14.13 57.434 0.183 7.19 2 7.9
10/22/2020 8:30:00 AM 14.13 57.434 0.183 7.18 2.03 7.89
10/22/2020 8:45:00 AM 14.14 57.452 0.183 7.19 2.05 7.96
10/22/2020 9:00:00 AM 14.15 57.47 0.183 7.18 2.36 8.01
10/22/2020 9:15:00 AM 14.17 57.506 0.183 7.19 2.06 8.1
10/22/2020 9:30:00 AM 14.18 57.524 0.183 7.2 4.05 8.08
10/22/2020 9:45:00 AM 14.2 57.56 0.183 7.2 2.59 8.17
10/22/2020 10:00:00 AM 14.22 57.596 0.183 7.21 6.88 8.23
10/22/2020 10:15:00 AM 14.25 57.65 0.183 7.21 2.1 8.33
10/22/2020 10:30:00 AM 14.3 57.74 0.183 7.21 2.75 8.41
10/22/2020 10:45:00 AM 14.35 57.83 0.183 7.23 3.07 8.55
10/22/2020 11:00:00 AM 14.36 57.848 0.183 7.24 2.01 8.49
10/22/2020 11:15:00 AM 14.38 57.884 0.183 7.25 2.79 8.55
10/22/2020 11:30:00 AM 14.43 57.974 0.183 7.28 2.01 8.7
10/22/2020 11:45:00 AM 14.51 58.118 0.183 7.28 2.35 8.72
10/22/2020 12:00:00 PM 14.61 58.298 0.183 7.29 2.61 8.9
10/22/2020 12:15:00 PM 14.76 58.568 0.183 7.3 3.1 8.98
10/22/2020 12:30:00 PM 14.88 58.784 0.183 7.33 2.47 9.14
10/22/2020 12:45:00 PM 15.02 59.036 0.183 7.32 2.15 8.9
10/22/2020 1:00:00 PM 15.17 59.306 0.183 7.32 2.51 9.17
10/22/2020 1:15:00 PM 15.3 59.54 0.183 7.32 2.7 9.11
10/22/2020 1:30:00 PM 15.4 59.72 0.183 7.32 2.47 9.17
10/22/2020 1:45:00 PM 15.53 59.954 0.183 7.33 3.25 9.18
10/22/2020 2:00:00 PM 15.62 60.116 0.183 7.33 2.88 9.21
10/22/2020 2:15:00 PM 15.68 60.224 0.183 7.34 1.92 9.22
10/22/2020 2:30:00 PM 15.82 60.476 0.183 7.33 1.71 9.23
10/22/2020 2:45:00 PM 15.91 60.638 0.183 7.33 5.81 9.15
10/22/2020 3:00:00 PM 15.95 60.71 0.183 7.33 1.76 9.12
10/22/2020 3:15:00 PM 16.04 60.872 0.183 7.33 1.81 9.21
10/22/2020 3:30:00 PM 16.12 61.016 0.183 7.33 1.85 9.12
10/22/2020 3:45:00 PM 16.16 61.088 0.183 7.33 1.75 9.16
10/22/2020 4:00:00 PM 16.17 61.106 0.183 7.34 1.75 9.15
10/22/2020 4:15:00 PM 16.19 61.142 0.183 7.34 2.99 9.07
10/22/2020 4:30:00 PM 16.24 61.232 0.184 7.32 1.76 8.91
10/22/2020 4:45:00 PM 16.2 61.16 0.184 7.33 3.36 8.84
10/22/2020 5:00:00 PM 16.18 61.124 0.184 7.3 3.34 8.79
10/22/2020 5:15:00 PM 16.1 60.98 0.184 7.31 2.4 8.69
10/22/2020 5:30:00 PM 16.05 60.89 0.184 7.3 1.83 8.63
10/22/2020 5:45:00 PM 16.01 60.818 0.184 7.3 1.77 8.6
10/22/2020 6:00:00 PM 15.96 60.728 0.184 7.29 1.95 8.54
10/22/2020 6:15:00 PM 15.89 60.602 0.184 7.29 1.57 8.46
10/22/2020 6:30:00 PM 15.82 60.476 0.184 7.29 1.61 8.4
10/22/2020 6:45:00 PM 15.76 60.368 0.184 7.28 1.6 8.3
10/22/2020 7:00:00 PM 15.67 60.206 0.184 7.26 1.73 8.19
10/22/2020 7:15:00 PM 15.6 60.08 0.184 7.25 1.67 8.14
10/22/2020 7:30:00 PM 15.53 59.954 0.184 7.23 1.68 8.09
10/22/2020 7:45:00 PM 15.48 59.864 0.184 7.24 1.7 8.05
10/22/2020 8:00:00 PM 15.44 59.792 0.184 7.24 1.71 8.05
10/22/2020 8:15:00 PM 15.39 59.702 0.184 7.24 1.7 8.01
10/22/2020 8:30:00 PM 15.35 59.63 0.184 7.23 1.68 8
10/22/2020 8:45:00 PM 15.3 59.54 0.184 7.24 2.19 8
10/22/2020 9:00:00 PM 15.27 59.486 0.184 7.23 1.82 7.98
10/22/2020 9:15:00 PM 15.21 59.378 0.184 7.24 1.71 8
10/22/2020 9:30:00 PM 15.17 59.306 0.184 7.23 1.86 7.97
10/22/2020 9:45:00 PM 15.12 59.216 0.184 7.24 1.9 7.99
10/22/2020 10:00:00 PM 15.08 59.144 0.184 7.22 1.8 7.95
10/22/2020 10:15:00 PM 15.01 59.018 0.184 7.22 1.7 7.97
10/22/2020 10:30:00 PM 14.99 58.982 0.184 7.23 1.67 7.96
10/22/2020 10:45:00 PM 14.95 58.91 0.184 7.23 1.78 7.97
10/22/2020 11:00:00 PM 14.92 58.856 0.184 7.23 1.68 7.94
10/22/2020 11:15:00 PM 14.87 58.766 0.184 7.23 1.73 7.97
10/22/2020 11:30:00 PM 14.83 58.694 0.184 7.23 1.78 7.96
10/22/2020 11:45:00 PM 14.79 58.622 0.184 7.23 1.7 7.97
10/23/2020 12:00:00 AM 14.76 58.568 0.184 7.23 1.7 7.99
10/23/2020 12:15:00 AM 14.72 58.496 0.184 7.23 1.76 7.99
10/23/2020 12:30:00 AM 14.68 58.424 0.184 7.23 1.79 7.97
10/23/2020 12:45:00 AM 14.64 58.352 0.184 7.23 1.65 7.99
10/23/2020 1:00:00 AM 14.61 58.298 0.184 7.23 1.62 7.99
10/23/2020 1:15:00 AM 14.58 58.244 0.184 7.23 1.84 7.96
10/23/2020 1:30:00 AM 14.54 58.172 0.184 7.24 1.71 7.97
10/23/2020 1:45:00 AM 14.51 58.118 0.184 7.23 1.69 7.98
10/23/2020 2:00:00 AM 14.47 58.046 0.184 7.23 1.66 7.99
10/23/2020 2:15:00 AM 14.45 58.01 0.184 7.23 1.67 7.96
10/23/2020 2:30:00 AM 14.4 57.92 0.184 7.23 2.07 7.98
10/23/2020 2:45:00 AM 14.37 57.866 0.185 7.23 1.78 7.98
10/23/2020 3:00:00 AM 14.34 57.812 0.185 7.23 1.64 7.97
10/23/2020 3:15:00 AM 14.31 57.758 0.185 7.24 1.64 7.97
10/23/2020 3:30:00 AM 14.26 57.668 0.185 7.23 1.8 7.95
10/23/2020 3:45:00 AM 14.23 57.614 0.185 7.24 1.66 7.98
10/23/2020 4:00:00 AM 14.18 57.524 0.185 7.23 1.67 7.98
10/23/2020 4:15:00 AM 14.17 57.506 0.185 7.23 1.64 7.94
10/23/2020 4:30:00 AM 14.14 57.452 0.185 7.23 1.94 7.94
10/23/2020 4:45:00 AM 14.1 57.38 0.185 7.23 1.67 7.96
10/23/2020 5:00:00 AM 14.08 57.344 0.185 7.23 1.61 7.94
10/23/2020 5:15:00 AM 14.06 57.308 0.185 7.22 1.68 7.9
10/23/2020 5:30:00 AM 14.04 57.272 0.185 7.22 1.68 7.94
10/23/2020 5:45:00 AM 14.01 57.218 0.185 7.21 2.18 7.93
10/23/2020 6:00:00 AM 13.98 57.164 0.185 7.23 1.69 7.94
10/23/2020 6:15:00 AM 13.98 57.164 0.185 7.21 1.6 7.92
10/23/2020 6:30:00 AM 13.96 57.128 0.185 7.21 1.86 7.96
10/23/2020 6:45:00 AM 13.94 57.092 0.185 7.22 1.71 7.94
10/23/2020 7:00:00 AM 13.93 57.074 0.185 7.22 1.82 7.93
10/23/2020 7:15:00 AM 13.89 57.002 0.185 7.21 1.77 7.93
10/23/2020 7:30:00 AM 13.87 56.966 0.185 7.22 1.68 7.95
10/23/2020 7:45:00 AM 13.84 56.912 0.185 7.22 1.77 7.95
10/23/2020 8:00:00 AM 13.83 56.894 0.185 7.22 1.72 7.95
10/23/2020 8:15:00 AM 13.82 56.876 0.185 7.22 1.59 7.95
10/23/2020 8:30:00 AM 13.81 56.858 0.185 7.24 1.69 8.03
10/23/2020 8:45:00 AM 13.83 56.894 0.185 7.22 1.56 8.02
10/23/2020 9:00:00 AM 13.85 56.93 0.185 7.24 1.65 8.08
10/23/2020 9:15:00 AM 13.86 56.948 0.185 7.24 1.62 8.13
10/23/2020 9:30:00 AM 13.89 57.002 0.185 7.23 1.6 8.14
10/23/2020 9:45:00 AM 13.94 57.092 0.185 7.23 1.61 8.28
10/23/2020 10:00:00 AM 13.99 57.182 0.185 7.24 1.65 8.36
10/23/2020 10:15:00 AM 14.03 57.254 0.185 7.25 1.64 8.39
10/23/2020 10:30:00 AM 14.08 57.344 0.184 7.24 1.66 8.45
10/23/2020 10:45:00 AM 14.13 57.434 0.184 7.26 1.68 8.54
10/23/2020 11:00:00 AM 14.19 57.542 0.185 7.27 1.72 8.65
10/23/2020 11:15:00 AM 14.25 57.65 0.185 7.31 1.63 8.75
10/23/2020 11:30:00 AM 14.34 57.812 0.185 7.31 1.59 8.92
10/23/2020 11:45:00 AM 14.47 58.046 0.185 7.33 1.62 8.98
10/23/2020 12:00:00 PM 14.64 58.352 0.185 7.34 1.87 9.03
10/23/2020 12:15:00 PM 14.81 58.658 0.184 7.35 1.69 9.12
10/23/2020 12:30:00 PM 14.83 58.694 0.184 7.35 1.63 9.14
10/23/2020 12:45:00 PM 14.98 58.964 0.184 7.35 1.57 9.16
10/23/2020 1:00:00 PM 15.31 59.558 0.184 7.36 1.89 9.2
10/23/2020 1:15:00 PM 15.39 59.702 0.184 7.36 1.61 9.19
10/23/2020 1:30:00 PM 15.43 59.774 0.184 7.36 1.6 9.2
10/23/2020 1:45:00 PM 15.67 60.206 0.184 7.36 1.89 9.23
10/23/2020 2:00:00 PM 15.74 60.332 0.184 7.35 1.6 9.19
10/23/2020 2:15:00 PM 15.94 60.692 0.184 7.36 1.55 9.08
10/23/2020 2:30:00 PM 16.04 60.872 0.184 7.35 1.62 9.18
10/23/2020 2:45:00 PM 16.2 61.16 0.184 7.35 1.61 9.15
10/23/2020 3:00:00 PM 16.23 61.214 0.184 7.35 1.62 9.16
10/23/2020 3:15:00 PM 16.33 61.394 0.184 7.34 1.61 9.14
10/23/2020 3:30:00 PM 16.48 61.664 0.184 7.34 1.61 9.09
10/23/2020 3:45:00 PM 16.55 61.79 0.184 7.34 1.99 9.04
10/23/2020 4:00:00 PM 16.59 61.862 0.184 7.33 1.56 9.02
10/23/2020 4:15:00 PM 16.57 61.826 0.184 7.33 1.8 9.01
10/23/2020 4:30:00 PM 16.65 61.97 0.185 7.32 1.63 8.75
10/23/2020 4:45:00 PM 16.52 61.736 0.185 7.36 1.65 8.86
10/23/2020 5:00:00 PM 16.4 61.52 0.185 7.33 1.63 8.94
10/23/2020 5:15:00 PM 16.37 61.466 0.185 7.32 1.6 8.66
10/23/2020 5:30:00 PM 16.31 61.358 0.185 7.3 1.63 8.5
10/23/2020 5:45:00 PM 16.28 61.304 0.185 7.3 1.62 8.44
10/23/2020 6:00:00 PM 16.23 61.214 0.185 7.28 1.58 8.36
10/23/2020 6:15:00 PM 16.18 61.124 0.185 7.29 1.6 8.3
10/23/2020 6:30:00 PM 16.13 61.034 0.185 7.28 1.64 8.22
10/23/2020 6:45:00 PM 16.06 60.908 0.185 7.27 1.62 8.13
10/23/2020 7:00:00 PM 16.02 60.836 0.185 7.27 1.57 8.05
10/23/2020 7:15:00 PM 15.96 60.728 0.185 7.24 1.61 7.95
10/23/2020 7:30:00 PM 15.91 60.638 0.185 7.25 1.6 7.87
10/23/2020 7:45:00 PM 15.86 60.548 0.185 7.23 1.61 7.79
10/23/2020 8:00:00 PM 15.83 60.494 0.185 7.23 1.61 7.73
10/23/2020 8:15:00 PM 15.78 60.404 0.185 7.23 1.79 7.7
10/23/2020 8:30:00 PM 15.74 60.332 0.185 7.23 1.78 7.66
10/23/2020 8:45:00 PM 15.7 60.26 0.185 7.21 1.7 7.64
10/23/2020 9:00:00 PM 15.67 60.206 0.185 7.22 1.62 7.63
10/23/2020 9:15:00 PM 15.65 60.17 0.185 7.22 1.62 7.58
10/23/2020 9:30:00 PM 15.62 60.116 0.185 7.21 1.6 7.56
10/23/2020 9:45:00 PM 15.59 60.062 0.185 7.22 1.66 7.54
10/23/2020 10:00:00 PM 15.57 60.026 0.185 7.21 1.58 7.55
10/23/2020 10:15:00 PM 15.53 59.954 0.185 7.21 1.68 7.57
10/23/2020 10:30:00 PM 15.52 59.936 0.185 7.21 1.76 7.53
10/23/2020 10:45:00 PM 15.5 59.9 0.185 7.21 1.75 7.51
10/23/2020 11:00:00 PM 15.48 59.864 0.185 7.22 1.57 7.47
10/23/2020 11:15:00 PM 15.47 59.846 0.185 7.21 1.64 7.44
10/23/2020 11:30:00 PM 15.44 59.792 0.185 7.21 1.65 7.48
10/23/2020 11:45:00 PM 15.43 59.774 0.185 7.2 1.6 7.45
10/24/2020 12:00:00 AM 15.42 59.756 0.185 7.21 1.62 7.47
10/24/2020 12:15:00 AM 15.41 59.738 0.185 7.2 1.59 7.45
10/24/2020 12:30:00 AM 15.39 59.702 0.185 7.22 1.6 7.46
10/24/2020 12:45:00 AM 15.36 59.648 0.185 7.22 1.69 7.48
10/24/2020 1:00:00 AM 15.33 59.594 0.185 7.21 1.81 7.47
10/24/2020 1:15:00 AM 15.31 59.558 0.186 7.21 1.73 7.46
10/24/2020 1:30:00 AM 15.27 59.486 0.186 7.22 1.54 7.46
10/24/2020 1:45:00 AM 15.25 59.45 0.186 7.21 1.58 7.44
10/24/2020 2:00:00 AM 15.23 59.414 0.186 7.22 2.38 7.45
10/24/2020 2:15:00 AM 15.21 59.378 0.186 7.21 1.73 7.45
10/24/2020 2:30:00 AM 15.18 59.324 0.186 7.22 1.65 7.44
10/24/2020 2:45:00 AM 15.16 59.288 0.186 7.22 1.76 7.44
10/24/2020 3:00:00 AM 15.14 59.252 0.186 7.22 1.87 7.43
10/24/2020 3:15:00 AM 15.14 59.252 0.186 7.21 1.64 7.43
10/24/2020 3:30:00 AM 15.12 59.216 0.186 7.2 1.58 7.4
10/24/2020 3:45:00 AM 15.1 59.18 0.186 7.21 1.65 7.39
10/24/2020 4:00:00 AM 15.1 59.18 0.186 7.21 1.55 7.39
10/24/2020 4:15:00 AM 15.09 59.162 0.186 7.21 1.57 7.37
10/24/2020 4:30:00 AM 15.09 59.162 0.186 7.21 1.62 7.32
10/24/2020 4:45:00 AM 15.07 59.126 0.186 7.21 1.56 7.21
10/24/2020 5:00:00 AM 15.06 59.108 0.186 7.21 1.67 7.35
10/24/2020 5:15:00 AM 15.03 59.054 0.186 7.21 1.65 7.37
10/24/2020 5:30:00 AM 15.02 59.036 0.186 7.21 1.56 7.34
10/24/2020 5:45:00 AM 15.01 59.018 0.186 7.21 1.88 7.35
10/24/2020 6:00:00 AM 15 59 0.186 7.21 1.63 7.35
10/24/2020 6:15:00 AM 15 59 0.186 7.21 1.56 7.34
10/24/2020 6:30:00 AM 15.01 59.018 0.186 7.2 1.79 7.32
10/24/2020 6:45:00 AM 15.01 59.018 0.186 7.21 1.65 7.3
10/24/2020 7:00:00 AM 15.01 59.018 0.186 7.2 1.62 7.27
10/24/2020 7:15:00 AM 15.01 59.018 0.186 7.2 1.6 7.3
10/24/2020 7:30:00 AM 15.01 59.018 0.186 7.19 1.68 7.28
10/24/2020 7:45:00 AM 14.99 58.982 0.186 7.2 1.7 7.27
10/24/2020 8:00:00 AM 14.98 58.964 0.186 7.19 1.77 7.25
10/24/2020 8:15:00 AM 14.98 58.964 0.186 7.19 1.6 7.23
10/24/2020 8:30:00 AM 14.97 58.946 0.186 7.2 1.58 7.25
10/24/2020 8:45:00 AM 14.96 58.928 0.186 7.19 1.7 7.25
10/24/2020 9:00:00 AM 14.96 58.928 0.186 7.2 1.76 7.25
10/24/2020 9:15:00 AM 14.92 58.856 0.186 7.2 1.68 7.28
10/24/2020 9:30:00 AM 14.9 58.82 0.186 7.2 1.93 7.19
10/24/2020 9:45:00 AM 14.83 58.694 0.186 7.2 1.89 7.27
10/24/2020 10:00:00 AM 14.81 58.658 0.186 7.21 2.08 7.25
10/24/2020 10:15:00 AM 14.78 58.604 0.186 7.21 1.62 7.42
10/24/2020 10:30:00 AM 14.77 58.586 0.186 7.2 2.37 7.48
10/24/2020 10:45:00 AM 14.75 58.55 0.185 7.21 3.1 7.49
10/24/2020 11:00:00 AM 14.75 58.55 0.185 7.21 1.58 7.62
10/24/2020 11:15:00 AM 14.74 58.532 0.185 7.22 2.82 7.57
10/24/2020 11:30:00 AM 14.74 58.532 0.185 7.23 2.02 7.85
10/24/2020 11:45:00 AM 14.74 58.532 0.185 7.25 1.74 7.88
10/24/2020 12:00:00 PM 14.74 58.532 0.185 7.25 2.06 7.96
10/24/2020 12:15:00 PM 14.75 58.55 0.185 7.27 1.53 8.09
10/24/2020 12:30:00 PM 14.76 58.568 0.185 7.26 1.67 8.14
10/24/2020 12:45:00 PM 14.78 58.604 0.185 7.29 1.57 8.33
10/24/2020 1:00:00 PM 14.8 58.64 0.185 7.29 2.02 8.4
10/24/2020 1:15:00 PM 14.82 58.676 0.185 7.3 1.95 8.58
10/24/2020 1:30:00 PM 14.83 58.694 0.185 7.31 1.62 8.66
10/24/2020 1:45:00 PM 14.83 58.694 0.185 7.31 1.75 8.69
10/24/2020 2:00:00 PM 14.83 58.694 0.185 7.32 1.73 8.72
10/24/2020 2:15:00 PM 14.83 58.694 0.185 7.32 1.64 8.72
10/24/2020 2:30:00 PM 14.81 58.658 0.185 7.31 1.77 8.71
10/24/2020 2:45:00 PM 14.77 58.586 0.185 7.31 1.61 8.56
10/24/2020 3:00:00 PM 14.76 58.568 0.185 7.3 1.65 8.56
10/24/2020 3:15:00 PM 14.73 58.514 0.185 7.31 2.07 8.62
10/24/2020 3:30:00 PM 14.72 58.496 0.185 7.31 1.58 8.65
10/24/2020 3:45:00 PM 14.72 58.496 0.185 7.32 1.62 8.71
10/24/2020 4:00:00 PM 14.71 58.478 0.185 7.29 1.84 8.68
10/24/2020 4:15:00 PM 14.71 58.478 0.185 7.32 1.58 8.8
10/24/2020 4:30:00 PM 14.7 58.46 0.185 7.32 1.97 8.69
10/24/2020 4:45:00 PM 14.68 58.424 0.185 7.33 2.83 8.78
10/24/2020 5:00:00 PM 14.62 58.316 0.185 7.32 3.28 8.75
10/24/2020 5:15:00 PM 14.58 58.244 0.185 7.32 1.62 8.65
10/24/2020 5:30:00 PM 14.53 58.154 0.185 7.3 1.66 8.62
10/24/2020 5:45:00 PM 14.46 58.028 0.185 7.31 1.72 8.58
10/24/2020 6:00:00 PM 14.4 57.92 0.185 7.29 1.85 8.49
10/24/2020 6:15:00 PM 14.34 57.812 0.185 7.29 1.64 8.39
10/24/2020 6:30:00 PM 14.26 57.668 0.185 7.27 1.65 8.26
10/24/2020 6:45:00 PM 14.19 57.542 0.185 7.27 1.63 8.17
10/24/2020 7:00:00 PM 14.14 57.452 0.185 7.25 1.57 8.09
10/24/2020 7:15:00 PM 14.08 57.344 0.185 7.24 1.66 8.01
10/24/2020 7:30:00 PM 14.02 57.236 0.185 7.24 1.72 7.95
10/24/2020 7:45:00 PM 13.97 57.146 0.185 7.22 1.82 7.89
10/24/2020 8:00:00 PM 13.92 57.056 0.185 7.23 1.68 7.87
10/24/2020 8:15:00 PM 13.87 56.966 0.185 7.23 1.68 7.84
10/24/2020 8:30:00 PM 13.83 56.894 0.185 7.22 1.81 7.79
10/24/2020 8:45:00 PM 13.77 56.786 0.185 7.22 1.73 7.82
10/24/2020 9:00:00 PM 13.71 56.678 0.185 7.22 1.64 7.79
10/24/2020 9:15:00 PM 13.66 56.588 0.185 7.22 1.66 7.75
10/24/2020 9:30:00 PM 13.6 56.48 0.185 7.21 1.69 7.74
10/24/2020 9:45:00 PM 13.57 56.426 0.185 7.2 1.63 7.74
10/24/2020 10:00:00 PM 13.53 56.354 0.185 7.21 1.62 7.73
10/24/2020 10:15:00 PM 13.48 56.264 0.185 7.2 1.58 7.73
10/24/2020 10:30:00 PM 13.43 56.174 0.184 7.21 2.19 7.76
10/24/2020 10:45:00 PM 13.39 56.102 0.184 7.22 1.57 7.79
10/24/2020 11:00:00 PM 13.34 56.012 0.184 7.2 1.56 7.78
10/24/2020 11:15:00 PM 13.28 55.904 0.184 7.2 1.48 7.79
10/24/2020 11:30:00 PM 13.22 55.796 0.184 7.19 1.57 7.78
10/24/2020 11:45:00 PM 13.14 55.652 0.184 7.19 1.58 7.83
10/25/2020 12:00:00 AM 13.1 55.58 0.184 7.21 1.61 7.82
10/25/2020 12:15:00 AM 13.02 55.436 0.184 7.21 1.56 7.84
10/25/2020 12:30:00 AM 12.95 55.31 0.184 7.2 1.52 7.85
10/25/2020 12:45:00 AM 12.88 55.184 0.184 7.2 1.67 7.87
10/25/2020 1:00:00 AM 12.81 55.058 0.184 7.21 1.64 7.9
10/25/2020 1:15:00 AM 12.76 54.968 0.184 7.2 1.78 7.9
10/25/2020 1:30:00 AM 12.69 54.842 0.184 7.19 1.66 7.92
10/25/2020 1:45:00 AM 12.63 54.734 0.184 7.2 1.65 7.94
10/25/2020 2:00:00 AM 12.55 54.59 0.184 7.21 1.64 7.98
10/25/2020 2:15:00 AM 12.52 54.536 0.184 7.2 1.57 7.96
10/25/2020 2:30:00 AM 12.46 54.428 0.184 7.2 1.62 7.96
10/25/2020 2:45:00 AM 12.38 54.284 0.184 7.22 1.71 7.99
10/25/2020 3:00:00 AM 12.37 54.266 0.184 7.22 1.71 7.98
10/25/2020 3:15:00 AM 12.29 54.122 0.184 7.22 1.68 7.99
10/25/2020 3:30:00 AM 12.25 54.05 0.184 7.2 2.19 8.02
10/25/2020 3:45:00 AM 12.19 53.942 0.184 7.21 1.61 8.04
10/25/2020 4:00:00 AM 12.13 53.834 0.184 7.2 2.12 8.05
10/25/2020 4:15:00 AM 12.08 53.744 0.184 7.22 1.59 8.08
10/25/2020 4:30:00 AM 12.03 53.654 0.184 7.23 1.63 8.07
10/25/2020 4:45:00 AM 11.98 53.564 0.184 7.22 1.69 8.09
10/25/2020 5:00:00 AM 11.94 53.492 0.184 7.22 1.93 8.09
10/25/2020 5:15:00 AM 11.86 53.348 0.184 7.23 1.8 8.12
10/25/2020 5:30:00 AM 11.84 53.312 0.184 7.23 1.72 8.11
10/25/2020 5:45:00 AM 11.75 53.15 0.184 7.23 1.6 8.16
10/25/2020 6:00:00 AM 11.7 53.06 0.184 7.23 1.71 8.16
10/25/2020 6:15:00 AM 11.66 52.988 0.185 7.23 1.65 8.17
10/25/2020 6:30:00 AM 11.63 52.934 0.185 7.24 1.64 8.16
10/25/2020 6:45:00 AM 11.59 52.862 0.185 7.23 1.69 8.18
10/25/2020 7:00:00 AM 11.55 52.79 0.185 7.24 1.61 8.19
10/25/2020 7:15:00 AM 11.5 52.7 0.185 7.23 1.68 8.19
10/25/2020 7:30:00 AM 11.44 52.592 0.185 7.24 1.62 8.23
10/25/2020 7:45:00 AM 11.39 52.502 0.185 7.24 1.64 8.26
10/25/2020 8:00:00 AM 11.35 52.43 0.185 7.24 1.63 8.27
10/25/2020 8:15:00 AM 11.32 52.376 0.185 7.25 1.66 8.27
10/25/2020 8:30:00 AM 11.29 52.322 0.185 7.25 1.74 8.3
10/25/2020 8:45:00 AM 11.28 52.304 0.185 7.25 1.55 8.34
10/25/2020 9:00:00 AM 11.28 52.304 0.185 7.25 1.59 8.32
10/25/2020 9:15:00 AM 11.27 52.286 0.185 7.26 1.55 8.35
10/25/2020 9:30:00 AM 11.27 52.286 0.185 7.25 1.58 8.4
10/25/2020 9:45:00 AM 11.27 52.286 0.185 7.27 1.56 8.52
10/25/2020 10:00:00 AM 11.28 52.304 0.185 7.27 1.66 8.58
10/25/2020 10:15:00 AM 11.29 52.322 0.185 7.27 1.55 8.64
10/25/2020 10:30:00 AM 11.31 52.358 0.185 7.28 1.56 8.76
10/25/2020 10:45:00 AM 11.33 52.394 0.185 7.28 1.57 8.91
10/25/2020 11:00:00 AM 11.36 52.448 0.185 7.3 1.61 9.01
10/25/2020 11:15:00 AM 11.38 52.484 0.185 7.29 1.57 9.05
10/25/2020 11:30:00 AM 11.42 52.556 0.185 7.3 1.51 9.14
10/25/2020 11:45:00 AM 11.48 52.664 0.185 7.3 1.72 9.14
10/25/2020 12:00:00 PM 11.52 52.736 0.185 7.33 1.55 9.37
10/25/2020 12:15:00 PM 11.57 52.826 0.184 7.32 1.55 9.46
10/25/2020 12:30:00 PM 11.64 52.952 0.185 7.33 1.51 9.52
10/25/2020 12:45:00 PM 11.71 53.078 0.185 7.35 1.6 9.61
10/25/2020 1:00:00 PM 11.81 53.258 0.185 7.35 1.55 9.67
10/25/2020 1:15:00 PM 11.92 53.456 0.185 7.37 1.56 9.75
10/25/2020 1:30:00 PM 12.02 53.636 0.185 7.38 1.55 9.76
10/25/2020 1:45:00 PM 12.13 53.834 0.185 7.38 1.55 9.78
10/25/2020 2:00:00 PM 12.25 54.05 0.185 7.38 1.48 9.76
10/25/2020 2:15:00 PM 12.36 54.248 0.185 7.38 1.51 9.76
10/25/2020 2:30:00 PM 12.46 54.428 0.185 7.39 1.57 9.76
10/25/2020 2:45:00 PM 12.56 54.608 0.185 7.39 1.63 9.77
10/25/2020 3:00:00 PM 12.66 54.788 0.185 7.38 1.52 9.74
10/25/2020 3:15:00 PM 12.75 54.95 0.185 7.38 1.51 9.75
10/25/2020 3:30:00 PM 12.79 55.022 0.185 7.37 1.54 9.73
10/25/2020 3:45:00 PM 12.81 55.058 0.185 7.36 1.51 9.74
10/25/2020 4:00:00 PM 12.74 54.932 0.185 7.36 1.59 9.73
10/25/2020 4:15:00 PM 12.78 55.004 0.185 7.36 1.73 9.69
10/25/2020 4:30:00 PM 12.77 54.986 0.185 7.35 1.55 9.61
10/25/2020 4:45:00 PM 12.73 54.914 0.185 7.33 1.6 9.47
10/25/2020 5:00:00 PM 12.67 54.806 0.185 7.32 1.63 9.42
10/25/2020 5:15:00 PM 12.63 54.734 0.185 7.33 1.63 9.39
10/25/2020 5:30:00 PM 12.58 54.644 0.185 7.32 1.59 9.35
10/25/2020 5:45:00 PM 12.53 54.554 0.185 7.33 1.62 9.32
10/25/2020 6:00:00 PM 12.48 54.464 0.185 7.33 1.59 9.32
10/25/2020 6:15:00 PM 12.42 54.356 0.185 7.31 1.6 9.2
10/25/2020 6:30:00 PM 12.36 54.248 0.185 7.31 1.68 9.12
10/25/2020 6:45:00 PM 12.3 54.14 0.185 7.31 1.56 9.06
10/25/2020 7:00:00 PM 12.24 54.032 0.185 7.31 1.56 8.97
10/25/2020 7:15:00 PM 12.19 53.942 0.185 7.3 1.62 8.88
10/25/2020 7:30:00 PM 12.14 53.852 0.185 7.29 1.65 8.81
10/25/2020 7:45:00 PM 12.08 53.744 0.185 7.27 1.6 8.77
10/25/2020 8:00:00 PM 12.06 53.708 0.185 7.28 1.62 8.72
10/25/2020 8:15:00 PM 12.03 53.654 0.185 7.28 1.65 8.69
10/25/2020 8:30:00 PM 12.02 53.636 0.185 7.27 1.6 8.68
10/25/2020 8:45:00 PM 12 53.6 0.185 7.28 1.65 8.69
10/25/2020 9:00:00 PM 11.99 53.582 0.185 7.28 1.59 8.65
10/25/2020 9:15:00 PM 11.97 53.546 0.185 7.28 1.58 8.63
10/25/2020 9:30:00 PM 11.96 53.528 0.185 7.28 1.59 8.64
10/25/2020 9:45:00 PM 11.95 53.51 0.185 7.29 1.66 8.63
10/25/2020 10:00:00 PM 11.94 53.492 0.185 7.28 1.6 8.59
10/25/2020 10:15:00 PM 11.93 53.474 0.185 7.27 1.81 8.58
10/25/2020 10:30:00 PM 11.91 53.438 0.185 7.27 1.69 8.58
10/25/2020 10:45:00 PM 11.89 53.402 0.185 7.27 1.71 8.61
10/25/2020 11:00:00 PM 11.88 53.384 0.185 7.27 1.81 8.58
10/25/2020 11:15:00 PM 11.86 53.348 0.185 7.27 1.62 8.55
10/25/2020 11:30:00 PM 11.82 53.276 0.184 7.26 1.63 8.58
10/25/2020 11:45:00 PM 11.78 53.204 0.184 7.26 1.74 8.58
10/26/2020 12:00:00 AM 11.76 53.168 0.184 7.26 1.64 8.58
10/26/2020 12:15:00 AM 11.75 53.15 0.184 7.27 1.65 8.6
10/26/2020 12:30:00 AM 11.73 53.114 0.184 7.27 1.63 8.59
10/26/2020 12:45:00 AM 11.72 53.096 0.184 7.26 1.71 8.6
10/26/2020 1:00:00 AM 11.71 53.078 0.184 7.27 1.6 8.59
10/26/2020 1:15:00 AM 11.7 53.06 0.184 7.27 1.61 8.61
10/26/2020 1:30:00 AM 11.69 53.042 0.184 7.27 1.57 8.58
10/26/2020 1:45:00 AM 11.65 52.97 0.184 7.27 1.76 8.58
10/26/2020 2:00:00 AM 11.65 52.97 0.184 7.27 1.64 8.59
10/26/2020 2:15:00 AM 11.64 52.952 0.183 7.27 1.73 8.58
10/26/2020 2:30:00 AM 11.63 52.934 0.183 7.27 1.6 8.6
10/26/2020 2:45:00 AM 11.62 52.916 0.183 7.27 1.61 8.56
10/26/2020 3:00:00 AM 11.6 52.88 0.183 7.26 1.76 8.6
10/26/2020 3:15:00 AM 11.59 52.862 0.183 7.27 1.6 8.59
10/26/2020 3:30:00 AM 11.59 52.862 0.183 7.27 1.59 8.62
10/26/2020 3:45:00 AM 11.57 52.826 0.183 7.27 1.6 8.59
10/26/2020 4:00:00 AM 11.55 52.79 0.183 7.26 1.63 8.62
10/26/2020 4:15:00 AM 11.54 52.772 0.183 7.26 1.59 8.57
10/26/2020 4:30:00 AM 11.54 52.772 0.183 7.27 1.6 8.56
10/26/2020 4:45:00 AM 11.54 52.772 0.183 7.26 1.58 8.53
10/26/2020 5:00:00 AM 11.52 52.736 0.183 7.25 1.64 8.51
10/26/2020 5:15:00 AM 11.52 52.736 0.183 7.26 1.66 8.53
10/26/2020 5:30:00 AM 11.51 52.718 0.183 7.25 1.65 8.5
10/26/2020 5:45:00 AM 11.49 52.682 0.183 7.26 1.62 8.55
10/26/2020 6:00:00 AM 11.49 52.682 0.183 7.27 1.59 8.55
10/26/2020 6:15:00 AM 11.49 52.682 0.183 7.25 1.69 8.52
10/26/2020 6:30:00 AM 11.48 52.664 0.183 7.26 1.74 8.53
10/26/2020 6:45:00 AM 11.48 52.664 0.183 7.25 1.73 8.51
10/26/2020 7:00:00 AM 11.47 52.646 0.183 7.25 1.89 8.52
10/26/2020 7:15:00 AM 11.46 52.628 0.183 7.26 1.57 8.55
10/26/2020 7:30:00 AM 11.45 52.61 0.183 7.26 1.62 8.56
10/26/2020 7:45:00 AM 11.45 52.61 0.183 7.26 1.74 8.56
10/26/2020 8:00:00 AM 11.45 52.61 0.183 7.26 1.66 8.51
10/26/2020 8:15:00 AM 11.45 52.61 0.183 7.24 1.67 8.4
10/26/2020 8:30:00 AM 11.45 52.61 0.183 7.25 2.28 8.45
10/26/2020 8:45:00 AM 11.44 52.592 0.183 7.25 1.68 8.41
10/26/2020 9:00:00 AM 11.44 52.592 0.183 7.25 2.59 8.46
10/26/2020 9:15:00 AM 11.45 52.61 0.183 7.25 2.69 8.33
10/26/2020 9:30:00 AM 11.46 52.628 0.183 7.24 1.83 8.38
10/26/2020 9:45:00 AM 11.46 52.628 0.183 7.24 1.61 8.49
10/26/2020 10:00:00 AM 11.46 52.628 0.183 7.26 3.61 8.49
10/26/2020 10:15:00 AM 11.48 52.664 0.183 7.25 2.27 8.46
10/26/2020 10:30:00 AM 11.5 52.7 0.183 7.25 1.74 8.5
10/26/2020 10:45:00 AM 11.51 52.718 0.183 7.26 2.21 8.51
10/26/2020 11:00:00 AM 11.54 52.772 0.183 7.27 2.15 8.56
10/26/2020 11:15:00 AM 11.56 52.808 0.183 7.26 1.92 8.62
10/26/2020 11:30:00 AM 11.58 52.844 0.183 7.27 1.57 8.63
10/26/2020 11:45:00 AM 11.62 52.916 0.182 7.27 6.01 8.65
10/26/2020 12:00:00 PM 11.64 52.952 0.182 7.28 1.61 8.81
10/26/2020 12:15:00 PM 11.66 52.988 0.182 7.27 1.56 8.87
10/26/2020 12:30:00 PM 11.68 53.024 0.182 7.28 4.21 8.93
10/26/2020 12:45:00 PM 11.73 53.114 0.182 7.28 1.68 9.02
10/26/2020 1:00:00 PM 11.78 53.204 0.182 7.29 1.62 9.08
10/26/2020 1:15:00 PM 11.83 53.294 0.182 7.3 1.61 9.26
10/26/2020 1:30:00 PM 11.88 53.384 0.182 7.31 1.68 9.33
10/26/2020 1:45:00 PM 11.92 53.456 0.182 7.3 1.64 9.33
10/26/2020 2:00:00 PM 11.96 53.528 0.182 7.32 1.89 9.4
10/26/2020 2:15:00 PM 12.06 53.708 0.182 7.31 1.83 9.37
10/26/2020 2:30:00 PM 12.19 53.942 0.182 7.32 1.69 9.45
10/26/2020 2:45:00 PM 12.22 53.996 0.182 7.32 1.68 9.41
10/26/2020 3:00:00 PM 12.22 53.996 0.182 7.32 1.64 9.33
10/26/2020 3:15:00 PM 12.22 53.996 0.182 7.32 1.69 9.36
10/26/2020 3:30:00 PM 12.24 54.032 0.182 7.32 1.81 9.41
10/26/2020 3:45:00 PM 12.25 54.05 0.182 7.32 1.64 9.45
10/26/2020 4:00:00 PM 12.26 54.068 0.182 7.31 2.12 9.44
10/26/2020 4:15:00 PM 12.28 54.104 0.182 7.31 1.65 9.33
10/26/2020 4:30:00 PM 12.29 54.122 0.182 7.31 1.82 9.35
10/26/2020 4:45:00 PM 12.31 54.158 0.182 7.3 1.7 9.33
10/26/2020 5:00:00 PM 12.32 54.176 0.182 7.3 1.62 9.34
10/26/2020 5:15:00 PM 12.32 54.176 0.182 7.31 1.66 9.33
10/26/2020 5:30:00 PM 12.33 54.194 0.182 7.31 1.67 9.32
10/26/2020 5:45:00 PM 12.34 54.212 0.182 7.3 2.11 9.26
10/26/2020 6:00:00 PM 12.34 54.212 0.182 7.28 1.69 9
10/26/2020 6:15:00 PM 12.33 54.194 0.182 7.26 1.88 8.85
10/26/2020 6:30:00 PM 12.32 54.176 0.182 7.26 1.76 8.77
10/26/2020 6:45:00 PM 12.3 54.14 0.182 7.26 1.76 8.75
10/26/2020 7:00:00 PM 12.29 54.122 0.182 7.26 1.67 8.72
10/26/2020 7:15:00 PM 12.28 54.104 0.182 7.26 1.73 8.67
10/26/2020 7:30:00 PM 12.27 54.086 0.182 7.25 1.67 8.64
10/26/2020 7:45:00 PM 12.25 54.05 0.182 7.25 1.73 8.63
10/26/2020 8:00:00 PM 12.23 54.014 0.182 7.25 1.72 8.63
10/26/2020 8:15:00 PM 12.22 53.996 0.182 7.24 1.67 8.61
10/26/2020 8:30:00 PM 12.21 53.978 0.182 7.25 1.77 8.59
10/26/2020 8:45:00 PM 12.2 53.96 0.182 7.25 1.76 8.6
10/26/2020 9:00:00 PM 12.19 53.942 0.182 7.24 1.66 8.57
10/26/2020 9:15:00 PM 12.19 53.942 0.182 7.23 1.7 8.56
10/26/2020 9:30:00 PM 12.18 53.924 0.182 7.23 1.8 8.54
10/26/2020 9:45:00 PM 12.17 53.906 0.182 7.24 1.85 8.55
10/26/2020 10:00:00 PM 12.17 53.906 0.182 7.24 1.68 8.53
10/26/2020 10:15:00 PM 12.16 53.888 0.182 7.25 1.71 8.56
10/26/2020 10:30:00 PM 12.16 53.888 0.182 7.24 1.9 8.54
10/26/2020 10:45:00 PM 12.15 53.87 0.182 7.24 1.78 8.55
10/26/2020 11:00:00 PM 12.14 53.852 0.182 7.25 1.84 8.56
10/26/2020 11:15:00 PM 12.14 53.852 0.182 7.25 1.78 8.54
10/26/2020 11:30:00 PM 12.13 53.834 0.182 7.26 1.77 8.57
10/26/2020 11:45:00 PM 12.12 53.816 0.182 7.26 1.72 8.59
10/27/2020 12:00:00 AM 12.11 53.798 0.182 7.26 1.83 8.57
10/27/2020 12:15:00 AM 12.1 53.78 0.182 7.25 2.06 8.55
10/27/2020 12:30:00 AM 12.08 53.744 0.182 7.25 1.84 8.52
10/27/2020 12:45:00 AM 12.04 53.672 0.182 7.24 1.85 8.52
10/27/2020 1:00:00 AM 12 53.6 0.182 7.24 1.73 8.5
10/27/2020 1:15:00 AM 11.97 53.546 0.182 7.24 1.86 8.52
10/27/2020 1:30:00 AM 11.95 53.51 0.182 7.24 1.8 8.54
10/27/2020 1:45:00 AM 11.92 53.456 0.181 7.24 1.66 8.55
10/27/2020 2:00:00 AM 11.91 53.438 0.181 7.24 1.71 8.56
10/27/2020 2:15:00 AM 11.9 53.42 0.182 7.25 1.8 8.57
10/27/2020 2:30:00 AM 11.89 53.402 0.181 7.24 1.7 8.55
10/27/2020 2:45:00 AM 11.86 53.348 0.181 7.24 1.78 8.53
10/27/2020 3:00:00 AM 11.85 53.33 0.181 7.24 1.66 8.52
10/27/2020 3:15:00 AM 11.83 53.294 0.181 7.24 1.77 8.53
10/27/2020 3:30:00 AM 11.8 53.24 0.181 7.24 1.74 8.55
10/27/2020 3:45:00 AM 11.79 53.222 0.181 7.23 1.79 8.48
10/27/2020 4:00:00 AM 11.78 53.204 0.181 7.24 1.85 8.53
10/27/2020 4:15:00 AM 11.75 53.15 0.181 7.24 1.93 8.52
10/27/2020 4:30:00 AM 11.73 53.114 0.181 7.24 1.85 8.52
10/27/2020 4:45:00 AM 11.71 53.078 0.181 7.24 1.77 8.57
10/27/2020 5:00:00 AM 11.68 53.024 0.181 7.25 1.78 8.6
10/27/2020 5:15:00 AM 11.66 52.988 0.181 7.24 1.79 8.62
10/27/2020 5:30:00 AM 11.66 52.988 0.181 7.24 1.75 8.6
10/27/2020 5:45:00 AM 11.65 52.97 0.181 7.23 1.77 8.59
10/27/2020 6:00:00 AM 11.63 52.934 0.181 7.25 2.63 8.59
10/27/2020 6:15:00 AM 11.62 52.916 0.181 7.25 1.85 8.59
10/27/2020 6:30:00 AM 11.6 52.88 0.181 7.25 1.7 8.58
10/27/2020 6:45:00 AM 11.57 52.826 0.181 7.25 1.69 8.6
10/27/2020 7:00:00 AM 11.57 52.826 0.181 7.25 1.91 8.62
10/27/2020 7:15:00 AM 11.55 52.79 0.181 7.25 1.85 8.64
10/27/2020 7:30:00 AM 11.54 52.772 0.181 7.26 1.88 8.65
10/27/2020 7:45:00 AM 11.52 52.736 0.181 7.25 2.01 8.65
10/27/2020 8:00:00 AM 11.52 52.736 0.182 7.25 2.06 8.65
10/27/2020 8:15:00 AM 11.5 52.7 0.182 7.26 1.97 8.66
10/27/2020 8:30:00 AM 11.49 52.682 0.182 7.27 1.89 8.68
10/27/2020 8:45:00 AM 11.48 52.664 0.182 7.26 1.84 8.71
10/27/2020 9:00:00 AM 11.47 52.646 0.182 7.26 1.94 8.71
10/27/2020 9:15:00 AM 11.47 52.646 0.182 7.27 2.23 8.74
10/27/2020 9:30:00 AM 11.48 52.664 0.182 7.26 2.16 8.73
10/27/2020 9:45:00 AM 11.48 52.664 0.182 7.27 1.8 8.73
10/27/2020 10:00:00 AM 11.49 52.682 0.181 7.27 1.85 8.79
10/27/2020 10:15:00 AM 11.5 52.7 0.181 7.27 1.72 8.8
10/27/2020 10:30:00 AM 11.51 52.718 0.181 7.27 1.72 8.89
10/27/2020 10:45:00 AM 11.54 52.772 0.181 7.27 1.79 8.99
10/27/2020 11:00:00 AM 11.55 52.79 0.181 7.29 2.22 9.07
10/27/2020 11:15:00 AM 11.57 52.826 0.181 7.28 1.8 9.11
10/27/2020 11:30:00 AM 11.57 52.826 0.181 7.29 1.72 9.15
10/27/2020 11:45:00 AM 11.6 52.88 0.181 7.3 1.72 9.25
10/27/2020 12:00:00 PM 11.63 52.934 0.181 7.31 1.77 9.34
10/27/2020 12:15:00 PM 11.67 53.006 0.181 7.32 1.69 9.42
10/27/2020 12:30:00 PM 11.69 53.042 0.181 7.32 1.83 9.49
10/27/2020 12:45:00 PM 11.72 53.096 0.181 7.33 1.73 9.6
10/27/2020 1:00:00 PM 11.79 53.222 0.181 7.32 1.68 9.69
10/27/2020 1:15:00 PM 11.87 53.366 0.181 7.33 1.77 9.71
10/27/2020 1:30:00 PM 11.92 53.456 0.181 7.34 1.85 9.75
10/27/2020 1:45:00 PM 11.99 53.582 0.181 7.33 1.78 9.79
10/27/2020 2:00:00 PM 12.03 53.654 0.181 7.34 1.75 9.82
10/27/2020 2:15:00 PM 12.07 53.726 0.181 7.34 1.83 9.82
10/27/2020 2:30:00 PM 12.11 53.798 0.181 7.33 1.8 9.81
10/27/2020 2:45:00 PM 12.12 53.816 0.181 7.34 1.71 9.82
10/27/2020 3:00:00 PM 12.13 53.834 0.181 7.33 1.75 9.78
10/27/2020 3:15:00 PM 12.12 53.816 0.181 7.33 1.71 9.78
10/27/2020 3:30:00 PM 12.11 53.798 0.181 7.33 1.83 9.78
10/27/2020 3:45:00 PM 12.11 53.798 0.181 7.33 1.75 9.76
10/27/2020 4:00:00 PM 12.1 53.78 0.181 7.33 1.73 9.75
10/27/2020 4:15:00 PM 12.09 53.762 0.181 7.34 1.79 9.75
10/27/2020 4:30:00 PM 12.07 53.726 0.181 7.33 1.71 9.68
10/27/2020 4:45:00 PM 12.04 53.672 0.181 7.34 1.75 9.66
10/27/2020 5:00:00 PM 12.02 53.636 0.181 7.33 1.7 9.61
10/27/2020 5:15:00 PM 12 53.6 0.181 7.33 1.7 9.58
10/27/2020 5:30:00 PM 11.99 53.582 0.181 7.31 1.73 9.54
10/27/2020 5:45:00 PM 11.95 53.51 0.181 7.32 1.77 9.44
10/27/2020 6:00:00 PM 11.93 53.474 0.181 7.32 1.71 9.43
10/27/2020 6:15:00 PM 11.92 53.456 0.181 7.32 1.76 9.34
10/27/2020 6:30:00 PM 11.9 53.42 0.181 7.3 1.73 9.29
10/27/2020 6:45:00 PM 11.88 53.384 0.181 7.3 1.76 9.22
10/27/2020 7:00:00 PM 11.87 53.366 0.181 7.3 1.77 9.2
10/27/2020 7:15:00 PM 11.85 53.33 0.181 7.3 1.81 9.13
10/27/2020 7:30:00 PM 11.83 53.294 0.181 7.3 1.84 9.1
10/27/2020 7:45:00 PM 11.82 53.276 0.181 7.3 1.77 9.06
10/27/2020 8:00:00 PM 11.8 53.24 0.181 7.29 1.8 8.98
10/27/2020 8:15:00 PM 11.78 53.204 0.181 7.29 1.81 8.96
10/27/2020 8:30:00 PM 11.76 53.168 0.181 7.29 1.95 8.98
10/27/2020 8:45:00 PM 11.75 53.15 0.181 7.28 1.74 8.95
10/27/2020 9:00:00 PM 11.74 53.132 0.181 7.28 1.78 8.93
10/27/2020 9:15:00 PM 11.72 53.096 0.181 7.27 1.79 8.91
10/27/2020 9:30:00 PM 11.7 53.06 0.181 7.27 1.72 8.9
10/27/2020 9:45:00 PM 11.69 53.042 0.181 7.27 1.71 8.88
10/27/2020 10:00:00 PM 11.69 53.042 0.181 7.28 1.75 8.87
10/27/2020 10:15:00 PM 11.65 52.97 0.181 7.27 1.72 8.88
10/27/2020 10:30:00 PM 11.63 52.934 0.181 7.26 1.82 8.86
10/27/2020 10:45:00 PM 11.62 52.916 0.181 7.27 1.86 8.86
10/27/2020 11:00:00 PM 11.6 52.88 0.181 7.28 1.75 8.87
10/27/2020 11:15:00 PM 11.59 52.862 0.181 7.27 1.74 8.85
10/27/2020 11:30:00 PM 11.57 52.826 0.181 7.27 1.79 8.85
10/27/2020 11:45:00 PM 11.55 52.79 0.181 7.26 1.72 8.85
10/28/2020 12:00:00 AM 11.54 52.772 0.181 7.27 1.83 8.85
10/28/2020 12:15:00 AM 11.53 52.754 0.181 7.27 1.78 8.85
10/28/2020 12:30:00 AM 11.52 52.736 0.181 7.27 1.82 8.82
10/28/2020 12:45:00 AM 11.5 52.7 0.181 7.27 2.14 8.84
10/28/2020 1:00:00 AM 11.49 52.682 0.181 7.27 1.7 8.82
10/28/2020 1:15:00 AM 11.47 52.646 0.181 7.26 1.74 8.84
10/28/2020 1:30:00 AM 11.47 52.646 0.181 7.27 1.74 8.84
10/28/2020 1:45:00 AM 11.46 52.628 0.181 7.26 1.71 8.82
10/28/2020 2:00:00 AM 11.45 52.61 0.181 7.26 1.73 8.8
10/28/2020 2:15:00 AM 11.45 52.61 0.181 7.26 1.8 8.77
10/28/2020 2:30:00 AM 11.43 52.574 0.181 7.26 1.71 8.8
10/28/2020 2:45:00 AM 11.42 52.556 0.181 7.26 1.95 8.81
10/28/2020 3:00:00 AM 11.41 52.538 0.181 7.27 1.76 8.81
10/28/2020 3:15:00 AM 11.4 52.52 0.181 7.27 1.76 8.81
10/28/2020 3:30:00 AM 11.39 52.502 0.181 7.26 1.73 8.82
10/28/2020 3:45:00 AM 11.38 52.484 0.181 7.27 1.77 8.8
10/28/2020 4:00:00 AM 11.38 52.484 0.181 7.27 1.72 8.78
10/28/2020 4:15:00 AM 11.36 52.448 0.181 7.27 1.73 8.81
10/28/2020 4:30:00 AM 11.35 52.43 0.181 7.27 1.73 8.84
10/28/2020 4:45:00 AM 11.34 52.412 0.181 7.27 1.73 8.86
10/28/2020 5:00:00 AM 11.32 52.376 0.181 7.27 1.8 8.83
10/28/2020 5:15:00 AM 11.32 52.376 0.181 7.27 1.68 8.84
10/28/2020 5:30:00 AM 11.31 52.358 0.181 7.27 1.73 8.83
10/28/2020 5:45:00 AM 11.3 52.34 0.181 7.27 1.78 8.83
10/28/2020 6:00:00 AM 11.29 52.322 0.181 7.27 1.67 8.83
10/28/2020 6:15:00 AM 11.28 52.304 0.181 7.27 1.8 8.84
10/28/2020 6:30:00 AM 11.27 52.286 0.18 7.27 1.76 8.85
10/28/2020 6:45:00 AM 11.24 52.232 0.18 7.27 1.81 8.9
10/28/2020 7:00:00 AM 11.23 52.214 0.18 7.27 1.85 8.89
10/28/2020 7:15:00 AM 11.22 52.196 0.18 7.26 1.8 8.88
10/28/2020 7:30:00 AM 11.21 52.178 0.18 7.27 2.59 8.85
10/28/2020 7:45:00 AM 11.21 52.178 0.18 7.27 1.79 8.87
10/28/2020 8:00:00 AM 11.19 52.142 0.18 7.28 1.92 8.91
10/28/2020 8:15:00 AM 11.19 52.142 0.18 7.27 1.88 8.88
10/28/2020 8:30:00 AM 11.18 52.124 0.18 7.28 1.85 8.9
10/28/2020 8:45:00 AM 11.17 52.106 0.18 7.28 1.93 8.88
10/28/2020 9:00:00 AM 11.16 52.088 0.18 7.27 1.79 8.93
10/28/2020 9:15:00 AM 11.16 52.088 0.18 7.28 1.89 8.91
10/28/2020 9:30:00 AM 11.15 52.07 0.18 7.29 1.91 8.95
10/28/2020 9:45:00 AM 11.15 52.07 0.181 7.28 2.03 8.95
10/28/2020 10:00:00 AM 11.16 52.088 0.181 7.29 1.93 8.92
10/28/2020 10:15:00 AM 11.18 52.124 0.181 7.29 1.98 9.01
10/28/2020 10:30:00 AM 11.22 52.196 0.18 7.3 1.88 9.24
10/28/2020 10:45:00 AM 11.25 52.25 0.18 7.31 1.9 9.4
10/28/2020 11:00:00 AM 11.28 52.304 0.18 7.31 1.83 9.41
10/28/2020 11:15:00 AM 11.3 52.34 0.18 7.32 1.89 9.52
10/28/2020 11:30:00 AM 11.34 52.412 0.18 7.33 2.05 9.6
10/28/2020 11:45:00 AM 11.38 52.484 0.18 7.34 1.92 9.68
10/28/2020 12:00:00 PM 11.42 52.556 0.18 7.34 2.01 9.74
10/28/2020 12:15:00 PM 11.46 52.628 0.18 7.35 1.99 9.84
10/28/2020 12:30:00 PM 11.5 52.7 0.18 7.36 1.97 9.9
10/28/2020 12:45:00 PM 11.52 52.736 0.18 7.35 1.95 9.89
10/28/2020 1:00:00 PM 11.57 52.826 0.18 7.37 1.94 9.92
10/28/2020 1:15:00 PM 11.59 52.862 0.18 7.36 1.92 9.92
10/28/2020 1:30:00 PM 11.62 52.916 0.18 7.37 1.88 9.97
10/28/2020 1:45:00 PM 11.67 53.006 0.18 7.37 1.8 9.96
10/28/2020 2:00:00 PM 11.69 53.042 0.18 7.36 1.97 9.98
10/28/2020 2:15:00 PM 11.71 53.078 0.18 7.37 1.85 9.99
10/28/2020 2:30:00 PM 11.76 53.168 0.18 7.38 1.91 10.04
10/28/2020 2:45:00 PM 11.76 53.168 0.18 7.37 1.89 10.02
10/28/2020 3:00:00 PM 11.76 53.168 0.18 7.37 1.92 9.95
10/28/2020 3:15:00 PM 11.75 53.15 0.18 7.36 1.98 9.9
10/28/2020 3:30:00 PM 11.76 53.168 0.18 7.35 1.88 9.87
10/28/2020 3:45:00 PM 11.76 53.168 0.18 7.36 1.86 9.87
10/28/2020 4:00:00 PM 11.75 53.15 0.18 7.36 2 9.86
10/28/2020 4:15:00 PM 11.74 53.132 0.18 7.36 1.88 9.8
10/28/2020 4:30:00 PM 11.74 53.132 0.18 7.36 1.9 9.77
10/28/2020 4:45:00 PM 11.73 53.114 0.18 7.35 1.84 9.74
10/28/2020 5:00:00 PM 11.73 53.114 0.18 7.35 1.95 9.75
10/28/2020 5:15:00 PM 11.72 53.096 0.18 7.35 1.98 9.76
10/28/2020 5:30:00 PM 11.7 53.06 0.18 7.36 2 9.77
10/28/2020 5:45:00 PM 11.68 53.024 0.18 7.36 1.93 9.79
10/28/2020 6:00:00 PM 11.66 52.988 0.18 7.36 1.93 9.77
10/28/2020 6:15:00 PM 11.62 52.916 0.18 7.35 1.95 9.69
10/28/2020 6:30:00 PM 11.59 52.862 0.18 7.35 1.96 9.65
10/28/2020 6:45:00 PM 11.54 52.772 0.18 7.34 1.92 9.59
10/28/2020 7:00:00 PM 11.49 52.682 0.18 7.34 1.9 9.51
10/28/2020 7:15:00 PM 11.45 52.61 0.18 7.34 1.89 9.47
10/28/2020 7:30:00 PM 11.41 52.538 0.18 7.34 1.92 9.45
10/28/2020 7:45:00 PM 11.37 52.466 0.18 7.33 1.86 9.41
10/28/2020 8:00:00 PM 11.34 52.412 0.18 7.33 1.86 9.4
10/28/2020 8:15:00 PM 11.3 52.34 0.18 7.32 1.9 9.39
10/28/2020 8:30:00 PM 11.27 52.286 0.18 7.33 2.21 9.38
10/28/2020 8:45:00 PM 11.23 52.214 0.18 7.31 1.92 9.38
10/28/2020 9:00:00 PM 11.19 52.142 0.18 7.32 1.89 9.37
10/28/2020 9:15:00 PM 11.14 52.052 0.18 7.32 2.01 9.36
10/28/2020 9:30:00 PM 11.11 51.998 0.18 7.31 1.88 9.36
10/28/2020 9:45:00 PM 11.09 51.962 0.18 7.32 2.13 9.35
10/28/2020 10:00:00 PM 11.05 51.89 0.18 7.31 1.95 9.35
10/28/2020 10:15:00 PM 11.03 51.854 0.18 7.31 1.9 9.34
10/28/2020 10:30:00 PM 10.98 51.764 0.18 7.31 1.84 9.36
10/28/2020 10:45:00 PM 10.96 51.728 0.18 7.32 2.08 9.38
10/28/2020 11:00:00 PM 10.94 51.692 0.18 7.31 1.98 9.38
10/28/2020 11:15:00 PM 10.9 51.62 0.18 7.32 2.37 9.37
10/28/2020 11:30:00 PM 10.86 51.548 0.181 7.31 2.59 9.4
10/28/2020 11:45:00 PM 10.83 51.494 0.181 7.32 2.2 9.41
10/29/2020 12:00:00 AM 10.81 51.458 0.181 7.32 2.11 9.42
10/29/2020 12:15:00 AM 10.79 51.422 0.181 7.32 2.02 9.4
10/29/2020 12:30:00 AM 10.76 51.368 0.181 7.32 2.02 9.4
10/29/2020 12:45:00 AM 10.75 51.35 0.181 7.33 1.89 9.41
10/29/2020 1:00:00 AM 10.73 51.314 0.181 7.32 1.97 9.4
10/29/2020 1:15:00 AM 10.72 51.296 0.181 7.32 1.93 9.4
10/29/2020 1:30:00 AM 10.71 51.278 0.181 7.32 1.88 9.4
10/29/2020 1:45:00 AM 10.67 51.206 0.181 7.33 1.94 9.4
10/29/2020 2:00:00 AM 10.66 51.188 0.181 7.33 2.11 9.41
10/29/2020 2:15:00 AM 10.64 51.152 0.181 7.33 2.14 9.43
10/29/2020 2:30:00 AM 10.64 51.152 0.181 7.32 1.89 9.43
10/29/2020 2:45:00 AM 10.62 51.116 0.181 7.33 1.87 9.43
10/29/2020 3:00:00 AM 10.6 51.08 0.181 7.33 2.03 9.45
10/29/2020 3:15:00 AM 10.59 51.062 0.181 7.33 1.99 9.45
10/29/2020 3:30:00 AM 10.58 51.044 0.181 7.32 2.06 9.43
10/29/2020 3:45:00 AM 10.57 51.026 0.181 7.32 1.94 9.42
10/29/2020 4:00:00 AM 10.56 51.008 0.181 7.32 1.94 9.45
10/29/2020 4:15:00 AM 10.54 50.972 0.181 7.32 1.96 9.45
10/29/2020 4:30:00 AM 10.54 50.972 0.181 7.32 1.91 9.44
10/29/2020 4:45:00 AM 10.54 50.972 0.181 7.32 1.92 9.44
10/29/2020 5:00:00 AM 10.51 50.918 0.181 7.33 2.03 9.45
10/29/2020 5:15:00 AM 10.51 50.918 0.181 7.33 1.95 9.44
10/29/2020 5:30:00 AM 10.51 50.918 0.181 7.33 1.96 9.43
10/29/2020 5:45:00 AM 10.52 50.936 0.181 7.33 1.94 9.42
10/29/2020 6:00:00 AM 10.51 50.918 0.18 7.33 1.93 9.41
10/29/2020 6:15:00 AM 10.51 50.918 0.18 7.31 1.93 9.41
10/29/2020 6:30:00 AM 10.5 50.9 0.18 7.32 1.94 9.41
10/29/2020 6:45:00 AM 10.5 50.9 0.18 7.33 1.92 9.41
10/29/2020 7:00:00 AM 10.5 50.9 0.18 7.31 1.95 9.41
10/29/2020 7:15:00 AM 10.49 50.882 0.18 7.33 2.04 9.39
10/29/2020 7:30:00 AM 10.49 50.882 0.18 7.33 1.95 9.4
10/29/2020 7:45:00 AM 10.48 50.864 0.18 7.32 2.01 9.41
10/29/2020 8:00:00 AM 10.48 50.864 0.18 7.32 1.99 9.41
10/29/2020 8:15:00 AM 10.47 50.846 0.18 7.32 1.98 9.41
10/29/2020 8:30:00 AM 10.47 50.846 0.18 7.32 1.95 9.43
10/29/2020 8:45:00 AM 10.46 50.828 0.179 7.33 1.96 9.44
10/29/2020 9:00:00 AM 10.44 50.792 0.179 7.33 2.03 9.48
10/29/2020 9:15:00 AM 10.43 50.774 0.178 7.34 1.96 9.51
10/29/2020 9:30:00 AM 10.4 50.72 0.177 7.35 2.05 9.66
10/29/2020 9:45:00 AM 10.39 50.702 0.177 7.35 2.33 9.71
10/29/2020 10:00:00 AM 10.37 50.666 0.177 7.35 3.07 9.76
10/29/2020 10:15:00 AM 10.36 50.648 0.176 7.36 2.62 9.8
10/29/2020 10:30:00 AM 10.31 50.558 0.176 7.38 2.66 9.93
10/29/2020 10:45:00 AM 10.31 50.558 0.176 7.38 3.16 9.95
10/29/2020 11:00:00 AM 10.29 50.522 0.176 7.4 3.85 10.03
10/29/2020 11:15:00 AM 10.28 50.504 0.176 7.41 3.74 10.14
10/29/2020 11:30:00 AM 10.27 50.486 0.176 7.42 4.1 10.21
10/29/2020 11:45:00 AM 10.26 50.468 0.176 7.43 4.69 10.24
10/29/2020 12:00:00 PM 10.25 50.45 0.176 7.45 5.33 10.31
10/29/2020 12:15:00 PM 10.23 50.414 0.176 7.45 4.7 10.39
10/29/2020 12:30:00 PM 10.23 50.414 0.176 7.47 5.68 10.43
10/29/2020 12:45:00 PM 10.22 50.396 0.176 7.48 5.42 10.47
10/29/2020 1:00:00 PM 10.22 50.396 0.175 7.49 6.04 10.55
10/29/2020 1:15:00 PM 10.22 50.396 0.174 7.51 6.7 10.63
10/29/2020 1:30:00 PM 10.25 50.45 0.176 7.52 8.89 10.65
10/29/2020 1:45:00 PM 10.26 50.468 0.175 7.52 8.98 10.66
10/29/2020 2:00:00 PM 10.27 50.486 0.174 7.52 9.41 10.68
10/29/2020 2:15:00 PM 10.28 50.504 0.174 7.51 10.36 10.66
10/29/2020 2:30:00 PM 10.3 50.54 0.174 7.52 10.56 10.69
10/29/2020 2:45:00 PM 10.32 50.576 0.173 7.52 10.31 10.73
10/29/2020 3:00:00 PM 10.35 50.63 0.173 7.52 12.19 10.73
10/29/2020 3:15:00 PM 10.36 50.648 0.172 7.52 11.62 10.73
10/29/2020 3:30:00 PM 10.35 50.63 0.172 7.53 11.2 10.74
10/29/2020 3:45:00 PM 10.34 50.612 0.171 7.53 11.84 10.72
10/29/2020 4:00:00 PM 10.33 50.594 0.171 7.55 11.92 10.72
10/29/2020 4:15:00 PM 10.31 50.558 0.17 7.55 11.7 10.73
10/29/2020 4:30:00 PM 10.3 50.54 0.17 7.55 12.77 10.73
10/29/2020 4:45:00 PM 10.3 50.54 0.17 7.55 13.39 10.7
10/29/2020 5:00:00 PM 10.28 50.504 0.169 7.54 10.79 10.72
10/29/2020 5:15:00 PM 10.26 50.468 0.169 7.54 12.64 10.73
10/29/2020 5:30:00 PM 10.23 50.414 0.168 7.56 13.34 10.74
10/29/2020 5:45:00 PM 10.2 50.36 0.169 7.57 12.58 10.8
10/29/2020 6:00:00 PM 10.18 50.324 0.169 7.58 13.63 10.8
10/29/2020 6:15:00 PM 10.14 50.252 0.168 7.58 14.34 10.84
10/29/2020 6:30:00 PM 10.1 50.18 0.167 7.58 15.1 10.85
10/29/2020 6:45:00 PM 10.07 50.126 0.166 7.58 14.95 10.85
10/29/2020 7:00:00 PM 10.03 50.054 0.166 7.57 15.98 10.87
10/29/2020 7:15:00 PM 10 50 0.165 7.56 16.89 10.88
10/29/2020 7:30:00 PM 9.98 49.964 0.165 7.55 20.69 10.9
10/29/2020 7:45:00 PM 9.96 49.928 0.164 7.56 16.3 10.93
10/29/2020 8:00:00 PM 9.96 49.928 0.164 7.55 17.48 10.93
10/29/2020 8:15:00 PM 9.97 49.946 0.164 7.57 19.4 10.94
10/29/2020 8:30:00 PM 9.99 49.982 0.165 7.56 16.06 10.94
10/29/2020 8:45:00 PM 10 50 0.165 7.56 15.62 10.96
10/29/2020 9:00:00 PM 10.02 50.036 0.165 7.57 15.78 10.97
10/29/2020 9:15:00 PM 10.05 50.09 0.166 7.59 17.33 10.98
10/29/2020 9:30:00 PM 10.08 50.144 0.166 7.58 16.97 10.98
10/29/2020 9:45:00 PM 10.11 50.198 0.167 7.57 16.33 10.98
10/29/2020 10:00:00 PM 10.13 50.234 0.168 7.59 18.31 10.99
10/29/2020 10:15:00 PM 10.14 50.252 0.169 7.58 15.15 10.99
10/29/2020 10:30:00 PM 10.15 50.27 0.169 7.59 14.77 10.99
10/29/2020 10:45:00 PM 10.14 50.252 0.169 7.58 15.38 11
10/29/2020 11:00:00 PM 10.14 50.252 0.17 7.58 14.33 10.99
10/29/2020 11:15:00 PM 10.12 50.216 0.17 7.58 14.42 11
10/29/2020 11:30:00 PM 10.11 50.198 0.17 7.58 15.15 10.99
10/29/2020 11:45:00 PM 10.1 50.18 0.17 7.58 16.5 11
10/30/2020 12:00:00 AM 10.1 50.18 0.17 7.55 14.08 10.99
10/30/2020 12:15:00 AM 10.08 50.144 0.17 7.57 14.21 11
10/30/2020 12:30:00 AM 10.07 50.126 0.17 7.57 12.98 11
10/30/2020 12:45:00 AM 10.05 50.09 0.171 7.58 12.38 11.01
10/30/2020 1:00:00 AM 10.02 50.036 0.171 7.57 13.55 11.02
10/30/2020 1:15:00 AM 9.99 49.982 0.171 7.57 13.5 11.04
10/30/2020 1:30:00 AM 9.96 49.928 0.171 7.57 12.03 11.06
10/30/2020 1:45:00 AM 9.92 49.856 0.171 7.56 12.26 11.06
10/30/2020 2:00:00 AM 9.89 49.802 0.172 7.56 11.83 11.09
10/30/2020 2:15:00 AM 9.84 49.712 0.172 7.58 12.24 11.11
10/30/2020 2:30:00 AM 9.81 49.658 0.172 7.56 11.68 11.11
10/30/2020 2:45:00 AM 9.77 49.586 0.173 7.58 11.75 11.14
10/30/2020 3:00:00 AM 9.71 49.478 0.173 7.58 11.37 11.18
10/30/2020 3:15:00 AM 9.67 49.406 0.173 7.55 12.26 11.2
10/30/2020 3:30:00 AM 9.64 49.352 0.173 7.58 11.82 11.21
10/30/2020 3:45:00 AM 9.6 49.28 0.173 7.57 11.52 11.23
10/30/2020 4:00:00 AM 9.56 49.208 0.172 7.57 11.04 11.25
10/30/2020 4:15:00 AM 9.53 49.154 0.172 7.56 11.39 11.25
10/30/2020 4:30:00 AM 9.49 49.082 0.171 7.56 11.37 11.27
10/30/2020 4:45:00 AM 9.45 49.01 0.171 7.56 12.41 11.29
10/30/2020 5:00:00 AM 9.42 48.956 0.17 7.57 11.32 11.29
10/30/2020 5:15:00 AM 9.37 48.866 0.169 7.58 12.26 11.33
10/30/2020 5:30:00 AM 9.33 48.794 0.169 7.56 12.38 11.33
10/30/2020 5:45:00 AM 9.28 48.704 0.168 7.56 11.84 11.36
10/30/2020 6:00:00 AM 9.24 48.632 0.167 7.56 11.41 11.37
10/30/2020 6:15:00 AM 9.15 48.47 0.166 7.55 11.17 11.39
10/30/2020 6:30:00 AM 9.07 48.326 0.165 7.55 11.16 11.4
10/30/2020 6:45:00 AM 8.96 48.128 0.164 7.54 11.37 11.42
10/30/2020 7:00:00 AM 8.88 47.984 0.163 7.53 11.97 11.45
10/30/2020 7:15:00 AM 8.82 47.876 0.163 7.55 12.25 11.46
10/30/2020 7:30:00 AM 8.78 47.804 0.162 7.54 11.93 11.49
10/30/2020 7:45:00 AM 8.75 47.75 0.162 7.52 11.88 11.52
10/30/2020 8:00:00 AM 8.75 47.75 0.162 7.53 11.92 11.52
10/30/2020 8:15:00 AM 8.75 47.75 0.161 7.53 11.73 11.53
10/30/2020 8:30:00 AM 8.72 47.696 0.161 7.53 12.69 11.56
10/30/2020 8:45:00 AM 8.72 47.696 0.161 7.55 10.68 11.58
10/30/2020 9:00:00 AM 8.71 47.678 0.161 7.54 11.16 11.59
10/30/2020 9:15:00 AM 8.71 47.678 0.161 7.53 11.98 11.6
10/30/2020 9:30:00 AM 8.71 47.678 0.16 7.53 10.38 11.63
10/30/2020 9:45:00 AM 8.73 47.714 0.16 7.54 11.92 11.64
10/30/2020 10:00:00 AM 8.75 47.75 0.16 7.52 10.05 11.64
10/30/2020 10:15:00 AM 8.76 47.768 0.16 7.53 12.6 11.68
10/30/2020 10:30:00 AM 8.8 47.84 0.16 7.55 11.93 11.68
10/30/2020 10:45:00 AM 8.85 47.93 0.16 7.54 13.59 11.69
10/30/2020 11:00:00 AM 8.89 48.002 0.16 7.54 12 11.7
10/30/2020 11:15:00 AM 8.93 48.074 0.16 7.55 13.07 11.71
10/30/2020 11:30:00 AM 8.96 48.128 0.16 7.53 12.74 11.72
10/30/2020 11:45:00 AM 8.96 48.128 0.16 7.53 12.21 11.73
10/30/2020 12:00:00 PM 9 48.2 0.16 7.54 13.08 11.74
10/30/2020 12:15:00 PM 9 48.2 0.16 7.54 12.24 11.75
10/30/2020 12:30:00 PM 9 48.2 0.16 7.55 12.17 11.73
10/30/2020 12:45:00 PM 8.98 48.164 0.16 7.55 11.67 11.72
10/30/2020 1:00:00 PM 8.97 48.146 0.16 7.55 12.33 11.73
10/30/2020 1:15:00 PM 8.94 48.092 0.161 7.55 12.35 11.72
10/30/2020 1:30:00 PM 8.9 48.02 0.161 7.53 13.48 11.71
10/30/2020 1:45:00 PM 8.88 47.984 0.161 7.53 12.2 11.71
10/30/2020 2:00:00 PM 8.84 47.912 0.161 7.55 12.64 11.74
10/30/2020 2:15:00 PM 8.81 47.858 0.161 7.54 25.59 11.77
10/30/2020 2:30:00 PM 8.79 47.822 0.162 7.55 32.93 11.82
10/30/2020 2:45:00 PM 8.77 47.786 0.162 7.53 31.54 11.8
10/30/2020 3:00:00 PM 8.76 47.768 0.163 7.52 25.83 11.83
10/30/2020 3:15:00 PM 8.78 47.804 0.164 7.49 21.08 11.8
10/30/2020 3:30:00 PM 8.78 47.804 0.165 7.49 21.52 11.78
10/30/2020 3:45:00 PM 8.73 47.714 0.166 7.47 17.93 11.83
10/30/2020 4:00:00 PM 8.75 47.75 0.168 7.47 15.5 11.79
10/30/2020 4:15:00 PM 8.72 47.696 0.169 7.49 13.22 11.79
10/30/2020 4:30:00 PM 8.68 47.624 0.17 7.49 11.73 11.79
10/30/2020 4:45:00 PM 8.66 47.588 0.17 7.48 12.24 11.8
10/30/2020 5:00:00 PM 8.63 47.534 0.171 7.49 10.7 11.81
10/30/2020 5:15:00 PM 8.62 47.516 0.172 7.47 9.73 11.79
10/30/2020 5:30:00 PM 8.6 47.48 0.172 7.47 9.7 11.82
10/30/2020 5:45:00 PM 8.57 47.426 0.172 7.48 9.29 11.82
10/30/2020 6:00:00 PM 8.54 47.372 0.173 7.46 8.75 11.82
10/30/2020 6:15:00 PM 8.5 47.3 0.173 7.48 8.77 11.83
10/30/2020 6:30:00 PM 8.46 47.228 0.173 7.47 8.41 11.83
10/30/2020 6:45:00 PM 8.41 47.138 0.173 7.46 8.91 11.83
10/30/2020 7:00:00 PM 8.37 47.066 0.173 7.46 8.86 11.85
10/30/2020 7:15:00 PM 8.32 46.976 0.173 7.47 8.83 11.85
10/30/2020 7:30:00 PM 8.26 46.868 0.173 7.48 7.68 11.91
10/30/2020 7:45:00 PM 8.21 46.778 0.173 7.46 8.02 11.88
10/30/2020 8:00:00 PM 8.16 46.688 0.172 7.45 8.42 11.9
10/30/2020 8:15:00 PM 8.11 46.598 0.172 7.46 8.46 11.93
10/30/2020 8:30:00 PM 8.07 46.526 0.172 7.45 7.87 11.93
10/30/2020 8:45:00 PM 8.02 46.436 0.172 7.45 8.34 11.96
10/30/2020 9:00:00 PM 7.97 46.346 0.171 7.46 7.69 11.99
10/30/2020 9:15:00 PM 7.94 46.292 0.171 7.46 8.71 11.99
10/30/2020 9:30:00 PM 7.92 46.256 0.171 7.46 7.75 11.98
10/30/2020 9:45:00 PM 7.88 46.184 0.17 7.47 7.99 12
10/30/2020 10:00:00 PM 7.87 46.166 0.17 7.46 8.05 12.01
10/30/2020 10:15:00 PM 7.85 46.13 0.17 7.48 8.3 12.02
10/30/2020 10:30:00 PM 7.82 46.076 0.17 7.46 8.51 12.05
10/30/2020 10:45:00 PM 7.8 46.04 0.17 7.46 8.18 12.04
10/30/2020 11:00:00 PM 7.78 46.004 0.17 7.46 7.92 12.05
10/30/2020 11:15:00 PM 7.77 45.986 0.17 7.46 7.4 12.06
10/30/2020 11:30:00 PM 7.75 45.95 0.17 7.47 7.74 12.07
10/30/2020 11:45:00 PM 7.74 45.932 0.17 7.47 7.4 12.09
10/31/2020 12:00:00 AM 7.73 45.914 0.17 7.46 7.85 12.08
10/31/2020 12:15:00 AM 7.71 45.878 0.17 7.45 7.67 12.08
10/31/2020 12:30:00 AM 7.7 45.86 0.17 7.46 8.32 12.09
10/31/2020 12:45:00 AM 7.7 45.86 0.17 7.46 8.11 12.09
10/31/2020 1:00:00 AM 7.67 45.806 0.17 7.46 7.1 12.1
10/31/2020 1:15:00 AM 7.66 45.788 0.17 7.46 7.54 12.09
10/31/2020 1:30:00 AM 7.63 45.734 0.17 7.47 7.84 12.11
10/31/2020 1:45:00 AM 7.61 45.698 0.17 7.47 7.52 12.12
10/31/2020 2:00:00 AM 7.59 45.662 0.17 7.47 7.2 12.13
10/31/2020 2:15:00 AM 7.57 45.626 0.17 7.46 7.49 12.13
10/31/2020 2:30:00 AM 7.56 45.608 0.17 7.46 8.07 12.12
10/31/2020 2:45:00 AM 7.54 45.572 0.17 7.46 7.67 12.14
10/31/2020 3:00:00 AM 7.53 45.554 0.17 7.45 7.17 12.14
10/31/2020 3:15:00 AM 7.51 45.518 0.171 7.46 7.5 12.15
10/31/2020 3:30:00 AM 7.5 45.5 0.171 7.46 7.34 12.14
10/31/2020 3:45:00 AM 7.48 45.464 0.171 7.46 7.02 12.15
10/31/2020 4:00:00 AM 7.47 45.446 0.171 7.47 7.15 12.16
10/31/2020 4:15:00 AM 7.46 45.428 0.171 7.46 6.84 12.16
10/31/2020 4:30:00 AM 7.43 45.374 0.171 7.46 6.8 12.17
10/31/2020 4:45:00 AM 7.41 45.338 0.171 7.46 7.28 12.18
10/31/2020 5:00:00 AM 7.4 45.32 0.171 7.45 7.27 12.18
10/31/2020 5:15:00 AM 7.37 45.266 0.172 7.47 6.61 12.18
10/31/2020 5:30:00 AM 7.32 45.176 0.172 7.47 7.15 12.19
10/31/2020 5:45:00 AM 7.29 45.122 0.172 7.46 7.03 12.19
10/31/2020 6:00:00 AM 7.26 45.068 0.172 7.46 6.6 12.2
10/31/2020 6:15:00 AM 7.24 45.032 0.172 7.45 6.58 12.21
10/31/2020 6:30:00 AM 7.22 44.996 0.172 7.45 6.59 12.21
10/31/2020 6:45:00 AM 7.19 44.942 0.172 7.45 6.35 12.22
10/31/2020 7:00:00 AM 7.16 44.888 0.172 7.46 6.4 12.23
10/31/2020 7:15:00 AM 7.12 44.816 0.173 7.45 6.38 12.24
10/31/2020 7:30:00 AM 7.11 44.798 0.173 7.45 6.61 12.24
10/31/2020 7:45:00 AM 7.08 44.744 0.173 7.45 6.69 12.26
10/31/2020 8:00:00 AM 7.06 44.708 0.173 7.45 6.5 12.28
10/31/2020 8:15:00 AM 7.04 44.672 0.173 7.45 6.02 12.28
10/31/2020 8:30:00 AM 7.01 44.618 0.173 7.45 6.38 12.31
10/31/2020 8:45:00 AM 6.99 44.582 0.173 7.45 6.31 12.32
10/31/2020 9:00:00 AM 6.97 44.546 0.173 7.45 6.15 12.33
10/31/2020 9:15:00 AM 6.96 44.528 0.173 7.45 5.93 12.36
10/31/2020 9:30:00 AM 6.98 44.564 0.173 7.45 5.91 12.39
10/31/2020 9:45:00 AM 7.01 44.618 0.173 7.45 6.2 12.41
10/31/2020 10:00:00 AM 7.06 44.708 0.173 7.47 5.89 12.43
10/31/2020 10:15:00 AM 7.12 44.816 0.173 7.46 5.82 12.44
10/31/2020 10:30:00 AM 7.2 44.96 0.173 7.46 5.95 12.43
10/31/2020 10:45:00 AM 7.28 45.104 0.173 7.47 5.59 12.44
10/31/2020 11:00:00 AM 7.31 45.158 0.173 7.47 5.62 12.42
10/31/2020 11:15:00 AM 7.36 45.248 0.173 7.48 5.71 12.43
10/31/2020 11:30:00 AM 7.39 45.302 0.173 7.47 5.7 12.43
10/31/2020 11:45:00 AM 7.41 45.338 0.173 7.48 5.97 12.44
10/31/2020 12:00:00 PM 7.45 45.41 0.173 7.48 5.51 12.43
10/31/2020 12:15:00 PM 7.48 45.464 0.173 7.48 5.81 12.44
10/31/2020 12:30:00 PM 7.53 45.554 0.173 7.49 5.62 12.43
10/31/2020 12:45:00 PM 7.58 45.644 0.173 7.48 5.37 12.43
10/31/2020 1:00:00 PM 7.72 45.896 0.173 7.47 5.77 12.43
10/31/2020 1:15:00 PM 7.83 46.094 0.173 7.48 5.43 12.42
10/31/2020 1:30:00 PM 7.83 46.094 0.172 7.49 5.51 12.38
10/31/2020 1:45:00 PM 7.81 46.058 0.172 7.49 5.4 12.39
10/31/2020 2:00:00 PM 7.84 46.112 0.172 7.49 5.46 12.37
10/31/2020 2:15:00 PM 7.94 46.292 0.172 7.49 5.21 12.35
10/31/2020 2:30:00 PM 7.96 46.328 0.172 7.49 5.47 12.33
10/31/2020 2:45:00 PM 7.97 46.346 0.172 7.49 5.82 12.33
10/31/2020 3:00:00 PM 8.01 46.418 0.172 7.48 5.4 12.28
10/31/2020 3:15:00 PM 8.05 46.49 0.172 7.48 5.25 12.26
10/31/2020 3:30:00 PM 8.06 46.508 0.172 7.49 5.31 12.24
10/31/2020 3:45:00 PM 8.06 46.508 0.172 7.51 5.21 12.22
10/31/2020 4:00:00 PM 8.05 46.49 0.172 7.49 5.24 12.19
10/31/2020 4:15:00 PM 8.02 46.436 0.172 7.48 5.43 12.18
10/31/2020 4:30:00 PM 7.98 46.364 0.172 7.47 5.23 12.18
10/31/2020 4:45:00 PM 7.93 46.274 0.172 7.47 5.4 12.16
10/31/2020 5:00:00 PM 7.86 46.148 0.172 7.46 5.59 12.15
10/31/2020 5:15:00 PM 7.8 46.04 0.172 7.45 5.5 12.14
10/31/2020 5:30:00 PM 7.74 45.932 0.171 7.45 5.36 12.14
10/31/2020 5:45:00 PM 7.69 45.842 0.171 7.44 5.45 12.12
10/31/2020 6:00:00 PM 7.63 45.734 0.171 7.44 5.36 12.12
10/31/2020 6:15:00 PM 7.58 45.644 0.171 7.42 5.38 12.1
10/31/2020 6:30:00 PM 7.53 45.554 0.171 7.43 5.27 12.09
10/31/2020 6:45:00 PM 7.51 45.518 0.171 7.42 5.43 12.08
10/31/2020 7:00:00 PM 7.47 45.446 0.171 7.42 5.47 12.08
10/31/2020 7:15:00 PM 7.44 45.392 0.171 7.41 5.31 12.08
10/31/2020 7:30:00 PM 7.42 45.356 0.171 7.41 5.38 12.07
10/31/2020 7:45:00 PM 7.37 45.266 0.171 7.41 5.06 12.08
10/31/2020 8:00:00 PM 7.32 45.176 0.171 7.41 5.49 12.08
10/31/2020 8:15:00 PM 7.27 45.086 0.171 7.41 5.28 12.1
10/31/2020 8:30:00 PM 7.24 45.032 0.171 7.4 5.02 12.1
10/31/2020 8:45:00 PM 7.21 44.978 0.171 7.39 5.63 12.09
10/31/2020 9:00:00 PM 7.17 44.906 0.171 7.4 5.5 12.09
10/31/2020 9:15:00 PM 7.14 44.852 0.171 7.39 5.48 12.1
10/31/2020 9:30:00 PM 7.08 44.744 0.171 7.4 5.05 12.11
10/31/2020 9:45:00 PM 7.04 44.672 0.171 7.4 5.03 12.12
10/31/2020 10:00:00 PM 6.99 44.582 0.171 7.4 5.23 12.13
10/31/2020 10:15:00 PM 6.94 44.492 0.171 7.4 5.14 12.14
10/31/2020 10:30:00 PM 6.91 44.438 0.171 7.38 5.55 12.13
10/31/2020 10:45:00 PM 6.84 44.312 0.171 7.39 5.01 12.17
10/31/2020 11:00:00 PM 6.81 44.258 0.171 7.39 5 12.17
10/31/2020 11:15:00 PM 6.76 44.168 0.171 7.39 5.33 12.2
10/31/2020 11:30:00 PM 6.71 44.078 0.171 7.39 5.33 12.22
10/31/2020 11:45:00 PM 6.66 43.988 0.171 7.4 5.05 12.23
11/1/2020 12:00:00 AM 6.65 43.97 0.171 7.38 5.14 12.21
11/1/2020 12:15:00 AM 6.59 43.862 0.171 7.39 5.04 12.24
11/1/2020 12:30:00 AM 6.54 43.772 0.171 7.39 5.08 12.25
11/1/2020 12:45:00 AM 6.49 43.682 0.171 7.39 5.03 12.27
11/1/2020 1:00:00 AM 6.44 43.592 0.171 7.38 4.97 12.28
11/1/2020 1:15:00 AM 6.4 43.52 0.171 7.4 5.32 12.3
11/1/2020 1:30:00 AM 6.38 43.484 0.171 7.4 5.19 12.29
11/1/2020 1:45:00 AM 6.34 43.412 0.171 7.39 5.13 12.31
11/1/2020 2:00:00 AM 6.31 43.358 0.171 7.39 4.99 12.32
11/1/2020 2:15:00 AM 6.32 43.376 0.171 7.39 5.18 12.31
11/1/2020 2:30:00 AM 6.3 43.34 0.171 7.39 5.02 12.33
11/1/2020 2:45:00 AM 6.31 43.358 0.171 7.39 5.08 12.31
11/1/2020 3:00:00 AM 6.3 43.34 0.171 7.39 4.86 12.33
11/1/2020 3:15:00 AM 6.33 43.394 0.171 7.38 4.77 12.31
11/1/2020 3:30:00 AM 6.33 43.394 0.171 7.38 5.41 12.32
11/1/2020 3:45:00 AM 6.36 43.448 0.171 7.38 5.26 12.31
11/1/2020 4:00:00 AM 6.36 43.448 0.171 7.4 5.06 12.3
11/1/2020 4:15:00 AM 6.39 43.502 0.171 7.39 5.37 12.28
11/1/2020 4:30:00 AM 6.4 43.52 0.171 7.39 4.93 12.3
11/1/2020 4:45:00 AM 6.41 43.538 0.171 7.38 5.16 12.28
11/1/2020 5:00:00 AM 6.42 43.556 0.171 7.4 5.1 12.29
11/1/2020 5:15:00 AM 6.46 43.628 0.171 7.39 5.02 12.25
11/1/2020 5:30:00 AM 6.47 43.646 0.171 7.4 4.78 12.24
11/1/2020 5:45:00 AM 6.5 43.7 0.171 7.39 5.38 12.24
11/1/2020 6:00:00 AM 6.52 43.736 0.171 7.39 5.12 12.23
11/1/2020 6:15:00 AM 6.52 43.736 0.171 7.4 4.91 12.22
11/1/2020 6:30:00 AM 6.55 43.79 0.171 7.4 4.73 12.21
11/1/2020 6:45:00 AM 6.57 43.826 0.171 7.4 4.88 12.2
11/1/2020 7:00:00 AM 6.6 43.88 0.171 7.4 5.17 12.18
11/1/2020 7:15:00 AM 6.63 43.934 0.171 7.4 5.06 12.16
11/1/2020 7:30:00 AM 6.64 43.952 0.171 7.4 4.87 12.16
11/1/2020 7:45:00 AM 6.65 43.97 0.172 7.41 4.72 12.16
11/1/2020 8:00:00 AM 6.69 44.042 0.172 7.39 4.81 12.14
11/1/2020 8:15:00 AM 6.7 44.06 0.172 7.41 4.68 12.14
11/1/2020 8:30:00 AM 6.74 44.132 0.172 7.4 4.93 12.12
11/1/2020 8:45:00 AM 6.78 44.204 0.172 7.41 4.86 12.13
11/1/2020 9:00:00 AM 6.81 44.258 0.172 7.41 4.67 12.11
11/1/2020 9:15:00 AM 6.83 44.294 0.172 7.42 4.98 12.13
11/1/2020 9:30:00 AM 6.87 44.366 0.172 7.42 4.73 12.11
11/1/2020 9:45:00 AM 6.89 44.402 0.172 7.41 4.62 12.11
11/1/2020 10:00:00 AM 6.93 44.474 0.172 7.43 4.62 12.11
11/1/2020 10:15:00 AM 6.97 44.546 0.172 7.41 4.72 12.1
11/1/2020 10:30:00 AM 7.02 44.636 0.172 7.42 4.87 12.11
11/1/2020 10:45:00 AM 7.08 44.744 0.172 7.43 4.52 12.14
11/1/2020 11:00:00 AM 7.15 44.87 0.172 7.43 4.77 12.15
11/1/2020 11:15:00 AM 7.21 44.978 0.172 7.44 4.58 12.14
11/1/2020 11:30:00 AM 7.27 45.086 0.172 7.45 4.62 12.14
11/1/2020 11:45:00 AM 7.31 45.158 0.172 7.45 4.63 12.12
11/1/2020 12:00:00 PM 7.35 45.23 0.172 7.45 4.65 12.1
11/1/2020 12:15:00 PM 7.37 45.266 0.172 7.44 4.61 12.09
11/1/2020 12:30:00 PM 7.4 45.32 0.172 7.45 4.67 12.09
11/1/2020 12:45:00 PM 7.45 45.41 0.172 7.45 4.59 12.08
11/1/2020 1:00:00 PM 7.49 45.482 0.172 7.45 4.74 12.07
11/1/2020 1:15:00 PM 7.54 45.572 0.172 7.46 4.91 12.07
11/1/2020 1:30:00 PM 7.56 45.608 0.172 7.46 4.63 12.06
11/1/2020 1:45:00 PM 7.58 45.644 0.172 7.46 4.63 12.05
11/1/2020 2:00:00 PM 7.61 45.698 0.171 7.45 4.59 12.01
11/1/2020 2:15:00 PM 7.61 45.698 0.171 7.46 4.59 12.01
11/1/2020 2:30:00 PM 7.65 45.77 0.171 7.45 4.72 12
11/1/2020 2:45:00 PM 7.7 45.86 0.171 7.45 4.52 11.99
11/1/2020 3:00:00 PM 7.76 45.968 0.171 7.47 4.51 12.02
11/1/2020 3:15:00 PM 7.81 46.058 0.171 7.47 4.49 12.01
11/1/2020 3:30:00 PM 7.85 46.13 0.171 7.47 4.45 11.98
11/1/2020 3:45:00 PM 7.87 46.166 0.171 7.47 4.67 11.95
11/1/2020 4:00:00 PM 7.89 46.202 0.171 7.46 4.47 11.92
11/1/2020 4:15:00 PM 7.9 46.22 0.171 7.45 4.6 11.9
11/1/2020 4:30:00 PM 7.91 46.238 0.171 7.46 4.49 11.9
11/1/2020 4:45:00 PM 7.9 46.22 0.171 7.45 4.58 11.86
11/1/2020 5:00:00 PM 7.91 46.238 0.171 7.45 4.89 11.83
11/1/2020 5:15:00 PM 7.89 46.202 0.171 7.45 4.72 11.81
11/1/2020 5:30:00 PM 7.88 46.184 0.171 7.45 4.46 11.78
11/1/2020 5:45:00 PM 7.86 46.148 0.172 7.45 4.65 11.78
11/1/2020 6:00:00 PM 7.82 46.076 0.172 7.44 4.4 11.77
11/1/2020 6:15:00 PM 7.78 46.004 0.172 7.44 4.69 11.76
11/1/2020 6:30:00 PM 7.74 45.932 0.172 7.44 4.7 11.74
11/1/2020 6:45:00 PM 7.73 45.914 0.172 7.43 4.81 11.7
11/1/2020 7:00:00 PM 7.73 45.914 0.172 7.41 4.81 11.67
11/1/2020 7:15:00 PM 7.68 45.824 0.172 7.43 4.44 11.72
11/1/2020 7:30:00 PM 7.63 45.734 0.172 7.43 4.43 11.71
11/1/2020 7:45:00 PM 7.61 45.698 0.172 7.42 4.9 11.7
11/1/2020 8:00:00 PM 7.57 45.626 0.172 7.42 4.67 11.69
11/1/2020 8:15:00 PM 7.53 45.554 0.172 7.41 4.65 11.69
11/1/2020 8:30:00 PM 7.48 45.464 0.172 7.39 4.56 11.7
11/1/2020 8:45:00 PM 7.43 45.374 0.172 7.41 4.74 11.71
11/1/2020 9:00:00 PM 7.37 45.266 0.172 7.41 4.56 11.71
11/1/2020 9:15:00 PM 7.33 45.194 0.172 7.41 4.81 11.72
11/1/2020 9:30:00 PM 7.28 45.104 0.173 7.4 4.8 11.73
11/1/2020 9:45:00 PM 7.22 44.996 0.173 7.41 4.88 11.74
11/1/2020 10:00:00 PM 7.19 44.942 0.173 7.4 4.52 11.75
11/1/2020 10:15:00 PM 7.14 44.852 0.173 7.4 4.61 11.78
11/1/2020 10:30:00 PM 7.14 44.852 0.173 7.4 4.88 11.75
11/1/2020 10:45:00 PM 7.1 44.78 0.173 7.4 4.79 11.77
11/1/2020 11:00:00 PM 7.06 44.708 0.173 7.4 4.67 11.79
11/1/2020 11:15:00 PM 6.98 44.564 0.173 7.41 4.51 11.81
11/1/2020 11:30:00 PM 6.9 44.42 0.173 7.41 4.69 11.81
11/1/2020 11:45:00 PM 6.84 44.312 0.173 7.41 4.45 11.84
11/2/2020 12:00:00 AM 6.76 44.168 0.173 7.41 4.61 11.87
11/2/2020 12:15:00 AM 6.72 44.096 0.173 7.41 4.45 11.88
11/2/2020 12:30:00 AM 6.67 44.006 0.173 7.4 4.52 11.86
11/2/2020 12:45:00 AM 6.61 43.898 0.173 7.41 4.48 11.9
11/2/2020 1:00:00 AM 6.58 43.844 0.174 7.4 4.58 11.91
11/2/2020 1:15:00 AM 6.53 43.754 0.174 7.39 4.46 11.92
11/2/2020 1:30:00 AM 6.47 43.646 0.174 7.4 4.59 11.94
11/2/2020 1:45:00 AM 6.45 43.61 0.174 7.41 4.62 11.93
11/2/2020 2:00:00 AM 6.43 43.574 0.174 7.4 4.43 11.94
11/2/2020 2:15:00 AM 6.41 43.538 0.174 7.4 4.63 11.96
11/2/2020 2:30:00 AM 6.39 43.502 0.174 7.41 4.6 11.96
11/2/2020 2:45:00 AM 6.38 43.484 0.174 7.39 4.46 11.96
11/2/2020 3:00:00 AM 6.33 43.394 0.174 7.4 4.44 11.99
11/2/2020 3:15:00 AM 6.29 43.322 0.174 7.4 4.51 11.99
11/2/2020 3:30:00 AM 6.28 43.304 0.174 7.4 4.54 11.98
11/2/2020 3:45:00 AM 6.25 43.25 0.174 7.41 4.65 12
11/2/2020 4:00:00 AM 6.22 43.196 0.174 7.41 4.52 12.01
11/2/2020 4:15:00 AM 6.19 43.142 0.174 7.41 4.56 12.02
11/2/2020 4:30:00 AM 6.18 43.124 0.175 7.4 4.51 12.03
11/2/2020 4:45:00 AM 6.15 43.07 0.175 7.4 4.52 12.05
11/2/2020 5:00:00 AM 6.12 43.016 0.175 7.41 4.56 12.05
11/2/2020 5:15:00 AM 6.08 42.944 0.175 7.41 4.61 12.06
11/2/2020 5:30:00 AM 6.05 42.89 0.175 7.4 4.39 12.07
11/2/2020 5:45:00 AM 6.02 42.836 0.175 7.41 4.56 12.06
11/2/2020 6:00:00 AM 5.97 42.746 0.175 7.41 4.41 12.11
11/2/2020 6:15:00 AM 5.95 42.71 0.175 7.41 4.33 12.11
11/2/2020 6:30:00 AM 5.92 42.656 0.175 7.4 4.44 12.11
11/2/2020 6:45:00 AM 5.86 42.548 0.175 7.4 4.51 12.15
11/2/2020 7:00:00 AM 5.82 42.476 0.175 7.41 4.44 12.14
11/2/2020 7:15:00 AM 5.79 42.422 0.175 7.4 4.39 12.19
11/2/2020 7:30:00 AM 5.76 42.368 0.175 7.4 4.49 12.17
11/2/2020 7:45:00 AM 5.72 42.296 0.175 7.41 4.45 12.2
11/2/2020 8:00:00 AM 5.69 42.242 0.175 7.41 4.75 12.2
11/2/2020 8:15:00 AM 5.65 42.17 0.175 7.42 4.41 12.23
11/2/2020 8:30:00 AM 5.61 42.098 0.175 7.42 4.71 12.28
11/2/2020 8:45:00 AM 5.58 42.044 0.175 7.42 4.58 12.31
11/2/2020 9:00:00 AM 5.52 41.936 0.175 7.41 4.34 12.35
11/2/2020 9:15:00 AM 5.47 41.846 0.175 7.43 4.46 12.4
11/2/2020 9:30:00 AM 5.5 41.9 0.175 7.43 4.48 12.45
11/2/2020 9:45:00 AM 5.53 41.954 0.175 7.43 4.32 12.46
11/2/2020 10:00:00 AM 5.52 41.936 0.175 7.44 4.31 12.5
11/2/2020 10:15:00 AM 5.55 41.99 0.175 7.44 4.39 12.53
11/2/2020 10:30:00 AM 5.58 42.044 0.175 7.44 4.36 12.55
11/2/2020 10:45:00 AM 5.59 42.062 0.175 7.44 4.36 12.59
11/2/2020 11:00:00 AM 5.62 42.116 0.175 7.46 4.49 12.61
11/2/2020 11:15:00 AM 5.65 42.17 0.175 7.46 4.37 12.63
11/2/2020 11:30:00 AM 5.7 42.26 0.175 7.47 7.19 12.64
11/2/2020 11:45:00 AM 5.77 42.386 0.175 7.46 4.38 12.66
11/2/2020 12:00:00 PM 5.86 42.548 0.175 7.48 4.34 12.68
11/2/2020 12:15:00 PM 5.99 42.782 0.175 7.48 4.31 12.7
11/2/2020 12:30:00 PM 6.1 42.98 0.175 7.48 4.27 12.67
11/2/2020 12:45:00 PM 6.2 43.16 0.175 7.48 4.34 12.64
11/2/2020 1:00:00 PM 6.33 43.394 0.175 7.5 4.31 12.65
11/2/2020 2:00:00 PM 6.69 44.042 0.174 7.5 5.79 12.55
11/2/2020 2:15:00 PM 6.68 44.024 0.174 7.51 4.34 12.54
11/2/2020 2:30:00 PM 6.67 44.006 0.174 7.5 4.32 12.49
11/2/2020 2:45:00 PM 6.64 43.952 0.175 7.5 4.32 12.5
11/2/2020 3:00:00 PM 6.62 43.916 0.175 7.5 4.29 12.49
11/2/2020 3:15:00 PM 6.54 43.772 0.175 7.49 4.23 12.45
11/2/2020 3:30:00 PM 6.49 43.682 0.175 7.48 4.33 12.44
11/2/2020 3:45:00 PM 6.44 43.592 0.175 7.48 4.25 12.42
11/2/2020 4:00:00 PM 6.4 43.52 0.175 7.49 4.23 12.42
11/2/2020 4:15:00 PM 6.37 43.466 0.175 7.48 4.31 12.41
11/2/2020 4:30:00 PM 6.3 43.34 0.175 7.46 4.34 12.37
11/2/2020 4:45:00 PM 6.26 43.268 0.175 7.46 4.24 12.34
11/2/2020 5:00:00 PM 6.22 43.196 0.175 7.45 4.28 12.32
11/2/2020 5:15:00 PM 6.15 43.07 0.175 7.45 4.26 12.31
11/2/2020 5:30:00 PM 6.14 43.052 0.175 7.44 4.25 12.28
11/2/2020 5:45:00 PM 6.1 42.98 0.175 7.44 4.31 12.27
11/2/2020 6:00:00 PM 6.06 42.908 0.175 7.45 4.24 12.27
11/2/2020 6:15:00 PM 6.03 42.854 0.175 7.43 4.28 12.25
11/2/2020 6:30:00 PM 6.01 42.818 0.175 7.44 4.26 12.25
11/2/2020 6:45:00 PM 5.97 42.746 0.175 7.43 4.28 12.25
11/2/2020 7:00:00 PM 5.95 42.71 0.175 7.43 4.42 12.24
11/2/2020 7:15:00 PM 5.92 42.656 0.175 7.43 4.49 12.23
11/2/2020 7:30:00 PM 5.88 42.584 0.175 7.43 4.38 12.24
11/2/2020 7:45:00 PM 5.88 42.584 0.175 7.41 4.37 12.23
11/2/2020 8:00:00 PM 5.84 42.512 0.175 7.43 4.48 12.23
11/2/2020 8:15:00 PM 5.81 42.458 0.175 7.42 4.28 12.23
11/2/2020 8:30:00 PM 5.8 42.44 0.175 7.41 4.34 12.22
11/2/2020 8:45:00 PM 5.75 42.35 0.175 7.42 4.28 12.21
11/2/2020 9:00:00 PM 5.72 42.296 0.175 7.43 4.65 12.26
11/2/2020 9:15:00 PM 5.73 42.314 0.175 7.41 4.28 12.24
11/2/2020 9:30:00 PM 5.72 42.296 0.175 7.42 4.29 12.22
11/2/2020 9:45:00 PM 5.74 42.332 0.175 7.42 4.31 12.22
11/2/2020 10:00:00 PM 5.74 42.332 0.175 7.41 4.56 12.19
11/2/2020 10:15:00 PM 5.71 42.278 0.175 7.4 4.66 12.21
11/2/2020 10:30:00 PM 5.7 42.26 0.175 7.41 4.46 12.21
11/2/2020 10:45:00 PM 5.66 42.188 0.175 7.4 4.45 12.22
11/2/2020 11:00:00 PM 5.65 42.17 0.175 7.41 4.37 12.2
11/2/2020 11:15:00 PM 5.67 42.206 0.175 7.4 4.31 12.19
11/2/2020 11:30:00 PM 5.63 42.134 0.175 7.41 4.32 12.22
11/2/2020 11:45:00 PM 5.64 42.152 0.175 7.41 4.37 12.2
11/3/2020 12:00:00 AM 5.63 42.134 0.175 7.42 4.35 12.22
11/3/2020 12:15:00 AM 5.63 42.134 0.175 7.42 4.37 12.23
11/3/2020 12:30:00 AM 5.64 42.152 0.175 7.41 4.33 12.22
11/3/2020 12:45:00 AM 5.61 42.098 0.175 7.43 4.32 12.22
11/3/2020 1:00:00 AM 5.59 42.062 0.175 7.43 4.43 12.24
11/3/2020 1:15:00 AM 5.59 42.062 0.175 7.42 4.32 12.22
11/3/2020 1:30:00 AM 5.59 42.062 0.175 7.42 4.37 12.21
11/3/2020 1:45:00 AM 5.58 42.044 0.175 7.42 4.46 12.22
11/3/2020 2:00:00 AM 5.55 41.99 0.175 7.42 4.3 12.23
11/3/2020 2:15:00 AM 5.55 41.99 0.175 7.41 4.41 12.24
11/3/2020 2:30:00 AM 5.52 41.936 0.175 7.41 4.53 12.25
11/3/2020 2:45:00 AM 5.51 41.918 0.175 7.41 4.64 12.26
11/3/2020 3:00:00 AM 5.49 41.882 0.175 7.42 4.38 12.26
11/3/2020 3:15:00 AM 5.48 41.864 0.175 7.42 4.39 12.27
11/3/2020 3:30:00 AM 5.49 41.882 0.176 7.41 4.48 12.25
11/3/2020 3:45:00 AM 5.47 41.846 0.176 7.41 4.31 12.26
11/3/2020 4:00:00 AM 5.45 41.81 0.176 7.42 4.31 12.28
11/3/2020 4:15:00 AM 5.42 41.756 0.176 7.41 4.4 12.29
11/3/2020 4:30:00 AM 5.41 41.738 0.176 7.41 4.58 12.28
11/3/2020 4:45:00 AM 5.42 41.756 0.176 7.41 4.38 12.28
11/3/2020 5:00:00 AM 5.39 41.702 0.176 7.41 4.28 12.32
11/3/2020 5:15:00 AM 5.39 41.702 0.176 7.42 4.31 12.3
11/3/2020 5:30:00 AM 5.39 41.702 0.176 7.41 4.24 12.3
11/3/2020 5:45:00 AM 5.38 41.684 0.176 7.41 4.41 12.32
11/3/2020 6:00:00 AM 5.4 41.72 0.176 7.42 4.49 12.31
11/3/2020 6:15:00 AM 5.39 41.702 0.176 7.42 4.37 12.33
11/3/2020 6:30:00 AM 5.41 41.738 0.176 7.42 4.38 12.32
11/3/2020 6:45:00 AM 5.41 41.738 0.176 7.42 4.3 12.34
11/3/2020 7:00:00 AM 5.41 41.738 0.176 7.42 4.4 12.36
11/3/2020 7:15:00 AM 5.45 41.81 0.176 7.41 4.34 12.32
11/3/2020 7:30:00 AM 5.45 41.81 0.176 7.42 4.38 12.39
11/3/2020 7:45:00 AM 5.47 41.846 0.176 7.43 4.23 12.4
11/3/2020 8:00:00 AM 5.51 41.918 0.176 7.43 4.23 12.43
11/3/2020 8:15:00 AM 5.53 41.954 0.176 7.43 4.26 12.49
11/3/2020 8:30:00 AM 5.58 42.044 0.176 7.44 4.24 12.51
11/3/2020 8:45:00 AM 5.62 42.116 0.176 7.44 4.27 12.48
11/3/2020 9:00:00 AM 5.64 42.152 0.176 7.45 4.4 12.54
11/3/2020 9:15:00 AM 5.7 42.26 0.176 7.46 4.24 12.57
11/3/2020 9:30:00 AM 5.74 42.332 0.176 7.47 4.45 12.59
11/3/2020 9:45:00 AM 5.78 42.404 0.176 7.47 4.2 12.58
11/3/2020 10:00:00 AM 5.83 42.494 0.176 7.46 4.25 12.58
11/3/2020 10:15:00 AM 5.87 42.566 0.176 7.47 4.31 12.61
11/3/2020 10:30:00 AM 5.93 42.674 0.176 7.47 4.35 12.59
11/3/2020 10:45:00 AM 6 42.8 0.176 7.48 4.15 12.67
11/3/2020 11:00:00 AM 6.07 42.926 0.176 7.49 4.3 12.64
11/3/2020 11:15:00 AM 6.13 43.034 0.176 7.49 4.24 12.66
11/3/2020 11:30:00 AM 6.19 43.142 0.176 7.5 4.21 12.67
11/3/2020 11:45:00 AM 6.32 43.376 0.176 7.5 4.24 12.68
11/3/2020 12:00:00 PM 6.46 43.628 0.176 7.52 4.23 12.69
11/3/2020 12:15:00 PM 6.6 43.88 0.176 7.51 4.14 12.65
11/3/2020 12:30:00 PM 6.71 44.078 0.176 7.52 4.14 12.64
11/3/2020 12:45:00 PM 6.82 44.276 0.176 7.53 4.12 12.63
11/3/2020 1:00:00 PM 6.87 44.366 0.176 7.53 4.17 12.64
11/3/2020 1:15:00 PM 6.87 44.366 0.176 7.53 4.28 12.59
11/3/2020 1:30:00 PM 6.88 44.384 0.176 7.52 4.16 12.56
11/3/2020 1:45:00 PM 6.89 44.402 0.176 7.53 4.31 12.54
11/3/2020 2:00:00 PM 6.9 44.42 0.176 7.53 4.12 12.54
11/3/2020 2:15:00 PM 6.92 44.456 0.176 7.52 4.11 12.51
11/3/2020 2:30:00 PM 6.94 44.492 0.176 7.52 4.27 12.54
11/3/2020 2:45:00 PM 7.01 44.618 0.176 7.51 4.17 12.51
11/3/2020 3:00:00 PM 7.09 44.762 0.176 7.52 4.14 12.55
11/3/2020 3:15:00 PM 7.08 44.744 0.176 7.51 4.11 12.5
11/3/2020 3:30:00 PM 7.06 44.708 0.176 7.5 4.31 12.44
11/3/2020 3:45:00 PM 7.06 44.708 0.176 7.51 4.07 12.47
11/3/2020 4:00:00 PM 7.04 44.672 0.177 7.49 4.33 12.41
11/3/2020 4:15:00 PM 7.04 44.672 0.177 7.51 4.04 12.39
11/3/2020 4:30:00 PM 7.03 44.654 0.177 7.5 4.07 12.35
11/3/2020 4:45:00 PM 6.98 44.564 0.177 7.49 4.25 12.3
11/3/2020 5:00:00 PM 6.97 44.546 0.177 7.48 4.08 12.25
11/3/2020 5:15:00 PM 6.9 44.42 0.177 7.47 4.12 12.23
11/3/2020 5:30:00 PM 6.86 44.348 0.177 7.47 4.09 12.18
11/3/2020 5:45:00 PM 6.8 44.24 0.177 7.46 4.23 12.16
11/3/2020 6:00:00 PM 6.75 44.15 0.177 7.46 4.07 12.15
11/3/2020 6:15:00 PM 6.69 44.042 0.177 7.44 4.18 12.13
11/3/2020 6:30:00 PM 6.65 43.97 0.177 7.44 4.16 12.13
11/3/2020 6:45:00 PM 6.59 43.862 0.178 7.45 4.43 12.13
11/3/2020 7:00:00 PM 6.56 43.808 0.178 7.43 4.2 12.11
11/3/2020 7:15:00 PM 6.5 43.7 0.178 7.43 4.24 12.11
11/3/2020 7:30:00 PM 6.47 43.646 0.178 7.42 4.31 12.1
11/3/2020 7:45:00 PM 6.41 43.538 0.178 7.43 4.04 12.1
11/3/2020 8:00:00 PM 6.35 43.43 0.178 7.43 4.06 12.12
11/3/2020 8:15:00 PM 6.32 43.376 0.178 7.42 4.12 12.1
11/3/2020 8:30:00 PM 6.29 43.322 0.178 7.41 4.08 12.09
11/3/2020 8:45:00 PM 6.24 43.232 0.178 7.42 4.17 12.12
11/3/2020 9:00:00 PM 6.22 43.196 0.178 7.41 4.02 12.1
11/3/2020 9:15:00 PM 6.18 43.124 0.178 7.41 4.04 12.1
11/3/2020 9:30:00 PM 6.13 43.034 0.178 7.41 4.18 12.11
11/3/2020 9:45:00 PM 6.06 42.908 0.178 7.43 4.12 12.16
11/3/2020 10:00:00 PM 6.03 42.854 0.178 7.42 4.31 12.15
11/3/2020 10:15:00 PM 6.02 42.836 0.178 7.41 4.11 12.14
11/3/2020 10:30:00 PM 5.97 42.746 0.179 7.42 4.09 12.17
11/3/2020 10:45:00 PM 5.94 42.692 0.179 7.41 4.08 12.16
11/3/2020 11:00:00 PM 5.89 42.602 0.179 7.41 4.34 12.17
11/3/2020 11:15:00 PM 5.89 42.602 0.179 7.4 4.05 12.16
11/3/2020 11:30:00 PM 5.84 42.512 0.179 7.4 4.05 12.19
11/3/2020 11:45:00 PM 5.8 42.44 0.179 7.41 4.16 12.18
11/4/2020 12:00:00 AM 5.76 42.368 0.179 7.4 4.19 12.21
11/4/2020 12:15:00 AM 5.73 42.314 0.179 7.4 4.15 12.2
11/4/2020 12:30:00 AM 5.69 42.242 0.179 7.4 4.07 12.23
11/4/2020 12:45:00 AM 5.68 42.224 0.179 7.4 4.14 12.22
11/4/2020 1:00:00 AM 5.63 42.134 0.179 7.4 4.02 12.24
11/4/2020 1:15:00 AM 5.59 42.062 0.179 7.4 4.06 12.27
11/4/2020 1:30:00 AM 5.58 42.044 0.179 7.38 4.1 12.26
11/4/2020 1:45:00 AM 5.55 41.99 0.179 7.4 4.05 12.25
11/4/2020 2:00:00 AM 5.52 41.936 0.179 7.4 4.31 12.25
11/4/2020 2:15:00 AM 5.47 41.846 0.179 7.4 4 12.29
11/4/2020 2:30:00 AM 5.45 41.81 0.179 7.39 4.01 12.28
11/4/2020 2:45:00 AM 5.4 41.72 0.18 7.4 4.04 12.32
11/4/2020 3:00:00 AM 5.4 41.72 0.18 7.39 4.01 12.3
11/4/2020 3:15:00 AM 5.34 41.612 0.18 7.39 4.01 12.32
11/4/2020 3:30:00 AM 5.31 41.558 0.18 7.4 4.02 12.33
11/4/2020 3:45:00 AM 5.27 41.486 0.18 7.4 3.98 12.34
11/4/2020 4:00:00 AM 5.23 41.414 0.18 7.4 4.12 12.37
11/4/2020 4:15:00 AM 5.19 41.342 0.18 7.4 4.08 12.37
11/4/2020 4:30:00 AM 5.14 41.252 0.18 7.4 4.03 12.41
11/4/2020 4:45:00 AM 5.11 41.198 0.18 7.4 4.04 12.43
11/4/2020 5:00:00 AM 5.08 41.144 0.18 7.39 4.03 12.44
11/4/2020 5:15:00 AM 5.05 41.09 0.18 7.39 4.07 12.44
11/4/2020 5:30:00 AM 5 41 0.18 7.4 3.98 12.47
11/4/2020 5:45:00 AM 4.98 40.964 0.18 7.4 4.1 12.47
11/4/2020 6:00:00 AM 4.94 40.892 0.18 7.39 4.07 12.48
11/4/2020 6:15:00 AM 4.91 40.838 0.18 7.39 4 12.5
11/4/2020 6:30:00 AM 4.87 40.766 0.18 7.39 4.06 12.51
11/4/2020 6:45:00 AM 4.83 40.694 0.18 7.39 3.98 12.54
11/4/2020 7:00:00 AM 4.8 40.64 0.18 7.39 4.03 12.55
11/4/2020 7:15:00 AM 4.78 40.604 0.18 7.39 4.09 12.56
11/4/2020 7:30:00 AM 4.75 40.55 0.18 7.39 4.04 12.6
11/4/2020 7:45:00 AM 4.73 40.514 0.18 7.41 4.07 12.64
11/4/2020 8:00:00 AM 4.73 40.514 0.18 7.39 4.07 12.67
11/4/2020 8:15:00 AM 4.71 40.478 0.18 7.4 4.03 12.72
11/4/2020 8:30:00 AM 4.75 40.55 0.18 7.4 4.01 12.74
11/4/2020 8:45:00 AM 4.79 40.622 0.18 7.4 3.94 12.78
11/4/2020 9:00:00 AM 4.84 40.712 0.18 7.41 4.03 12.81
11/4/2020 9:15:00 AM 4.88 40.784 0.18 7.41 3.97 12.84
11/4/2020 9:30:00 AM 4.98 40.964 0.18 7.42 4.05 12.85
11/4/2020 9:45:00 AM 5.08 41.144 0.18 7.43 3.89 12.86
11/4/2020 10:00:00 AM 5.17 41.306 0.18 7.43 3.93 12.86
11/4/2020 10:15:00 AM 5.25 41.45 0.18 7.43 3.88 12.88
11/4/2020 10:30:00 AM 5.51 41.918 0.18 7.44 3.92 12.85
11/4/2020 10:45:00 AM 5.72 42.296 0.18 7.45 3.91 12.87
11/4/2020 11:00:00 AM 5.87 42.566 0.18 7.47 3.9 12.87
11/4/2020 11:15:00 AM 6.09 42.962 0.18 7.48 3.84 12.88
11/4/2020 11:30:00 AM 6.29 43.322 0.18 7.5 3.95 12.84
11/4/2020 11:45:00 AM 6.55 43.79 0.18 7.51 3.81 12.79
11/4/2020 12:00:00 PM 6.72 44.096 0.18 7.5 3.89 12.77
11/4/2020 12:15:00 PM 6.92 44.456 0.18 7.51 3.89 12.77
11/4/2020 12:30:00 PM 7.09 44.762 0.18 7.5 3.85 12.7
11/4/2020 12:45:00 PM 7.26 45.068 0.18 7.5 3.92 12.67
11/4/2020 1:00:00 PM 7.35 45.23 0.18 7.52 3.93 12.69
11/4/2020 1:15:00 PM 7.45 45.41 0.18 7.49 3.93 12.64
11/4/2020 1:30:00 PM 7.54 45.572 0.18 7.49 3.79 12.59
11/4/2020 1:45:00 PM 7.61 45.698 0.18 7.49 3.81 12.58
11/4/2020 2:00:00 PM 7.63 45.734 0.18 7.5 3.8 12.56
11/4/2020 2:15:00 PM 7.67 45.806 0.18 7.48 3.87 12.5
11/4/2020 2:30:00 PM 7.72 45.896 0.18 7.49 3.85 12.5
11/4/2020 2:45:00 PM 7.74 45.932 0.18 7.48 3.9 12.44
11/4/2020 3:00:00 PM 7.78 46.004 0.18 7.48 3.83 12.39
11/4/2020 3:15:00 PM 7.79 46.022 0.18 7.48 3.92 12.36
11/4/2020 3:30:00 PM 7.81 46.058 0.18 7.48 3.88 12.31
11/4/2020 3:45:00 PM 7.8 46.04 0.18 7.48 3.87 12.27
11/4/2020 4:00:00 PM 7.79 46.022 0.18 7.48 3.94 12.23
11/4/2020 4:15:00 PM 7.76 45.968 0.18 7.46 3.79 12.17
11/4/2020 4:30:00 PM 7.73 45.914 0.18 7.46 3.82 12.12
11/4/2020 4:45:00 PM 7.67 45.806 0.18 7.45 3.87 12.08
11/4/2020 5:00:00 PM 7.62 45.716 0.18 7.44 3.83 12.07
11/4/2020 5:15:00 PM 7.54 45.572 0.18 7.45 3.84 12.03
11/4/2020 5:30:00 PM 7.48 45.464 0.18 7.43 3.84 11.99
11/4/2020 5:45:00 PM 7.41 45.338 0.181 7.43 3.81 11.98
11/4/2020 6:00:00 PM 7.33 45.194 0.181 7.42 3.9 11.95
11/4/2020 6:15:00 PM 7.28 45.104 0.181 7.4 3.95 11.94
11/4/2020 6:30:00 PM 7.2 44.96 0.181 7.41 3.98 11.93
11/4/2020 6:45:00 PM 7.14 44.852 0.181 7.4 3.86 11.93
11/4/2020 7:00:00 PM 7.07 44.726 0.181 7.4 3.95 11.92
11/4/2020 7:15:00 PM 6.99 44.582 0.181 7.39 3.87 11.93
11/4/2020 7:30:00 PM 6.96 44.528 0.181 7.39 3.82 11.92
11/4/2020 7:45:00 PM 6.91 44.438 0.181 7.39 3.86 11.92
11/4/2020 8:00:00 PM 6.86 44.348 0.181 7.39 3.79 11.91
11/4/2020 8:15:00 PM 6.78 44.204 0.181 7.4 3.89 11.95
11/4/2020 8:30:00 PM 6.74 44.132 0.181 7.38 3.98 11.93
11/4/2020 8:45:00 PM 6.7 44.06 0.181 7.38 3.82 11.93
11/4/2020 9:00:00 PM 6.66 43.988 0.181 7.39 3.96 11.93
11/4/2020 9:15:00 PM 6.63 43.934 0.181 7.38 4.48 11.94
11/4/2020 9:30:00 PM 6.59 43.862 0.181 7.38 3.86 11.95
11/4/2020 9:45:00 PM 6.55 43.79 0.181 7.38 3.84 11.98
11/4/2020 10:00:00 PM 6.54 43.772 0.181 7.37 3.78 11.95
11/4/2020 10:15:00 PM 6.49 43.682 0.181 7.39 3.97 11.97
11/4/2020 10:30:00 PM 6.5 43.7 0.181 7.37 3.95 11.96
11/4/2020 10:45:00 PM 6.48 43.664 0.181 7.38 3.91 11.96
11/4/2020 11:00:00 PM 6.47 43.646 0.181 7.38 3.87 11.96
11/4/2020 11:15:00 PM 6.46 43.628 0.182 7.38 3.91 11.95
11/4/2020 11:30:00 PM 6.44 43.592 0.182 7.39 3.8 11.96
11/4/2020 11:45:00 PM 6.46 43.628 0.182 7.38 3.91 11.92
11/5/2020 12:00:00 AM 6.46 43.628 0.182 7.38 3.88 11.93
11/5/2020 12:15:00 AM 6.46 43.628 0.182 7.38 3.81 11.93
11/5/2020 12:30:00 AM 6.45 43.61 0.182 7.38 3.74 11.91
11/5/2020 12:45:00 AM 6.47 43.646 0.182 7.37 3.82 11.9
11/5/2020 1:00:00 AM 6.49 43.682 0.182 7.37 3.78 11.88
11/5/2020 1:15:00 AM 6.47 43.646 0.182 7.37 3.7 11.88
11/5/2020 1:30:00 AM 6.47 43.646 0.182 7.37 3.77 11.85
11/5/2020 1:45:00 AM 6.47 43.646 0.182 7.36 3.65 11.86
11/5/2020 2:00:00 AM 6.46 43.628 0.182 7.36 3.72 11.84
11/5/2020 2:15:00 AM 6.45 43.61 0.182 7.36 3.69 11.82
11/5/2020 2:30:00 AM 6.45 43.61 0.182 7.36 3.73 11.78
11/5/2020 2:45:00 AM 6.44 43.592 0.182 7.34 3.74 11.78
11/5/2020 3:00:00 AM 6.43 43.574 0.182 7.35 3.63 11.76
11/5/2020 3:15:00 AM 6.4 43.52 0.182 7.35 3.65 11.79
11/5/2020 3:30:00 AM 6.4 43.52 0.182 7.34 3.74 11.75
11/5/2020 3:45:00 AM 6.38 43.484 0.182 7.35 3.65 11.74
11/5/2020 4:00:00 AM 6.36 43.448 0.182 7.35 3.71 11.74
11/5/2020 4:15:00 AM 6.35 43.43 0.182 7.33 3.65 11.74
11/5/2020 4:30:00 AM 6.34 43.412 0.182 7.33 3.62 11.72
11/5/2020 4:45:00 AM 6.32 43.376 0.182 7.34 3.61 11.72
11/5/2020 5:00:00 AM 6.31 43.358 0.182 7.33 3.62 11.71
11/5/2020 5:15:00 AM 6.28 43.304 0.182 7.33 3.64 11.72
11/5/2020 5:30:00 AM 6.26 43.268 0.182 7.33 3.56 11.72
11/5/2020 5:45:00 AM 6.23 43.214 0.182 7.34 3.67 11.74
11/5/2020 6:00:00 AM 6.2 43.16 0.182 7.33 3.73 11.75
11/5/2020 6:15:00 AM 6.21 43.178 0.182 7.32 3.59 11.73
11/5/2020 6:30:00 AM 6.2 43.16 0.182 7.31 3.62 11.71
11/5/2020 6:45:00 AM 6.17 43.106 0.182 7.32 3.6 11.72
11/5/2020 7:00:00 AM 6.16 43.088 0.182 7.32 4.09 11.71
11/5/2020 7:15:00 AM 6.15 43.07 0.182 7.31 3.64 11.71
11/5/2020 7:30:00 AM 6.13 43.034 0.182 7.32 3.52 11.74
11/5/2020 7:45:00 AM 6.14 43.052 0.182 7.31 3.57 11.76
11/5/2020 8:00:00 AM 6.17 43.106 0.182 7.31 3.56 11.76
11/5/2020 8:15:00 AM 6.17 43.106 0.182 7.32 3.55 11.78
11/5/2020 8:30:00 AM 6.19 43.142 0.182 7.33 3.48 11.84
11/5/2020 8:45:00 AM 6.24 43.232 0.182 7.33 3.42 11.86
11/5/2020 9:00:00 AM 6.31 43.358 0.182 7.33 3.54 11.95
11/5/2020 9:15:00 AM 6.37 43.466 0.182 7.33 3.66 11.98
11/5/2020 9:30:00 AM 6.43 43.574 0.182 7.34 3.47 12.03
11/5/2020 9:45:00 AM 6.52 43.736 0.182 7.36 3.47 12.07
11/5/2020 10:00:00 AM 6.56 43.808 0.182 7.37 3.45 12.1
11/5/2020 10:15:00 AM 6.77 44.186 0.182 7.37 3.37 12.13
11/5/2020 10:30:00 AM 6.95 44.51 0.182 7.39 3.46 12.16
11/5/2020 10:45:00 AM 7.22 44.996 0.182 7.4 3.4 12.16
11/5/2020 11:00:00 AM 7.44 45.392 0.182 7.42 3.52 12.14
11/5/2020 11:15:00 AM 7.68 45.824 0.182 7.42 3.5 12.17
11/5/2020 11:30:00 AM 7.83 46.094 0.182 7.43 3.48 12.18
11/5/2020 11:45:00 AM 8.12 46.616 0.182 7.45 3.59 12.2
11/5/2020 12:00:00 PM 8.26 46.868 0.182 7.46 3.45 12.17
11/5/2020 12:15:00 PM 8.42 47.156 0.182 7.46 3.5 12.19
11/5/2020 12:30:00 PM 8.54 47.372 0.182 7.46 3.47 12.21
11/5/2020 12:45:00 PM 8.64 47.552 0.182 7.5 3.53 12.26
11/5/2020 1:00:00 PM 8.76 47.768 0.182 7.49 3.58 12.22
11/5/2020 1:15:00 PM 8.84 47.912 0.182 7.5 3.55 12.27
11/5/2020 1:30:00 PM 8.9 48.02 0.182 7.51 3.52 12.25
11/5/2020 1:45:00 PM 8.98 48.164 0.182 7.51 3.62 12.26
11/5/2020 2:00:00 PM 8.98 48.164 0.182 7.51 3.54 12.24
11/5/2020 2:15:00 PM 8.98 48.164 0.182 7.51 3.6 12.26
11/5/2020 2:30:00 PM 9.01 48.218 0.182 7.51 3.68 12.21
11/5/2020 2:45:00 PM 8.99 48.182 0.182 7.51 3.62 12.19
11/5/2020 3:00:00 PM 8.98 48.164 0.182 7.5 3.96 12.14
11/5/2020 3:15:00 PM 9 48.2 0.182 7.5 3.68 12.1
11/5/2020 3:30:00 PM 9 48.2 0.182 7.49 3.64 12.07
11/5/2020 3:45:00 PM 9 48.2 0.182 7.5 3.67 12.04
11/5/2020 4:00:00 PM 8.98 48.164 0.182 7.49 4.1 11.98
11/5/2020 4:15:00 PM 8.96 48.128 0.182 7.48 3.75 11.91
11/5/2020 4:30:00 PM 8.95 48.11 0.182 7.47 3.73 11.82
11/5/2020 4:45:00 PM 8.88 47.984 0.182 7.46 3.76 11.75
11/5/2020 5:00:00 PM 8.83 47.894 0.182 7.45 3.8 11.69
11/5/2020 5:15:00 PM 8.77 47.786 0.182 7.43 3.88 11.63
11/5/2020 5:30:00 PM 8.7 47.66 0.182 7.42 3.79 11.59
11/5/2020 5:45:00 PM 8.65 47.57 0.182 7.43 11.12 11.55
11/5/2020 6:00:00 PM 8.57 47.426 0.182 7.41 3.88 11.54
11/5/2020 6:15:00 PM 8.5 47.3 0.182 7.41 3.85 11.53
11/5/2020 6:30:00 PM 8.44 47.192 0.182 7.41 4.08 11.51
11/5/2020 6:45:00 PM 8.35 47.03 0.182 7.4 4.12 11.51
11/5/2020 7:00:00 PM 8.29 46.922 0.182 7.4 4.05 11.5
11/5/2020 7:15:00 PM 8.23 46.814 0.182 7.4 4.39 11.49
11/5/2020 7:30:00 PM 8.15 46.67 0.182 7.39 3.85 11.49
11/5/2020 7:45:00 PM 8.09 46.562 0.182 7.39 3.8 11.48
11/5/2020 8:00:00 PM 8.02 46.436 0.183 7.38 3.81 11.5
11/5/2020 8:15:00 PM 7.93 46.274 0.183 7.39 3.76 11.52
11/5/2020 8:30:00 PM 7.88 46.184 0.183 7.38 3.79 11.5
11/5/2020 8:45:00 PM 7.81 46.058 0.183 7.38 4.05 11.52
11/5/2020 9:00:00 PM 7.77 45.986 0.183 7.37 4.11 11.51
11/5/2020 9:15:00 PM 7.72 45.896 0.183 7.37 4.67 11.51
11/5/2020 9:30:00 PM 7.67 45.806 0.183 7.37 4.03 11.51
11/5/2020 9:45:00 PM 7.61 45.698 0.183 7.36 3.82 11.5
11/5/2020 10:00:00 PM 7.58 45.644 0.183 7.36 6.04 11.49
11/5/2020 10:15:00 PM 7.54 45.572 0.183 7.36 5.81 11.5
11/5/2020 10:30:00 PM 7.49 45.482 0.183 7.36 3.83 11.53
11/5/2020 10:45:00 PM 7.47 45.446 0.182 7.36 5.38 11.52
11/5/2020 11:00:00 PM 7.45 45.41 0.183 7.36 4.25 11.48
11/5/2020 11:15:00 PM 7.43 45.374 0.182 7.35 4.13 11.49
11/5/2020 11:30:00 PM 7.41 45.338 0.182 7.35 3.67 11.51
11/5/2020 11:45:00 PM 7.39 45.302 0.182 7.35 3.73 11.51
11/6/2020 12:00:00 AM 7.38 45.284 0.182 7.34 3.65 11.5
11/6/2020 12:15:00 AM 7.37 45.266 0.182 7.35 3.63 11.48
11/6/2020 12:30:00 AM 7.36 45.248 0.182 7.34 3.63 11.47
11/6/2020 12:45:00 AM 7.35 45.23 0.182 7.34 3.51 11.47
11/6/2020 1:00:00 AM 7.34 45.212 0.182 7.34 3.57 11.48
11/6/2020 1:15:00 AM 7.32 45.176 0.182 7.34 3.86 11.47
11/6/2020 1:30:00 AM 7.32 45.176 0.182 7.34 4.14 11.46
11/6/2020 1:45:00 AM 7.3 45.14 0.182 7.34 4.56 11.5
11/6/2020 2:00:00 AM 7.3 45.14 0.182 7.34 3.84 11.47
11/6/2020 2:15:00 AM 7.3 45.14 0.182 7.32 3.6 11.48
11/6/2020 2:30:00 AM 7.28 45.104 0.182 7.33 3.55 11.45
11/6/2020 2:45:00 AM 7.26 45.068 0.182 7.33 3.48 11.46
11/6/2020 3:00:00 AM 7.25 45.05 0.182 7.33 3.67 11.46
11/6/2020 3:15:00 AM 7.25 45.05 0.182 7.33 3.61 11.4
11/6/2020 3:30:00 AM 7.24 45.032 0.182 7.33 3.68 11.41
11/6/2020 3:45:00 AM 7.25 45.05 0.182 7.33 3.54 11.42
11/6/2020 4:00:00 AM 7.24 45.032 0.182 7.32 3.57 11.41
11/6/2020 4:15:00 AM 7.21 44.978 0.182 7.33 3.47 11.42
11/6/2020 4:30:00 AM 7.19 44.942 0.182 7.33 3.55 11.44
11/6/2020 4:45:00 AM 7.17 44.906 0.182 7.32 3.85 11.45
11/6/2020 5:00:00 AM 7.15 44.87 0.182 7.32 3.71 11.44
11/6/2020 5:15:00 AM 7.12 44.816 0.182 7.33 3.64 11.44
11/6/2020 5:30:00 AM 7.1 44.78 0.182 7.32 3.86 11.43
11/6/2020 5:45:00 AM 7.07 44.726 0.182 7.33 3.54 11.45
11/6/2020 6:00:00 AM 7.03 44.654 0.182 7.33 3.6 11.44
11/6/2020 6:15:00 AM 7 44.6 0.183 7.33 4.7 11.47
11/6/2020 6:30:00 AM 6.95 44.51 0.183 7.33 3.49 11.47
11/6/2020 6:45:00 AM 6.92 44.456 0.183 7.33 3.46 11.44
11/6/2020 7:00:00 AM 6.89 44.402 0.183 7.33 3.47 11.48
11/6/2020 7:15:00 AM 6.86 44.348 0.183 7.33 3.43 11.5
11/6/2020 7:30:00 AM 6.86 44.348 0.183 7.33 3.47 11.5
11/6/2020 7:45:00 AM 6.83 44.294 0.183 7.33 3.54 11.54
11/6/2020 8:00:00 AM 6.82 44.276 0.183 7.34 3.43 11.6
11/6/2020 8:15:00 AM 6.82 44.276 0.183 7.35 3.52 11.67
11/6/2020 8:30:00 AM 6.82 44.276 0.183 7.35 3.38 11.77
11/6/2020 8:45:00 AM 6.88 44.384 0.182 7.35 3.52 11.78
11/6/2020 9:00:00 AM 6.92 44.456 0.182 7.35 3.48 11.87
11/6/2020 9:15:00 AM 6.94 44.492 0.182 7.37 3.36 11.97
11/6/2020 9:30:00 AM 7.01 44.618 0.182 7.37 3.36 12
11/6/2020 9:45:00 AM 7.12 44.816 0.182 7.37 3.42 11.96
11/6/2020 10:00:00 AM 7.17 44.906 0.182 7.4 3.9 12.09
11/6/2020 10:15:00 AM 7.33 45.194 0.182 7.39 3.65 12.05
11/6/2020 10:30:00 AM 7.46 45.428 0.182 7.4 3.47 12.07
11/6/2020 10:45:00 AM 7.75 45.95 0.182 7.41 3.4 12.1
11/6/2020 11:00:00 AM 8 46.4 0.182 7.44 3.34 12.12
11/6/2020 11:15:00 AM 8.21 46.778 0.182 7.44 3.36 12.09
11/6/2020 11:30:00 AM 8.41 47.138 0.182 7.46 3.39 12.13
11/6/2020 11:45:00 AM 8.65 47.57 0.182 7.47 3.37 12.1
11/6/2020 12:00:00 PM 8.83 47.894 0.182 7.49 3.42 12.13
11/6/2020 12:15:00 PM 8.98 48.164 0.182 7.5 3.33 12.11
11/6/2020 12:30:00 PM 9.18 48.524 0.182 7.52 6.02 12.15
11/6/2020 12:45:00 PM 9.32 48.776 0.182 7.51 3.85 12.13
11/6/2020 1:00:00 PM 9.44 48.992 0.182 7.5 3.43 12.1
11/6/2020 1:15:00 PM 9.52 49.136 0.182 7.52 3.38 12.11
11/6/2020 1:30:00 PM 9.55 49.19 0.182 7.51 4.99 12.1
11/6/2020 1:45:00 PM 9.64 49.352 0.181 7.51 3.44 12.09
11/6/2020 2:00:00 PM 9.63 49.334 0.181 7.5 4.57 12.05
11/6/2020 2:15:00 PM 9.64 49.352 0.181 7.49 3.49 12.02
11/6/2020 2:30:00 PM 9.68 49.424 0.181 7.5 4.37 12.01
11/6/2020 2:45:00 PM 9.65 49.37 0.181 7.49 3.44 11.96
11/6/2020 3:00:00 PM 9.63 49.334 0.181 7.49 3.63 11.95
11/6/2020 3:15:00 PM 9.63 49.334 0.181 7.48 3.51 11.89
11/6/2020 3:30:00 PM 9.61 49.298 0.181 7.48 3.5 11.86
11/6/2020 3:45:00 PM 9.6 49.28 0.181 7.47 3.44 11.8
11/6/2020 4:00:00 PM 9.57 49.226 0.181 7.47 3.94 11.73
11/6/2020 4:15:00 PM 9.55 49.19 0.181 7.44 3.51 11.67
11/6/2020 4:30:00 PM 9.5 49.1 0.181 7.45 3.41 11.61
11/6/2020 4:45:00 PM 9.47 49.046 0.182 7.43 3.5 11.54
11/6/2020 5:00:00 PM 9.43 48.974 0.182 7.43 3.56 11.49
11/6/2020 5:15:00 PM 9.36 48.848 0.182 7.42 3.53 11.39
11/6/2020 5:30:00 PM 9.31 48.758 0.182 7.41 9.18 11.34
11/6/2020 5:45:00 PM 9.25 48.65 0.182 7.4 3.75 11.29
11/6/2020 6:00:00 PM 9.18 48.524 0.182 7.4 3.82 11.24
11/6/2020 6:15:00 PM 9.12 48.416 0.182 7.4 4.15 11.22
11/6/2020 6:30:00 PM 9.08 48.344 0.182 7.38 3.66 11.18
11/6/2020 6:45:00 PM 9.02 48.236 0.182 7.38 3.46 11.19
11/6/2020 7:00:00 PM 8.96 48.128 0.182 7.38 3.52 11.17
11/6/2020 7:15:00 PM 8.9 48.02 0.182 7.38 3.58 11.16
11/6/2020 7:30:00 PM 8.84 47.912 0.182 7.37 3.73 11.15
11/6/2020 7:45:00 PM 8.78 47.804 0.182 7.37 3.39 11.16
11/6/2020 8:00:00 PM 8.73 47.714 0.182 7.37 4.01 11.15
11/6/2020 8:15:00 PM 8.67 47.606 0.182 7.36 3.43 11.13
11/6/2020 8:30:00 PM 8.62 47.516 0.182 7.36 3.47 11.14
11/6/2020 8:45:00 PM 8.56 47.408 0.182 7.36 3.53 11.14
11/6/2020 9:00:00 PM 8.5 47.3 0.182 7.35 3.47 11.14
11/6/2020 9:15:00 PM 8.44 47.192 0.182 7.35 3.44 11.14
11/6/2020 9:30:00 PM 8.39 47.102 0.182 7.36 3.47 11.15
11/6/2020 9:45:00 PM 8.35 47.03 0.182 7.36 3.41 11.15
11/6/2020 10:00:00 PM 8.29 46.922 0.182 7.35 3.62 11.13
11/6/2020 10:15:00 PM 8.25 46.85 0.182 7.36 4.39 11.1
11/6/2020 10:30:00 PM 8.2 46.76 0.182 7.35 3.93 11.14
11/6/2020 10:45:00 PM 8.14 46.652 0.182 7.35 3.72 11.15
11/6/2020 11:00:00 PM 8.09 46.562 0.182 7.35 3.4 11.17
11/6/2020 11:15:00 PM 8.04 46.472 0.182 7.34 3.6 11.16
11/6/2020 11:30:00 PM 8 46.4 0.182 7.34 3.43 11.17
11/6/2020 11:45:00 PM 7.98 46.364 0.182 7.34 3.96 11.16
11/7/2020 12:00:00 AM 7.9 46.22 0.182 7.34 3.45 11.18
11/7/2020 12:15:00 AM 7.86 46.148 0.182 7.33 3.38 11.19
11/7/2020 12:30:00 AM 7.83 46.094 0.182 7.34 3.94 11.18
11/7/2020 12:45:00 AM 7.79 46.022 0.182 7.33 3.5 11.18
11/7/2020 1:00:00 AM 7.74 45.932 0.182 7.33 3.59 11.21
11/7/2020 1:15:00 AM 7.68 45.824 0.182 7.33 3.65 11.22
11/7/2020 1:30:00 AM 7.66 45.788 0.182 7.33 3.39 11.21
11/7/2020 1:45:00 AM 7.64 45.752 0.182 7.32 3.28 11.18
11/7/2020 2:00:00 AM 7.6 45.68 0.182 7.32 3.45 11.15
11/7/2020 2:15:00 AM 7.59 45.662 0.182 7.32 3.42 11.16
11/7/2020 2:30:00 AM 7.57 45.626 0.182 7.31 3.3 11.1
11/7/2020 2:45:00 AM 7.52 45.536 0.182 7.31 3.28 11.12
11/7/2020 3:00:00 AM 7.48 45.464 0.182 7.3 3.43 11.16
11/7/2020 3:15:00 AM 7.43 45.374 0.182 7.31 3.36 11.2
11/7/2020 3:30:00 AM 7.4 45.32 0.182 7.31 3.46 11.16
11/7/2020 3:45:00 AM 7.37 45.266 0.183 7.31 3.59 11.09
11/7/2020 4:00:00 AM 7.35 45.23 0.183 7.31 3.49 11.17
11/7/2020 4:15:00 AM 7.32 45.176 0.183 7.31 3.27 11.19
11/7/2020 4:30:00 AM 7.29 45.122 0.183 7.31 3.32 11.18
11/7/2020 4:45:00 AM 7.22 44.996 0.183 7.31 3.43 11.26
11/7/2020 5:00:00 AM 7.2 44.96 0.183 7.31 3.42 11.22
11/7/2020 5:15:00 AM 7.19 44.942 0.183 7.31 3.37 11.2
11/7/2020 5:30:00 AM 7.15 44.87 0.183 7.31 3.97 11.23
11/7/2020 5:45:00 AM 7.12 44.816 0.183 7.32 3.42 11.19
11/7/2020 6:00:00 AM 7.06 44.708 0.183 7.32 5.17 11.27
11/7/2020 6:15:00 AM 7.03 44.654 0.183 7.32 3.78 11.3
11/7/2020 6:30:00 AM 7.01 44.618 0.183 7.31 3.52 11.26
11/7/2020 6:45:00 AM 6.96 44.528 0.183 7.31 3.96 11.31
11/7/2020 7:00:00 AM 6.94 44.492 0.183 7.32 3.37 11.33
11/7/2020 7:15:00 AM 6.93 44.474 0.183 7.32 3.38 11.33
11/7/2020 7:30:00 AM 6.88 44.384 0.183 7.33 3.32 11.42
11/7/2020 7:45:00 AM 6.87 44.366 0.183 7.33 3.37 11.47
11/7/2020 8:00:00 AM 6.89 44.402 0.183 7.33 3.34 11.45
11/7/2020 8:15:00 AM 6.88 44.384 0.183 7.33 3.34 11.5
11/7/2020 8:30:00 AM 6.89 44.402 0.183 7.34 3.4 11.57
11/7/2020 8:45:00 AM 6.92 44.456 0.183 7.35 3.32 11.75
11/7/2020 9:00:00 AM 6.96 44.528 0.183 7.36 3.42 11.84
11/7/2020 9:15:00 AM 7.01 44.618 0.183 7.36 3.33 11.88
11/7/2020 9:30:00 AM 7.05 44.69 0.183 7.37 3.31 11.91
11/7/2020 9:45:00 AM 7.13 44.834 0.183 7.38 3.38 12.01
11/7/2020 10:00:00 AM 7.22 44.996 0.183 7.4 3.31 12.09
11/7/2020 10:15:00 AM 7.29 45.122 0.183 7.41 3.33 12.12
11/7/2020 10:30:00 AM 7.49 45.482 0.183 7.42 3.41 12.15
11/7/2020 10:45:00 AM 7.68 45.824 0.182 7.43 3.3 12.16
11/7/2020 11:00:00 AM 7.93 46.274 0.182 7.44 3.32 12.18
11/7/2020 11:15:00 AM 8.13 46.634 0.182 7.47 3.35 12.19
11/7/2020 11:30:00 AM 8.31 46.958 0.182 7.47 3.31 12.18
11/7/2020 11:45:00 AM 8.54 47.372 0.182 7.5 3.37 12.22
11/7/2020 12:00:00 PM 8.72 47.696 0.182 7.51 3.3 12.23
11/7/2020 12:15:00 PM 8.97 48.146 0.182 7.52 3.41 12.24
11/7/2020 12:30:00 PM 9.07 48.326 0.182 7.52 3.32 12.23
11/7/2020 12:45:00 PM 9.26 48.668 0.182 7.53 3.26 12.23
11/7/2020 1:00:00 PM 9.4 48.92 0.182 7.52 3.33 12.21
11/7/2020 1:15:00 PM 9.52 49.136 0.182 7.53 3.31 12.22
11/7/2020 1:30:00 PM 9.59 49.262 0.182 7.53 3.31 12.22
11/7/2020 1:45:00 PM 9.67 49.406 0.182 7.54 3.35 12.21
11/7/2020 2:00:00 PM 9.7 49.46 0.182 7.53 3.32 12.18
11/7/2020 2:15:00 PM 9.7 49.46 0.182 7.53 3.43 12.18
11/7/2020 2:30:00 PM 9.72 49.496 0.182 7.52 3.38 12.14
11/7/2020 2:45:00 PM 9.7 49.46 0.182 7.53 3.34 12.15
11/7/2020 3:00:00 PM 9.71 49.478 0.182 7.5 3.33 12.07
11/7/2020 3:15:00 PM 9.71 49.478 0.182 7.51 3.39 12.04
11/7/2020 3:30:00 PM 9.68 49.424 0.182 7.5 3.37 12
11/7/2020 3:45:00 PM 9.65 49.37 0.182 7.49 3.42 11.92
11/7/2020 4:00:00 PM 9.61 49.298 0.182 7.49 3.42 11.87
11/7/2020 4:15:00 PM 9.58 49.244 0.183 7.47 5.95 11.77
11/7/2020 4:30:00 PM 9.53 49.154 0.183 7.47 3.39 11.7
11/7/2020 4:45:00 PM 9.51 49.118 0.183 7.46 3.44 11.62
11/7/2020 5:00:00 PM 9.45 49.01 0.183 7.45 5.02 11.55
11/7/2020 5:15:00 PM 9.41 48.938 0.183 7.43 3.43 11.46
11/7/2020 5:30:00 PM 9.36 48.848 0.183 7.42 4.21 11.39
11/7/2020 5:45:00 PM 9.3 48.74 0.183 7.42 3.31 11.32
11/7/2020 6:00:00 PM 9.25 48.65 0.183 7.4 3.27 11.29
11/7/2020 6:15:00 PM 9.2 48.56 0.183 7.4 3.16 11.26
11/7/2020 6:30:00 PM 9.14 48.452 0.183 7.39 3.31 11.23
11/7/2020 6:45:00 PM 9.09 48.362 0.183 7.39 3.36 11.22
11/7/2020 7:00:00 PM 9.03 48.254 0.183 7.39 3.37 11.21
11/7/2020 7:15:00 PM 8.97 48.146 0.183 7.38 3.27 11.18
11/7/2020 7:30:00 PM 8.93 48.074 0.184 7.38 3.33 11.18
11/7/2020 7:45:00 PM 8.86 47.948 0.184 7.38 3.27 11.16
11/7/2020 8:00:00 PM 8.82 47.876 0.184 7.38 3.31 11.16
11/7/2020 8:15:00 PM 8.76 47.768 0.184 7.37 3.5 11.15
11/7/2020 8:30:00 PM 8.71 47.678 0.184 7.37 3.45 11.13
11/7/2020 8:45:00 PM 8.66 47.588 0.184 7.37 3.46 11.13
11/7/2020 9:00:00 PM 8.61 47.498 0.184 7.36 3.34 11.12
11/7/2020 9:15:00 PM 8.56 47.408 0.184 7.36 3.32 11.11
11/7/2020 9:30:00 PM 8.51 47.318 0.184 7.36 3.42 11.11
11/7/2020 9:45:00 PM 8.48 47.264 0.184 7.37 3.26 11.08
11/7/2020 10:00:00 PM 8.46 47.228 0.184 7.36 3.41 11.07
11/7/2020 10:15:00 PM 8.37 47.066 0.184 7.36 3.34 11.11
11/7/2020 10:30:00 PM 8.34 47.012 0.184 7.35 3.29 11.08
11/7/2020 10:45:00 PM 8.28 46.904 0.184 7.35 3.46 11.1
11/7/2020 11:00:00 PM 8.24 46.832 0.184 7.35 3.4 11.11
11/7/2020 11:15:00 PM 8.18 46.724 0.184 7.35 3.52 11.1
11/7/2020 11:30:00 PM 8.12 46.616 0.185 7.36 3.34 11.12
11/7/2020 11:45:00 PM 8.08 46.544 0.184 7.34 3.36 11.11
11/8/2020 12:00:00 AM 8.02 46.436 0.185 7.35 3.37 11.13
11/8/2020 12:15:00 AM 7.98 46.364 0.185 7.34 3.44 11.13
11/8/2020 12:30:00 AM 7.95 46.31 0.184 7.33 3.39 11.15
11/8/2020 12:45:00 AM 7.89 46.202 0.184 7.35 3.4 11.17
11/8/2020 1:00:00 AM 7.84 46.112 0.184 7.34 3.37 11.17
11/8/2020 1:15:00 AM 7.82 46.076 0.185 7.34 3.33 11.16
11/8/2020 1:30:00 AM 7.77 45.986 0.184 7.33 3.99 11.16
11/8/2020 1:45:00 AM 7.72 45.896 0.185 7.33 4.31 11.14
11/8/2020 2:00:00 AM 7.68 45.824 0.185 7.34 4.7 11.18
11/8/2020 2:15:00 AM 7.64 45.752 0.185 7.34 4.53 11.17
11/8/2020 2:30:00 AM 7.59 45.662 0.184 7.33 3.86 11.17
11/8/2020 2:45:00 AM 7.56 45.608 0.185 7.34 3.37 11.19
11/8/2020 3:00:00 AM 7.49 45.482 0.184 7.34 4.37 11.23
11/8/2020 3:15:00 AM 7.46 45.428 0.185 7.33 3.48 11.22
11/8/2020 3:30:00 AM 7.43 45.374 0.185 7.33 3.41 11.2
11/8/2020 3:45:00 AM 7.4 45.32 0.185 7.34 3.34 11.24
11/8/2020 4:00:00 AM 7.35 45.23 0.185 7.33 3.69 11.23
11/8/2020 4:15:00 AM 7.31 45.158 0.185 7.33 3.41 11.24
11/8/2020 4:30:00 AM 7.28 45.104 0.185 7.34 3.41 11.23
11/8/2020 4:45:00 AM 7.24 45.032 0.185 7.33 3.61 11.14
11/8/2020 5:00:00 AM 7.2 44.96 0.185 7.32 3.59 11.22
11/8/2020 5:15:00 AM 7.16 44.888 0.185 7.33 3.43 11.23
11/8/2020 5:30:00 AM 7.09 44.762 0.185 7.33 3.43 11.29
11/8/2020 5:45:00 AM 7.06 44.708 0.185 7.33 3.42 11.31
11/8/2020 6:00:00 AM 7.04 44.672 0.185 7.32 3.42 11.31
11/8/2020 6:15:00 AM 6.97 44.546 0.185 7.32 3.9 11.37
11/8/2020 6:30:00 AM 6.95 44.51 0.185 7.33 3.5 11.36
11/8/2020 6:45:00 AM 6.91 44.438 0.185 7.33 3.93 11.39
11/8/2020 7:00:00 AM 6.87 44.366 0.185 7.33 3.43 11.4
11/8/2020 7:15:00 AM 6.85 44.33 0.185 7.33 3.41 11.41
11/8/2020 7:30:00 AM 6.82 44.276 0.185 7.34 3.43 11.47
11/8/2020 7:45:00 AM 6.76 44.168 0.185 7.35 3.46 11.55
11/8/2020 8:00:00 AM 6.75 44.15 0.185 7.36 3.25 11.62
11/8/2020 8:15:00 AM 6.74 44.132 0.185 7.36 3.32 11.68
11/8/2020 8:30:00 AM 6.75 44.15 0.185 7.36 3.18 11.77
11/8/2020 8:45:00 AM 6.77 44.186 0.185 7.37 3.22 11.88
11/8/2020 9:00:00 AM 6.82 44.276 0.184 7.38 3.36 11.98
11/8/2020 9:15:00 AM 6.86 44.348 0.184 7.39 3.2 12.05
11/8/2020 9:30:00 AM 6.89 44.402 0.184 7.42 3.17 12.16
11/8/2020 9:45:00 AM 6.97 44.546 0.184 7.42 3.19 12.18
11/8/2020 10:00:00 AM 7.04 44.672 0.184 7.43 3.33 12.2
11/8/2020 10:15:00 AM 7.18 44.924 0.184 7.43 3.16 12.27
11/8/2020 10:30:00 AM 7.27 45.086 0.184 7.46 3.23 12.32
11/8/2020 10:45:00 AM 7.51 45.518 0.184 7.46 3.26 12.34
11/8/2020 11:00:00 AM 7.77 45.986 0.184 7.47 3.16 12.34
11/8/2020 11:15:00 AM 7.95 46.31 0.184 7.49 3.26 12.35
11/8/2020 11:30:00 AM 8.13 46.634 0.184 7.5 3.25 12.38
11/8/2020 11:45:00 AM 8.34 47.012 0.184 7.51 3.1 12.38
11/8/2020 12:00:00 PM 8.51 47.318 0.184 7.53 3.24 12.41
11/8/2020 12:15:00 PM 8.76 47.768 0.184 7.52 3.42 12.38
11/8/2020 12:30:00 PM 8.91 48.038 0.184 7.54 5.18 12.39
11/8/2020 12:45:00 PM 9.09 48.362 0.184 7.54 3.15 12.4
11/8/2020 1:00:00 PM 9.22 48.596 0.184 7.54 3.67 12.38
11/8/2020 1:15:00 PM 9.35 48.83 0.184 7.55 3.09 12.39
11/8/2020 1:30:00 PM 9.43 48.974 0.184 7.55 3.1 12.38
11/8/2020 1:45:00 PM 9.47 49.046 0.184 7.55 3.07 12.37
11/8/2020 2:00:00 PM 9.49 49.082 0.184 7.55 11.94 12.37
11/8/2020 2:15:00 PM 9.49 49.082 0.184 7.55 3.37 12.34
11/8/2020 2:30:00 PM 9.49 49.082 0.184 7.53 3 12.29
11/8/2020 2:45:00 PM 9.44 48.992 0.184 7.53 3.03 12.26
11/8/2020 3:00:00 PM 9.45 49.01 0.184 7.53 3.09 12.22
11/8/2020 3:15:00 PM 9.44 48.992 0.184 7.51 3.07 12.17
11/8/2020 3:30:00 PM 9.42 48.956 0.184 7.51 3.08 12.1
11/8/2020 3:45:00 PM 9.39 48.902 0.184 7.5 3.09 12.05
11/8/2020 4:00:00 PM 9.37 48.866 0.184 7.48 4.26 11.98
11/8/2020 4:15:00 PM 9.33 48.794 0.184 7.48 3.16 11.92
11/8/2020 4:30:00 PM 9.29 48.722 0.184 7.48 3.07 11.84
11/8/2020 4:45:00 PM 9.23 48.614 0.184 7.48 3.35 11.76
11/8/2020 5:00:00 PM 9.19 48.542 0.184 7.46 3.11 11.68
11/8/2020 5:15:00 PM 9.13 48.434 0.184 7.44 4.18 11.59
11/8/2020 5:30:00 PM 9.08 48.344 0.184 7.44 5.38 11.5
11/8/2020 5:45:00 PM 9.01 48.218 0.185 7.43 3.11 11.47
11/8/2020 6:00:00 PM 8.96 48.128 0.185 7.42 3.14 11.41
11/8/2020 6:15:00 PM 8.89 48.002 0.185 7.4 3.13 11.38
11/8/2020 6:30:00 PM 8.84 47.912 0.185 7.4 3.05 11.36
11/8/2020 6:45:00 PM 8.78 47.804 0.185 7.41 3.36 11.34
11/8/2020 7:00:00 PM 8.72 47.696 0.185 7.4 3.01 11.31
11/8/2020 7:15:00 PM 8.66 47.588 0.185 7.39 3.13 11.3
11/8/2020 7:30:00 PM 8.61 47.498 0.185 7.4 3.05 11.3
11/8/2020 7:45:00 PM 8.56 47.408 0.185 7.39 2.97 11.27
11/8/2020 8:00:00 PM 8.51 47.318 0.185 7.38 3.04 11.27
11/8/2020 8:15:00 PM 8.45 47.21 0.185 7.38 3.1 11.25
11/8/2020 8:30:00 PM 8.4 47.12 0.185 7.39 2.92 11.24
11/8/2020 8:45:00 PM 8.35 47.03 0.185 7.37 2.95 11.24
11/8/2020 9:00:00 PM 8.3 46.94 0.186 7.38 2.9 11.24
11/8/2020 9:15:00 PM 8.25 46.85 0.186 7.37 3.63 11.23
11/8/2020 9:30:00 PM 8.22 46.796 0.186 7.37 3.27 11.18
11/8/2020 9:45:00 PM 8.15 46.67 0.186 7.37 3.14 11.23
11/8/2020 10:00:00 PM 8.11 46.598 0.186 7.37 3.05 11.2
11/8/2020 10:15:00 PM 8.06 46.508 0.186 7.37 3.01 11.22
11/8/2020 10:30:00 PM 8.01 46.418 0.186 7.37 3.05 11.23
11/8/2020 10:45:00 PM 7.97 46.346 0.186 7.36 3.07 11.2
11/8/2020 11:00:00 PM 7.92 46.256 0.186 7.36 3.05 11.22
11/8/2020 11:15:00 PM 7.89 46.202 0.186 7.35 3.01 11.22
11/8/2020 11:30:00 PM 7.82 46.076 0.186 7.36 3.03 11.23
11/8/2020 11:45:00 PM 7.77 45.986 0.186 7.36 3.03 11.23
11/9/2020 12:00:00 AM 7.75 45.95 0.186 7.36 3.09 11.21
11/9/2020 12:15:00 AM 7.73 45.914 0.186 7.36 3.1 11.18
11/9/2020 12:30:00 AM 7.66 45.788 0.186 7.34 3.12 11.25
11/9/2020 12:45:00 AM 7.61 45.698 0.186 7.35 3.27 11.24
11/9/2020 1:00:00 AM 7.55 45.59 0.186 7.35 3.09 11.26
11/9/2020 1:15:00 AM 7.52 45.536 0.186 7.34 3.11 11.27
11/9/2020 1:30:00 AM 7.48 45.464 0.186 7.35 3.12 11.24
11/9/2020 1:45:00 AM 7.45 45.41 0.186 7.35 3.08 11.23
11/9/2020 2:00:00 AM 7.39 45.302 0.186 7.35 3.07 11.25
11/9/2020 2:15:00 AM 7.36 45.248 0.186 7.35 3.03 11.25
11/9/2020 2:30:00 AM 7.31 45.158 0.186 7.34 3.03 11.29
11/9/2020 2:45:00 AM 7.27 45.086 0.186 7.34 3.29 11.3
11/9/2020 3:00:00 AM 7.24 45.032 0.186 7.34 3.12 11.29
11/9/2020 3:15:00 AM 7.2 44.96 0.186 7.34 3.06 11.29
11/9/2020 3:30:00 AM 7.15 44.87 0.186 7.35 3.15 11.32
11/9/2020 3:45:00 AM 7.13 44.834 0.186 7.33 3.35 11.26
11/9/2020 4:00:00 AM 7.09 44.762 0.186 7.33 3.28 11.31
11/9/2020 4:15:00 AM 7.07 44.726 0.186 7.34 3.4 11.33
11/9/2020 4:30:00 AM 7.04 44.672 0.186 7.34 3.35 11.27
11/9/2020 4:45:00 AM 7 44.6 0.186 7.33 3.11 11.31
11/9/2020 5:00:00 AM 6.96 44.528 0.186 7.34 3.08 11.31
11/9/2020 5:15:00 AM 6.92 44.456 0.186 7.34 3.13 11.33
11/9/2020 5:30:00 AM 6.87 44.366 0.186 7.33 3.04 11.38
11/9/2020 5:45:00 AM 6.83 44.294 0.186 7.34 4.9 11.4
11/9/2020 6:00:00 AM 6.82 44.276 0.186 7.34 3.94 11.36
11/9/2020 6:15:00 AM 6.77 44.186 0.186 7.34 3.91 11.39
11/9/2020 6:30:00 AM 6.73 44.114 0.186 7.34 3.22 11.4
11/9/2020 6:45:00 AM 6.72 44.096 0.186 7.34 3.1 11.39
11/9/2020 7:00:00 AM 6.66 43.988 0.186 7.34 3.13 11.45
11/9/2020 7:15:00 AM 6.63 43.934 0.186 7.35 3.06 11.49
11/9/2020 7:30:00 AM 6.57 43.826 0.186 7.36 3.14 11.57
11/9/2020 7:45:00 AM 6.55 43.79 0.186 7.36 3.26 11.64
11/9/2020 8:00:00 AM 6.47 43.646 0.186 7.38 3.3 11.79
11/9/2020 8:15:00 AM 6.42 43.556 0.186 7.4 3.54 11.93
11/9/2020 8:30:00 AM 6.38 43.484 0.186 7.42 10.32 12.11
11/9/2020 8:45:00 AM 6.36 43.448 0.186 7.45 3.67 12.25
11/9/2020 9:00:00 AM 6.37 43.466 0.186 7.49 3.82 12.38
11/9/2020 9:15:00 AM 6.4 43.52 0.186 7.51 4.06 12.48
11/9/2020 9:30:00 AM 6.45 43.61 0.186 7.52 3.84 12.56
11/9/2020 9:45:00 AM 6.53 43.754 0.186 7.54 3.89 12.63
11/9/2020 10:00:00 AM 6.61 43.898 0.186 7.56 3.99 12.68
11/9/2020 10:15:00 AM 6.77 44.186 0.186 7.57 3.9 12.75
11/9/2020 10:30:00 AM 6.92 44.456 0.186 7.59 4.86 12.78
11/9/2020 10:45:00 AM 7.07 44.726 0.185 7.62 4.18 12.84
11/9/2020 11:00:00 AM 7.28 45.104 0.185 7.63 4.16 12.87
11/9/2020 11:15:00 AM 7.44 45.392 0.185 7.65 4.41 12.88
11/9/2020 11:30:00 AM 7.61 45.698 0.185 7.67 4.09 12.9
11/9/2020 11:45:00 AM 7.75 45.95 0.185 7.69 4.87 12.89
11/9/2020 12:00:00 PM 7.9 46.22 0.185 7.7 5.53 12.88
11/9/2020 12:15:00 PM 8.08 46.544 0.185 7.7 4.44 12.88
11/9/2020 12:30:00 PM 8.23 46.814 0.185 7.71 10.64 12.86
11/9/2020 12:45:00 PM 8.4 47.12 0.184 7.73 4.56 12.85
11/9/2020 1:00:00 PM 8.5 47.3 0.184 7.73 4.31 12.83
11/9/2020 1:15:00 PM 8.59 47.462 0.184 7.74 5.73 12.8
11/9/2020 1:30:00 PM 8.72 47.696 0.184 7.74 4.32 12.77
11/9/2020 1:45:00 PM 8.79 47.822 0.184 7.75 4.39 12.72
11/9/2020 2:00:00 PM 8.85 47.93 0.184 7.75 4.24 12.69
11/9/2020 2:15:00 PM 8.91 48.038 0.184 7.74 4.83 12.64
11/9/2020 2:30:00 PM 8.96 48.128 0.184 7.73 4.44 12.59
11/9/2020 2:45:00 PM 8.97 48.146 0.184 7.72 4.68 12.54
11/9/2020 3:00:00 PM 8.96 48.128 0.184 7.71 4.49 12.49
11/9/2020 3:15:00 PM 8.95 48.11 0.184 7.71 4.59 12.44
11/9/2020 3:30:00 PM 8.94 48.092 0.184 7.7 4.38 12.39
11/9/2020 3:45:00 PM 8.91 48.038 0.184 7.68 4.39 12.33
11/9/2020 4:00:00 PM 8.87 47.966 0.184 7.67 4.99 12.26
11/9/2020 4:15:00 PM 8.83 47.894 0.184 7.65 4.55 12.2
11/9/2020 4:30:00 PM 8.78 47.804 0.184 7.63 4.56 12.12
11/9/2020 4:45:00 PM 8.72 47.696 0.184 7.62 5.56 12.04
11/9/2020 5:00:00 PM 8.68 47.624 0.184 7.6 5.2 11.96
11/9/2020 5:15:00 PM 8.64 47.552 0.184 7.58 4.69 11.9
11/9/2020 5:30:00 PM 8.58 47.444 0.184 7.57 4.66 11.85
11/9/2020 5:45:00 PM 8.54 47.372 0.184 7.55 4.62 11.8
11/9/2020 6:00:00 PM 8.5 47.3 0.184 7.54 4.62 11.77
11/9/2020 6:15:00 PM 8.47 47.246 0.184 7.54 5.2 11.73
11/9/2020 6:30:00 PM 8.43 47.174 0.184 7.53 4.74 11.7
11/9/2020 6:45:00 PM 8.4 47.12 0.184 7.52 4.68 11.67
11/9/2020 7:00:00 PM 8.37 47.066 0.184 7.52 4.57 11.66
11/9/2020 7:15:00 PM 8.34 47.012 0.184 7.51 4.48 11.63
11/9/2020 7:30:00 PM 8.31 46.958 0.184 7.51 4.58 11.63
11/9/2020 7:45:00 PM 8.29 46.922 0.184 7.5 4.78 11.61
11/9/2020 8:00:00 PM 8.25 46.85 0.184 7.49 4.63 11.6
11/9/2020 8:15:00 PM 8.23 46.814 0.184 7.49 4.57 11.58
11/9/2020 8:30:00 PM 8.2 46.76 0.184 7.48 4.43 11.55
11/9/2020 8:45:00 PM 8.16 46.688 0.184 7.48 4.57 11.59
11/9/2020 9:00:00 PM 8.15 46.67 0.184 7.48 4.59 11.54
11/9/2020 9:15:00 PM 8.12 46.616 0.184 7.47 4.54 11.56
11/9/2020 9:30:00 PM 8.1 46.58 0.184 7.48 4.46 11.53
11/9/2020 9:45:00 PM 8.08 46.544 0.184 7.46 4.47 11.54
11/9/2020 10:00:00 PM 8.06 46.508 0.184 7.45 4.46 11.53
11/9/2020 10:15:00 PM 8.04 46.472 0.184 7.45 4.32 11.52
11/9/2020 10:30:00 PM 8.02 46.436 0.184 7.46 4.45 11.52
11/9/2020 10:45:00 PM 8.01 46.418 0.184 7.45 4.44 11.5
11/9/2020 11:00:00 PM 7.99 46.382 0.184 7.45 4.3 11.49
11/9/2020 11:15:00 PM 7.98 46.364 0.184 7.45 4.49 11.47
11/9/2020 11:30:00 PM 7.95 46.31 0.184 7.45 4.22 11.48
11/9/2020 11:45:00 PM 7.93 46.274 0.184 7.44 4.3 11.47
11/10/2020 12:00:00 AM 7.92 46.256 0.184 7.44 4.37 11.47
11/10/2020 12:15:00 AM 7.9 46.22 0.184 7.44 4.24 11.47
11/10/2020 12:30:00 AM 7.89 46.202 0.184 7.44 4.34 11.46
11/10/2020 12:45:00 AM 7.87 46.166 0.184 7.44 4.24 11.44
11/10/2020 1:00:00 AM 7.85 46.13 0.184 7.43 4.33 11.45
11/10/2020 1:15:00 AM 7.83 46.094 0.184 7.43 4.23 11.46
11/10/2020 1:30:00 AM 7.81 46.058 0.184 7.43 4.06 11.45
11/10/2020 1:45:00 AM 7.79 46.022 0.184 7.42 4.18 11.44
11/10/2020 2:00:00 AM 7.77 45.986 0.184 7.42 4.13 11.45
11/10/2020 2:15:00 AM 7.74 45.932 0.184 7.42 4.06 11.45
11/10/2020 2:30:00 AM 7.74 45.932 0.184 7.41 4.07 11.42
11/10/2020 2:45:00 AM 7.71 45.878 0.184 7.41 3.98 11.42
11/10/2020 3:00:00 AM 7.68 45.824 0.184 7.42 4.03 11.42
11/10/2020 3:15:00 AM 7.66 45.788 0.185 7.41 4.15 11.43
11/10/2020 3:30:00 AM 7.63 45.734 0.185 7.42 4.05 11.43
11/10/2020 3:45:00 AM 7.59 45.662 0.185 7.41 3.95 11.45
11/10/2020 4:00:00 AM 7.58 45.644 0.185 7.41 3.9 11.43
11/10/2020 4:15:00 AM 7.56 45.608 0.185 7.41 3.9 11.43
11/10/2020 4:30:00 AM 7.53 45.554 0.185 7.41 3.95 11.45
11/10/2020 4:45:00 AM 7.5 45.5 0.185 7.41 3.97 11.45
11/10/2020 5:00:00 AM 7.46 45.428 0.185 7.41 3.96 11.47
11/10/2020 5:15:00 AM 7.42 45.356 0.185 7.42 3.94 11.5
11/10/2020 5:30:00 AM 7.4 45.32 0.185 7.43 4.34 11.52
11/10/2020 5:45:00 AM 7.36 45.248 0.185 7.43 4 11.53
11/10/2020 6:00:00 AM 7.32 45.176 0.185 7.44 4.09 11.58
11/10/2020 6:15:00 AM 7.29 45.122 0.185 7.44 4.03 11.61
11/10/2020 6:30:00 AM 7.25 45.05 0.185 7.45 4.1 11.66
11/10/2020 6:45:00 AM 7.2 44.96 0.185 7.46 4.04 11.7
11/10/2020 7:00:00 AM 7.17 44.906 0.185 7.46 4.18 11.75
11/10/2020 7:15:00 AM 7.16 44.888 0.186 7.48 4.34 11.77
11/10/2020 7:30:00 AM 7.13 44.834 0.186 7.49 4.28 11.83
11/10/2020 7:45:00 AM 7.13 44.834 0.185 7.49 4.29 11.92
11/10/2020 8:00:00 AM 7.12 44.816 0.186 7.5 4.42 12.01
11/10/2020 8:15:00 AM 7.13 44.834 0.185 7.5 4.22 12.06
11/10/2020 8:30:00 AM 7.14 44.852 0.185 7.52 5.22 12.16
11/10/2020 8:45:00 AM 7.17 44.906 0.185 7.54 4.66 12.23
11/10/2020 9:00:00 AM 7.22 44.996 0.185 7.55 5.86 12.3
11/10/2020 9:15:00 AM 7.26 45.068 0.185 7.56 4.62 12.39
11/10/2020 9:30:00 AM 7.32 45.176 0.185 7.58 6.68 12.43
11/10/2020 9:45:00 AM 7.41 45.338 0.185 7.59 4.6 12.47
11/10/2020 10:00:00 AM 7.51 45.518 0.185 7.6 4.44 12.5
11/10/2020 10:15:00 AM 7.66 45.788 0.185 7.61 4.38 12.55
11/10/2020 10:30:00 AM 7.83 46.094 0.185 7.65 4.6 12.63
11/10/2020 10:45:00 AM 7.98 46.364 0.185 7.66 4.89 12.62
11/10/2020 11:00:00 AM 8.2 46.76 0.185 7.69 4.49 12.67
11/10/2020 11:15:00 AM 8.41 47.138 0.185 7.7 4.44 12.7
11/10/2020 11:30:00 AM 8.63 47.534 0.184 7.71 4.75 12.68
11/10/2020 11:45:00 AM 8.82 47.876 0.184 7.73 7.04 12.67
11/10/2020 12:00:00 PM 9.01 48.218 0.184 7.74 4.54 12.65
11/10/2020 12:15:00 PM 9.22 48.596 0.184 7.73 4.51 12.64
11/10/2020 12:30:00 PM 9.33 48.794 0.184 7.74 4.62 12.63
11/10/2020 12:45:00 PM 9.45 49.01 0.184 7.74 7.99 12.61
11/10/2020 1:00:00 PM 9.65 49.37 0.184 7.76 4.49 12.58
11/10/2020 1:15:00 PM 9.8 49.64 0.184 7.76 4.55 12.53
11/10/2020 1:30:00 PM 9.86 49.748 0.184 7.77 4.37 12.5
11/10/2020 1:45:00 PM 9.97 49.946 0.184 7.77 4.95 12.45
11/10/2020 2:00:00 PM 10.05 50.09 0.184 7.76 4.68 12.41
11/10/2020 2:15:00 PM 10.15 50.27 0.184 7.76 6.09 12.35
11/10/2020 2:30:00 PM 10.2 50.36 0.184 7.74 4.72 12.28
11/10/2020 2:45:00 PM 10.24 50.432 0.184 7.74 7.15 12.24
11/10/2020 3:00:00 PM 10.24 50.432 0.184 7.73 5.19 12.17
11/10/2020 3:15:00 PM 10.25 50.45 0.184 7.71 5.42 12.07
11/10/2020 3:30:00 PM 10.25 50.45 0.184 7.7 4.33 12.01
11/10/2020 3:45:00 PM 10.21 50.378 0.184 7.69 12.22 11.94
11/10/2020 4:00:00 PM 10.19 50.342 0.184 7.66 4.86 11.86
11/10/2020 4:15:00 PM 10.15 50.27 0.184 7.64 4.43 11.77
11/10/2020 4:30:00 PM 10.1 50.18 0.184 7.62 4.37 11.69
11/10/2020 4:45:00 PM 10.06 50.108 0.184 7.6 4.61 11.61
11/10/2020 5:00:00 PM 10 50 0.184 7.59 11.85 11.53
11/10/2020 5:15:00 PM 9.94 49.892 0.184 7.57 4.93 11.44
11/10/2020 5:30:00 PM 9.89 49.802 0.185 7.55 4.91 11.38
11/10/2020 5:45:00 PM 9.83 49.694 0.185 7.55 4.35 11.31
11/10/2020 6:00:00 PM 9.79 49.622 0.185 7.52 4.52 11.27
11/10/2020 6:15:00 PM 9.76 49.568 0.185 7.53 4.13 11.25
11/10/2020 6:30:00 PM 9.7 49.46 0.185 7.52 4.11 11.22
11/10/2020 6:45:00 PM 9.65 49.37 0.185 7.5 4.19 11.19
11/10/2020 7:00:00 PM 9.61 49.298 0.185 7.49 4.09 11.17
11/10/2020 7:15:00 PM 9.56 49.208 0.185 7.48 4.22 11.14
11/10/2020 7:30:00 PM 9.53 49.154 0.185 7.47 4.07 11.14
11/10/2020 7:45:00 PM 9.5 49.1 0.185 7.47 4.08 11.11
11/10/2020 8:00:00 PM 9.46 49.028 0.185 7.47 4.2 11.11
11/10/2020 8:15:00 PM 9.43 48.974 0.185 7.47 4.11 11.08
11/10/2020 8:30:00 PM 9.38 48.884 0.185 7.48 4.23 11.14
11/10/2020 8:45:00 PM 9.34 48.812 0.185 7.55 4.84 11.29
11/10/2020 9:00:00 PM 9.31 48.758 0.186 7.57 5.36 11.34
11/10/2020 9:15:00 PM 9.36 48.848 0.186 7.6 5.87 11.41
11/10/2020 9:30:00 PM 9.43 48.974 0.185 7.61 6.14 11.47
11/10/2020 9:45:00 PM 9.49 49.082 0.185 7.62 6.34 11.5
11/10/2020 10:00:00 PM 9.5 49.1 0.185 7.62 6.04 11.5
11/10/2020 10:15:00 PM 9.52 49.136 0.186 7.62 6.01 11.5
11/10/2020 10:30:00 PM 9.54 49.172 0.186 7.61 6.26 11.48
11/10/2020 10:45:00 PM 9.54 49.172 0.186 7.61 5.74 11.47
11/10/2020 11:00:00 PM 9.55 49.19 0.186 7.6 5.64 11.46
11/10/2020 11:15:00 PM 9.55 49.19 0.186 7.6 5.61 11.45
11/10/2020 11:30:00 PM 9.55 49.19 0.186 7.6 6.01 11.44
11/10/2020 11:45:00 PM 9.53 49.154 0.187 7.59 5.69 11.44
11/11/2020 12:00:00 AM 9.52 49.136 0.187 7.59 5.44 11.44
11/11/2020 12:15:00 AM 9.5 49.1 0.187 7.59 5.71 11.44
11/11/2020 12:30:00 AM 9.47 49.046 0.187 7.59 5.54 11.44
11/11/2020 12:45:00 AM 9.45 49.01 0.187 7.6 5.64 11.44
11/11/2020 1:00:00 AM 9.43 48.974 0.188 7.59 5.81 11.45
11/11/2020 1:15:00 AM 9.39 48.902 0.188 7.59 5.89 11.46
11/11/2020 1:30:00 AM 9.35 48.83 0.188 7.59 5.69 11.47
11/11/2020 1:45:00 AM 9.3 48.74 0.189 7.6 5.54 11.5
11/11/2020 2:00:00 AM 9.29 48.722 0.189 7.6 5.47 11.49
11/11/2020 2:15:00 AM 9.27 48.686 0.189 7.59 5.36 11.48
11/11/2020 2:30:00 AM 9.24 48.632 0.19 7.58 5.25 11.49
11/11/2020 2:45:00 AM 9.22 48.596 0.19 7.59 5.27 11.49
11/11/2020 3:00:00 AM 9.19 48.542 0.191 7.59 5.24 11.49
11/11/2020 3:15:00 AM 9.19 48.542 0.191 7.59 5.06 11.48
11/11/2020 3:30:00 AM 9.18 48.524 0.192 7.59 5.06 11.49
11/11/2020 3:45:00 AM 9.16 48.488 0.192 7.59 5.07 11.48
11/11/2020 4:00:00 AM 9.16 48.488 0.193 7.6 5 11.48
11/11/2020 4:15:00 AM 9.15 48.47 0.193 7.6 4.86 11.48
11/11/2020 4:30:00 AM 9.15 48.47 0.194 7.6 4.88 11.46
11/11/2020 4:45:00 AM 9.15 48.47 0.194 7.59 5.02 11.45
11/11/2020 5:00:00 AM 9.15 48.47 0.195 7.59 4.88 11.46
11/11/2020 5:15:00 AM 9.16 48.488 0.195 7.59 4.85 11.45
11/11/2020 5:30:00 AM 9.17 48.506 0.195 7.59 4.76 11.44
11/11/2020 5:45:00 AM 9.18 48.524 0.196 7.59 4.8 11.43
11/11/2020 6:00:00 AM 9.2 48.56 0.196 7.59 4.62 11.41
11/11/2020 6:15:00 AM 9.21 48.578 0.196 7.59 4.64 11.4
11/11/2020 6:30:00 AM 9.25 48.65 0.196 7.59 4.76 11.38
11/11/2020 6:45:00 AM 9.3 48.74 0.197 7.59 4.68 11.39
11/11/2020 7:00:00 AM 9.35 48.83 0.197 7.6 4.47 11.38
11/11/2020 7:15:00 AM 9.39 48.902 0.197 7.59 4.46 11.36
11/11/2020 7:30:00 AM 9.43 48.974 0.197 7.6 4.5 11.38
11/11/2020 7:45:00 AM 9.48 49.064 0.197 7.61 4.41 11.46
11/11/2020 8:00:00 AM 9.56 49.208 0.197 7.62 4.46 11.53
11/11/2020 8:15:00 AM 9.63 49.334 0.197 7.64 4.57 11.52
11/11/2020 8:30:00 AM 9.71 49.478 0.197 7.63 4.34 11.51
11/11/2020 8:45:00 AM 9.77 49.586 0.197 7.64 4.56 11.51
11/11/2020 9:00:00 AM 9.85 49.73 0.196 7.64 4.45 11.48
11/11/2020 9:15:00 AM 9.9 49.82 0.196 7.64 4.26 11.42
11/11/2020 9:30:00 AM 9.95 49.91 0.196 7.63 4.26 11.38
11/11/2020 9:45:00 AM 10 50 0.195 7.64 4.41 11.37
11/11/2020 10:00:00 AM 10.06 50.108 0.194 7.65 4.34 11.4
11/11/2020 10:15:00 AM 10.08 50.144 0.194 7.64 4.33 11.39
11/11/2020 10:30:00 AM 10.12 50.216 0.193 7.64 4.43 11.37
11/11/2020 10:45:00 AM 10.16 50.288 0.192 7.64 4.5 11.36
11/11/2020 11:00:00 AM 10.2 50.36 0.191 7.64 4.27 11.39
11/11/2020 11:15:00 AM 10.22 50.396 0.19 7.64 4.42 11.38
11/11/2020 11:30:00 AM 10.24 50.432 0.189 7.65 4.5 11.42
11/11/2020 11:45:00 AM 10.27 50.486 0.188 7.65 4.56 11.38
11/11/2020 12:00:00 PM 10.29 50.522 0.187 7.64 4.47 11.38
11/11/2020 12:15:00 PM 10.33 50.594 0.186 7.63 4.44 11.37
11/11/2020 12:30:00 PM 10.35 50.63 0.185 7.63 4.58 11.37
11/11/2020 12:45:00 PM 10.39 50.702 0.184 7.63 5.27 11.38
11/11/2020 1:00:00 PM 10.41 50.738 0.183 7.63 5.13 11.36
11/11/2020 1:15:00 PM 10.45 50.81 0.181 7.63 5.36 11.37
11/11/2020 1:30:00 PM 10.48 50.864 0.18 7.62 5.67 11.33
11/11/2020 1:45:00 PM 10.51 50.918 0.179 7.62 4.94 11.34
11/11/2020 2:00:00 PM 10.55 50.99 0.178 7.62 5.18 11.31
11/11/2020 2:15:00 PM 10.58 51.044 0.177 7.62 5.08 11.27
11/11/2020 2:30:00 PM 10.61 51.098 0.176 7.61 6.33 11.25
11/11/2020 2:45:00 PM 10.63 51.134 0.174 7.6 5.94 11.25
11/11/2020 3:00:00 PM 10.64 51.152 0.174 7.59 6.72 11.21
11/11/2020 3:15:00 PM 10.66 51.188 0.173 7.6 7.06 11.22
11/11/2020 3:30:00 PM 10.68 51.224 0.171 7.59 7.52 11.15
11/11/2020 3:45:00 PM 10.7 51.26 0.17 7.59 6.54 11.15
11/11/2020 4:00:00 PM 10.7 51.26 0.169 7.56 6.35 11.11
11/11/2020 4:15:00 PM 10.71 51.278 0.167 7.55 6.64 11.05
11/11/2020 4:30:00 PM 10.72 51.296 0.166 7.54 6.86 11.03
11/11/2020 4:45:00 PM 10.74 51.332 0.165 7.53 7.23 10.99
11/11/2020 5:00:00 PM 10.74 51.332 0.164 7.51 7.53 10.94
11/11/2020 5:15:00 PM 10.75 51.35 0.163 7.51 7.97 10.92
11/11/2020 5:30:00 PM 10.75 51.35 0.162 7.51 7 10.92
11/11/2020 5:45:00 PM 10.74 51.332 0.161 7.49 7.17 10.89
11/11/2020 6:00:00 PM 10.73 51.314 0.16 7.49 7.02 10.89
11/11/2020 6:15:00 PM 10.72 51.296 0.16 7.48 7.42 10.85
11/11/2020 6:30:00 PM 10.72 51.296 0.159 7.49 7.3 10.87
11/11/2020 6:45:00 PM 10.72 51.296 0.158 7.49 7.6 10.88
11/11/2020 7:00:00 PM 10.72 51.296 0.157 7.48 7.44 10.85
11/11/2020 7:15:00 PM 10.71 51.278 0.157 7.48 7.92 10.85
11/11/2020 7:30:00 PM 10.71 51.278 0.156 7.47 8 10.85
11/11/2020 7:45:00 PM 10.7 51.26 0.155 7.46 7.69 10.85
11/11/2020 8:00:00 PM 10.71 51.278 0.155 7.46 7.14 10.86
11/11/2020 8:15:00 PM 10.71 51.278 0.155 7.46 7.67 10.86
11/11/2020 8:30:00 PM 10.71 51.278 0.154 7.46 6.74 10.87
11/11/2020 8:45:00 PM 10.7 51.26 0.154 7.46 6.6 10.86
11/11/2020 9:00:00 PM 10.7 51.26 0.153 7.46 6.42 10.86
11/11/2020 9:15:00 PM 10.69 51.242 0.153 7.46 6.21 10.9
11/11/2020 9:30:00 PM 10.69 51.242 0.153 7.45 6.55 10.9
11/11/2020 9:45:00 PM 10.68 51.224 0.152 7.45 6 10.9
11/11/2020 10:00:00 PM 10.67 51.206 0.152 7.45 6.03 10.91
11/11/2020 10:15:00 PM 10.68 51.224 0.152 7.42 5.81 10.91
11/11/2020 10:30:00 PM 10.68 51.224 0.152 7.46 6.49 10.94
11/11/2020 10:45:00 PM 10.68 51.224 0.151 7.44 5.78 10.92
11/11/2020 11:00:00 PM 10.68 51.224 0.151 7.44 5.83 10.95
11/11/2020 11:15:00 PM 10.68 51.224 0.151 7.44 5.89 10.93
11/11/2020 11:30:00 PM 10.71 51.278 0.15 7.45 5.83 10.93
11/11/2020 11:45:00 PM 10.71 51.278 0.15 7.48 5.75 10.96
11/12/2020 12:00:00 AM 10.71 51.278 0.149 7.48 6.19 10.94
11/12/2020 12:15:00 AM 10.71 51.278 0.149 7.48 6.03 10.95
11/12/2020 12:30:00 AM 10.7 51.26 0.148 7.48 6.06 10.96
11/12/2020 12:45:00 AM 10.7 51.26 0.147 7.49 5.67 10.98
11/12/2020 1:00:00 AM 10.7 51.26 0.147 7.49 5.61 10.98
11/12/2020 1:15:00 AM 10.69 51.242 0.146 7.48 5.99 10.98
11/12/2020 1:30:00 AM 10.68 51.224 0.145 7.48 5.92 10.98
11/12/2020 1:45:00 AM 10.67 51.206 0.145 7.49 5.98 11
11/12/2020 2:00:00 AM 10.65 51.17 0.144 7.48 5.96 10.98
11/12/2020 2:15:00 AM 10.64 51.152 0.143 7.48 6.33 10.99
11/12/2020 2:30:00 AM 10.63 51.134 0.142 7.48 6.1 11
11/12/2020 2:45:00 AM 10.61 51.098 0.142 7.48 6.42 10.99
11/12/2020 3:00:00 AM 10.59 51.062 0.141 7.48 5.79 11.02
11/12/2020 3:15:00 AM 10.58 51.044 0.14 7.47 5.87 11.01
11/12/2020 3:30:00 AM 10.56 51.008 0.14 7.47 6.44 11.02
11/12/2020 3:45:00 AM 10.54 50.972 0.139 7.47 5.92 11.03
11/12/2020 4:00:00 AM 10.52 50.936 0.139 7.47 6.07 11.04
11/12/2020 4:15:00 AM 10.5 50.9 0.138 7.47 6 11.03
11/12/2020 4:30:00 AM 10.48 50.864 0.138 7.47 5.94 11.05
11/12/2020 4:45:00 AM 10.46 50.828 0.138 7.47 6.38 11.04
11/12/2020 5:00:00 AM 10.43 50.774 0.137 7.47 6.13 11.06
11/12/2020 5:15:00 AM 10.4 50.72 0.137 7.47 6.45 11.08
11/12/2020 5:30:00 AM 10.37 50.666 0.137 7.46 6.7 11.08
11/12/2020 5:45:00 AM 10.35 50.63 0.137 7.47 6.25 11.09
11/12/2020 6:00:00 AM 10.32 50.576 0.137 7.46 6.26 11.1
11/12/2020 6:15:00 AM 10.29 50.522 0.137 7.46 6.31 11.1
11/12/2020 6:30:00 AM 10.27 50.486 0.137 7.47 6.17 11.12
11/12/2020 6:45:00 AM 10.24 50.432 0.137 7.47 6.38 11.13
11/12/2020 7:00:00 AM 10.21 50.378 0.137 7.47 6.96 11.12
11/12/2020 7:15:00 AM 10.18 50.324 0.136 7.47 6.55 11.13
11/12/2020 7:30:00 AM 10.15 50.27 0.136 7.46 6.41 11.14
11/12/2020 7:45:00 AM 10.12 50.216 0.136 7.47 7.28 11.19
11/12/2020 8:00:00 AM 10.1 50.18 0.135 7.47 6.79 11.22
11/12/2020 8:15:00 AM 10.09 50.162 0.135 7.48 7.07 11.29
11/12/2020 8:30:00 AM 10.07 50.126 0.135 7.48 6.84 11.28
11/12/2020 8:45:00 AM 10.06 50.108 0.134 7.49 6.99 11.33
11/12/2020 9:00:00 AM 10.05 50.09 0.134 7.49 6.74 11.38
11/12/2020 9:15:00 AM 10.05 50.09 0.133 7.49 7.21 11.39
11/12/2020 9:30:00 AM 10.04 50.072 0.133 7.49 6.71 11.4
11/12/2020 9:45:00 AM 10.03 50.054 0.133 7.49 6.94 11.41
11/12/2020 10:00:00 AM 10.02 50.036 0.132 7.49 7.06 11.41
11/12/2020 10:15:00 AM 10.01 50.018 0.132 7.5 6.86 11.44
11/12/2020 10:30:00 AM 10.01 50.018 0.132 7.5 7.28 11.48
11/12/2020 10:45:00 AM 10.01 50.018 0.131 7.51 7.13 11.5
11/12/2020 11:00:00 AM 10.01 50.018 0.131 7.52 6.81 11.52
11/12/2020 11:15:00 AM 10.01 50.018 0.131 7.52 7.05 11.52
11/12/2020 11:30:00 AM 10 50 0.131 7.51 7.42 11.52
11/12/2020 11:45:00 AM 10 50 0.13 7.52 6.75 11.54
11/12/2020 12:00:00 PM 10 50 0.13 7.52 6.72 11.56
11/12/2020 12:15:00 PM 10 50 0.13 7.52 7.3 11.57
11/12/2020 12:30:00 PM 10 50 0.13 7.53 7.09 11.58
11/12/2020 12:45:00 PM 10 50 0.13 7.53 6.66 11.57
11/12/2020 1:00:00 PM 10.01 50.018 0.13 7.53 6.68 11.6
11/12/2020 1:15:00 PM 10.01 50.018 0.129 7.55 6.56 11.65
11/12/2020 1:30:00 PM 10.03 50.054 0.129 7.55 6.61 11.68
11/12/2020 1:45:00 PM 10.05 50.09 0.129 7.56 6.52 11.71
11/12/2020 2:00:00 PM 10.06 50.108 0.129 7.57 6.43 11.73
11/12/2020 2:15:00 PM 10.07 50.126 0.129 7.58 6.81 11.75
11/12/2020 2:30:00 PM 10.07 50.126 0.129 7.57 6.39 11.73
11/12/2020 2:45:00 PM 10.06 50.108 0.129 7.57 6.61 11.72
11/12/2020 3:00:00 PM 10.06 50.108 0.129 7.58 6.02 11.71
11/12/2020 3:15:00 PM 10.06 50.108 0.129 7.57 6.44 11.7
11/12/2020 3:30:00 PM 10.05 50.09 0.128 7.57 6.09 11.7
11/12/2020 3:45:00 PM 10.03 50.054 0.128 7.56 6.38 11.64
11/12/2020 4:00:00 PM 10.02 50.036 0.128 7.56 5.95 11.61
11/12/2020 4:15:00 PM 10 50 0.128 7.56 6.11 11.57
11/12/2020 4:30:00 PM 9.97 49.946 0.128 7.54 5.99 11.52
11/12/2020 4:45:00 PM 9.94 49.892 0.129 7.52 5.94 11.45
11/12/2020 5:00:00 PM 9.9 49.82 0.129 7.51 6.14 11.4
11/12/2020 5:15:00 PM 9.86 49.748 0.129 7.5 5.82 11.35
11/12/2020 5:30:00 PM 9.81 49.658 0.129 7.48 5.86 11.32
11/12/2020 5:45:00 PM 9.76 49.568 0.129 7.48 5.87 11.3
11/12/2020 6:00:00 PM 9.7 49.46 0.129 7.46 5.78 11.28
11/12/2020 6:15:00 PM 9.67 49.406 0.129 7.46 5.67 11.26
11/12/2020 6:30:00 PM 9.62 49.316 0.129 7.45 5.52 11.27
11/12/2020 6:45:00 PM 9.58 49.244 0.129 7.45 5.86 11.24
11/12/2020 7:00:00 PM 9.53 49.154 0.129 7.45 5.64 11.25
11/12/2020 7:15:00 PM 9.48 49.064 0.129 7.44 5.85 11.25
11/12/2020 7:30:00 PM 9.44 48.992 0.13 7.43 5.68 11.23
11/12/2020 7:45:00 PM 9.39 48.902 0.13 7.43 5.64 11.25
11/12/2020 8:00:00 PM 9.34 48.812 0.13 7.43 5.64 11.25
11/12/2020 8:15:00 PM 9.28 48.704 0.13 7.42 5.68 11.26
11/12/2020 8:30:00 PM 9.23 48.614 0.13 7.42 5.57 11.27
11/12/2020 8:45:00 PM 9.18 48.524 0.13 7.42 5.56 11.28
11/12/2020 9:00:00 PM 9.13 48.434 0.13 7.42 5.55 11.29
11/12/2020 9:15:00 PM 9.08 48.344 0.13 7.42 5.78 11.31
11/12/2020 9:30:00 PM 9.03 48.254 0.131 7.42 5.38 11.3
11/12/2020 9:45:00 PM 8.97 48.146 0.131 7.41 5.78 11.31
11/12/2020 10:00:00 PM 8.92 48.056 0.131 7.41 5.53 11.32
11/12/2020 10:15:00 PM 8.87 47.966 0.131 7.4 5.73 11.33
11/12/2020 10:30:00 PM 8.81 47.858 0.131 7.4 5.54 11.35
11/12/2020 10:45:00 PM 8.75 47.75 0.131 7.41 5.43 11.36
11/12/2020 11:00:00 PM 8.7 47.66 0.131 7.41 5.47 11.37
11/12/2020 11:15:00 PM 8.65 47.57 0.131 7.4 5.93 11.37
11/12/2020 11:30:00 PM 8.59 47.462 0.131 7.4 5.64 11.39
11/12/2020 11:45:00 PM 8.54 47.372 0.132 7.4 5.45 11.4
11/13/2020 12:00:00 AM 8.49 47.282 0.132 7.4 5.49 11.41
11/13/2020 12:15:00 AM 8.44 47.192 0.132 7.4 5.59 11.43
11/13/2020 12:30:00 AM 8.38 47.084 0.132 7.4 5.46 11.45
11/13/2020 12:45:00 AM 8.34 47.012 0.132 7.39 6.04 11.45
11/13/2020 1:00:00 AM 8.28 46.904 0.132 7.39 5.78 11.44
11/13/2020 1:15:00 AM 8.22 46.796 0.132 7.4 5.91 11.49
11/13/2020 1:30:00 AM 8.17 46.706 0.132 7.39 5.66 11.47
11/13/2020 1:45:00 AM 8.13 46.634 0.132 7.38 5.94 11.47
11/13/2020 2:00:00 AM 8.08 46.544 0.132 7.39 5.71 11.52
11/13/2020 2:15:00 AM 8.03 46.454 0.132 7.39 5.54 11.51
11/13/2020 2:30:00 AM 7.98 46.364 0.132 7.39 5.55 11.51
11/13/2020 2:45:00 AM 7.93 46.274 0.132 7.39 5.71 11.55
11/13/2020 3:00:00 AM 7.89 46.202 0.132 7.39 5.58 11.56
11/13/2020 3:15:00 AM 7.86 46.148 0.132 7.39 5.82 11.56
11/13/2020 3:30:00 AM 7.84 46.112 0.132 7.39 5.46 11.58
11/13/2020 3:45:00 AM 7.83 46.094 0.133 7.39 5.55 11.57
11/13/2020 4:00:00 AM 7.82 46.076 0.133 7.39 5.53 11.58
11/13/2020 4:15:00 AM 7.8 46.04 0.133 7.4 5.79 11.6
11/13/2020 4:30:00 AM 7.8 46.04 0.133 7.4 5.61 11.6
11/13/2020 4:45:00 AM 7.79 46.022 0.133 7.39 5.71 11.58
11/13/2020 5:00:00 AM 7.78 46.004 0.133 7.4 5.59 11.61
11/13/2020 5:15:00 AM 7.77 45.986 0.133 7.4 5.55 11.62
11/13/2020 5:30:00 AM 7.77 45.986 0.133 7.4 5.59 11.61
11/13/2020 5:45:00 AM 7.76 45.968 0.133 7.4 5.61 11.6
11/13/2020 6:00:00 AM 7.76 45.968 0.133 7.4 5.67 11.62
11/13/2020 6:15:00 AM 7.75 45.95 0.133 7.41 5.84 11.61
11/13/2020 6:30:00 AM 7.74 45.932 0.133 7.4 5.66 11.61
11/13/2020 6:45:00 AM 7.74 45.932 0.134 7.4 5.65 11.62
11/13/2020 7:00:00 AM 7.74 45.932 0.134 7.4 5.67 11.63
11/13/2020 7:15:00 AM 7.73 45.914 0.134 7.4 5.51 11.61
11/13/2020 7:30:00 AM 7.73 45.914 0.134 7.41 5.75 11.63
11/13/2020 7:45:00 AM 7.73 45.914 0.134 7.41 5.65 11.65
11/13/2020 8:00:00 AM 7.73 45.914 0.134 7.42 5.71 11.7
11/13/2020 8:15:00 AM 7.72 45.896 0.134 7.43 5.84 11.72
11/13/2020 8:30:00 AM 7.72 45.896 0.134 7.42 5.59 11.73
11/13/2020 8:45:00 AM 7.76 45.968 0.134 7.44 5.78 11.86
11/13/2020 9:00:00 AM 7.82 46.076 0.134 7.46 5.46 12.01
11/13/2020 9:15:00 AM 7.85 46.13 0.135 7.47 5.75 12.07
11/13/2020 9:30:00 AM 7.86 46.148 0.135 7.48 5.84 12.05
11/13/2020 9:45:00 AM 7.89 46.202 0.135 7.49 5.76 12.1
11/13/2020 10:00:00 AM 7.93 46.274 0.135 7.51 5.63 12.14
11/13/2020 10:15:00 AM 8.05 46.49 0.135 7.53 5.37 12.25
11/13/2020 10:30:00 AM 8.16